Provisional Data: Blockhouse Creek near English Center, PA


Please select a monitoring station.
Please select start date.
Please select start date.

Toggle Unit: C/F Toggle Unit: C/F
Sample Time Temperature (C) Temperature (F) Specific Conductivity (mS/cm) pH   Turbidity (NTU+) DO (mg/L)
6/22/2021 12:00:00 AM 19.5 67.1 0.13 7.7 4.33 8.32
6/22/2021 12:15:00 AM 19.44 66.992 0.13 7.71 4.71 8.35
6/22/2021 12:30:00 AM 19.38 66.884 0.131 7.72 3.69 8.36
6/22/2021 12:45:00 AM 19.33 66.794 0.132 7.73 4.03 8.38
6/22/2021 1:00:00 AM 19.26 66.668 0.133 7.74 4.94 8.39
6/22/2021 1:15:00 AM 19.18 66.524 0.134 7.74 3.57 8.41
6/22/2021 1:30:00 AM 19.11 66.398 0.134 7.75 3.55 8.43
6/22/2021 1:45:00 AM 19.03 66.254 0.135 7.75 4.17 8.45
6/22/2021 2:00:00 AM 18.96 66.128 0.135 7.75 3.52 8.46
6/22/2021 2:15:00 AM 18.88 65.984 0.136 7.74 3.75 8.47
6/22/2021 2:30:00 AM 18.81 65.858 0.137 7.75 3.29 8.49
6/22/2021 2:45:00 AM 18.74 65.732 0.138 7.75 3.26 8.51
6/22/2021 3:00:00 AM 18.66 65.588 0.138 7.76 3.26 8.53
6/22/2021 3:15:00 AM 18.58 65.444 0.139 7.77 3.68 8.52
6/22/2021 3:30:00 AM 18.51 65.318 0.14 7.77 3.27 8.55
6/22/2021 3:45:00 AM 18.43 65.174 0.14 7.77 5.88 8.57
6/22/2021 4:00:00 AM 18.37 65.066 0.14 7.78 3.3 8.58
6/22/2021 4:15:00 AM 18.32 64.976 0.139 7.78 2.95 8.59
6/22/2021 4:30:00 AM 18.25 64.85 0.14 7.78 2.97 8.6
6/22/2021 4:45:00 AM 18.2 64.76 0.14 7.78 3.05 8.6
6/22/2021 5:00:00 AM 18.13 64.634 0.14 7.78 3.36 8.63
6/22/2021 5:15:00 AM 18.07 64.526 0.14 7.78 4.49 8.61
6/22/2021 5:30:00 AM 18.01 64.418 0.14 7.78 3.22 8.65
6/22/2021 5:45:00 AM 17.96 64.328 0.14 7.78 2.82 8.66
6/22/2021 6:00:00 AM 17.9 64.22 0.139 7.78 2.76 8.68
6/22/2021 6:15:00 AM 17.84 64.112 0.139 7.78 2.6 8.7
6/22/2021 6:30:00 AM 17.78 64.004 0.139 7.79 2.3 8.71
6/22/2021 6:45:00 AM 17.73 63.914 0.139 7.79 2.51 8.75
6/22/2021 7:00:00 AM 17.66 63.788 0.139 7.8 2.57 8.79
6/22/2021 7:15:00 AM 17.6 63.68 0.139 7.8 2.61 8.82
6/22/2021 7:30:00 AM 17.54 63.572 0.138 7.81 2.39 8.86
6/22/2021 7:45:00 AM 17.48 63.464 0.138 7.81 2.3 8.88
6/22/2021 8:00:00 AM 17.42 63.356 0.138 7.81 2.28 8.89
6/22/2021 8:15:00 AM 17.36 63.248 0.137 7.81 2.14 8.91
6/22/2021 8:30:00 AM 17.33 63.194 0.137 7.82 2.02 8.96
6/22/2021 8:45:00 AM 17.28 63.104 0.137 7.83 2.23 9
6/22/2021 9:00:00 AM 17.24 63.032 0.137 7.84 2.08 9.05
6/22/2021 9:15:00 AM 17.19 62.942 0.137 7.84 2.59 9.06
6/22/2021 9:30:00 AM 17.18 62.924 0.137 7.86 2.1 9.19
6/22/2021 9:45:00 AM 17.2 62.96 0.137 7.91 2.33 9.36
6/22/2021 10:00:00 AM 17.2 62.96 0.137 7.94 2.35 9.42
6/22/2021 10:15:00 AM 17.18 62.924 0.137 7.94 2.24 9.4
6/22/2021 10:30:00 AM 17.16 62.888 0.137 7.96 2.09 9.42
6/22/2021 10:45:00 AM 17.16 62.888 0.137 7.97 1.91 9.44
6/22/2021 11:00:00 AM 17.18 62.924 0.137 8 1.93 9.53
6/22/2021 11:15:00 AM 17.18 62.924 0.137 8.02 2.09 9.57
6/22/2021 11:30:00 AM 17.17 62.906 0.137 8.04 1.81 9.57
6/22/2021 11:45:00 AM 17.16 62.888 0.137 8.03 1.8 9.56
6/22/2021 12:00:00 PM 17.15 62.87 0.138 8.03 1.78 9.55
6/22/2021 12:15:00 PM 17.17 62.906 0.137 8.06 1.88 9.63
6/22/2021 12:30:00 PM 17.18 62.924 0.137 8.08 1.71 9.61
6/22/2021 12:45:00 PM 17.21 62.978 0.137 8.09 1.76 9.64
6/22/2021 1:00:00 PM 17.21 62.978 0.137 8.09 1.63 9.63
6/22/2021 1:15:00 PM 17.21 62.978 0.138 8.1 1.58 9.63
6/22/2021 1:30:00 PM 17.19 62.942 0.138 8.1 1.93 9.63
6/22/2021 1:45:00 PM 17.19 62.942 0.138 8.12 1.74 9.68
6/22/2021 2:00:00 PM 17.22 62.996 0.138 8.15 1.75 9.75
6/22/2021 2:15:00 PM 17.22 62.996 0.138 8.17 1.71 9.73
6/22/2021 2:30:00 PM 17.26 63.068 0.139 8.19 1.67 9.78
6/22/2021 2:45:00 PM 17.27 63.086 0.139 8.2 1.75 9.8
6/22/2021 3:00:00 PM 17.3 63.14 0.139 8.21 1.96 9.79
6/22/2021 3:15:00 PM 17.31 63.158 0.14 8.21 2.04 9.77
6/22/2021 3:30:00 PM 17.3 63.14 0.14 8.2 2.06 9.75
6/22/2021 3:45:00 PM 17.28 63.104 0.14 8.18 2.06 9.71
6/22/2021 4:00:00 PM 17.31 63.158 0.141 8.2 2.25 9.75
6/22/2021 4:15:00 PM 17.38 63.284 0.141 8.22 1.68 9.78
6/22/2021 4:30:00 PM 17.37 63.266 0.142 8.21 1.88 9.74
6/22/2021 4:45:00 PM 17.38 63.284 0.142 8.22 1.98 9.75
6/22/2021 5:00:00 PM 17.4 63.32 0.143 8.21 1.92 9.74
6/22/2021 5:15:00 PM 17.42 63.356 0.143 8.2 1.8 9.7
6/22/2021 5:30:00 PM 17.37 63.266 0.143 8.16 2.28 9.63
6/22/2021 5:45:00 PM 17.3 63.14 0.144 8.15 2.1 9.62
6/22/2021 6:00:00 PM 17.32 63.176 0.144 8.15 1.56 9.62
6/22/2021 6:15:00 PM 17.38 63.284 0.144 8.15 1.81 9.61
6/22/2021 6:30:00 PM 17.31 63.158 0.144 8.12 1.9 9.54
6/22/2021 6:45:00 PM 17.21 62.978 0.145 8.08 1.9 9.46
6/22/2021 7:00:00 PM 17.11 62.798 0.145 8.05 1.76 9.44
6/22/2021 7:15:00 PM 17.06 62.708 0.145 8.03 1.79 9.38
6/22/2021 7:30:00 PM 16.98 62.564 0.145 8 1.75 9.34
6/22/2021 7:45:00 PM 16.89 62.402 0.145 7.97 2.14 9.3
6/22/2021 8:00:00 PM 16.79 62.222 0.145 7.95 1.74 9.26
6/22/2021 8:15:00 PM 16.71 62.078 0.145 7.93 1.95 9.2
6/22/2021 8:30:00 PM 16.6 61.88 0.145 7.91 2.08 9.18
6/22/2021 8:45:00 PM 16.5 61.7 0.145 7.89 1.73 9.16
6/22/2021 9:00:00 PM 16.39 61.502 0.144 7.87 2.04 9.13
6/22/2021 9:15:00 PM 16.27 61.286 0.144 7.86 1.9 9.14
6/22/2021 9:30:00 PM 16.16 61.088 0.144 7.85 2.23 9.15
6/22/2021 9:45:00 PM 16.04 60.872 0.144 7.84 2.44 9.15
6/22/2021 10:00:00 PM 15.93 60.674 0.144 7.83 3.08 9.18
6/22/2021 10:15:00 PM 15.82 60.476 0.144 7.82 2.58 9.19
6/22/2021 10:30:00 PM 15.71 60.278 0.144 7.82 2.46 9.21
6/22/2021 10:45:00 PM 15.62 60.116 0.144 7.82 2.44 9.23
6/22/2021 11:00:00 PM 15.51 59.918 0.144 7.81 1.89 9.26
6/22/2021 11:15:00 PM 15.41 59.738 0.144 7.81 1.98 9.27
6/22/2021 11:30:00 PM 15.3 59.54 0.144 7.81 2.14 9.28
6/22/2021 11:45:00 PM 15.2 59.36 0.144 7.81 1.97 9.32
6/23/2021 12:00:00 AM 15.1 59.18 0.144 7.81 2.39 9.34
6/23/2021 12:15:00 AM 15.01 59.018 0.144 7.81 1.95 9.36
6/23/2021 12:30:00 AM 14.92 58.856 0.144 7.8 2.16 9.39
6/23/2021 12:45:00 AM 14.84 58.712 0.144 7.8 1.73 9.41
6/23/2021 1:00:00 AM 14.78 58.604 0.144 7.8 1.74 9.42
6/23/2021 1:15:00 AM 14.72 58.496 0.144 7.8 1.75 9.44
6/23/2021 1:30:00 AM 14.66 58.388 0.144 7.8 38.3 9.45
6/23/2021 1:45:00 AM 14.6 58.28 0.144 7.8 1.91 9.48
6/23/2021 2:00:00 AM 14.51 58.118 0.144 7.8 1.65 9.49
6/23/2021 2:15:00 AM 14.43 57.974 0.144 7.8 3.1 9.51
6/23/2021 2:30:00 AM 14.34 57.812 0.143 7.8 1.87 9.54
6/23/2021 2:45:00 AM 14.27 57.686 0.144 7.8 1.74 9.55
6/23/2021 3:00:00 AM 14.19 57.542 0.145 7.8 1.92 9.57
6/23/2021 3:15:00 AM 14.12 57.416 0.145 7.8 1.68 9.59
6/23/2021 3:30:00 AM 14.07 57.326 0.145 7.8 1.58 9.6
6/23/2021 3:45:00 AM 14.01 57.218 0.145 7.8 1.4 9.61
6/23/2021 4:00:00 AM 14.01 57.218 0.145 7.8 1.54 9.61
6/23/2021 4:15:00 AM 13.95 57.11 0.143 7.8 1.61 9.62
6/23/2021 4:30:00 AM 13.88 56.984 0.145 7.8 1.64 9.64
6/23/2021 4:45:00 AM 13.82 56.876 0.145 7.8 1.47 9.65
6/23/2021 5:00:00 AM 13.76 56.768 0.145 7.8 5.51 9.67
6/23/2021 5:15:00 AM 13.71 56.678 0.145 7.8 1.65 9.68
6/23/2021 5:30:00 AM 13.66 56.588 0.145 7.8 1.6 9.7
6/23/2021 5:45:00 AM 13.61 56.498 0.145 7.8 1.6 9.72
6/23/2021 6:00:00 AM 13.56 56.408 0.145 7.81 1.57 9.75
6/23/2021 6:15:00 AM 13.51 56.318 0.145 7.82 1.94 9.8
6/23/2021 6:30:00 AM 13.47 56.246 0.145 7.82 1.54 9.86
6/23/2021 6:45:00 AM 13.44 56.192 0.145 7.84 1.51 9.94
6/23/2021 7:00:00 AM 13.4 56.12 0.145 7.86 1.49 10.01
6/23/2021 7:15:00 AM 13.37 56.066 0.144 7.87 1.49 10.09
6/23/2021 7:30:00 AM 13.36 56.048 0.144 7.89 1.87 10.18
6/23/2021 7:45:00 AM 13.34 56.012 0.144 7.92 1.86 10.26
6/23/2021 8:00:00 AM 13.39 56.102 0.144 7.95 4.2 10.35
6/23/2021 8:15:00 AM 13.47 56.246 0.144 7.97 1.44 10.38
6/23/2021 8:30:00 AM 13.54 56.372 0.144 7.98 4.28 10.36
6/23/2021 8:45:00 AM 13.59 56.462 0.145 7.98 1.1 10.35
6/23/2021 9:00:00 AM 13.67 56.606 0.145 7.98 1.07 10.35
6/23/2021 9:15:00 AM 13.77 56.786 0.144 7.99 1.11 10.35
6/23/2021 9:30:00 AM 13.9 57.02 0.144 8 1.09 10.36
6/23/2021 9:45:00 AM 14.07 57.326 0.144 8.01 1 10.35
6/23/2021 10:00:00 AM 14.29 57.722 0.144 8.03 0.97 10.34
6/23/2021 10:15:00 AM 14.53 58.154 0.144 8.04 1.13 10.32
6/23/2021 10:30:00 AM 14.8 58.64 0.144 8.05 2.47 10.29
6/23/2021 10:45:00 AM 15.04 59.072 0.144 8.07 1.45 10.25
6/23/2021 11:00:00 AM 15.33 59.594 0.144 8.09 1.29 10.24
6/23/2021 11:15:00 AM 15.54 59.972 0.144 8.11 1.3 10.25
6/23/2021 11:30:00 AM 15.74 60.332 0.144 8.14 1.13 10.24
6/23/2021 11:45:00 AM 15.85 60.53 0.144 8.15 1.03 10.17
6/23/2021 12:00:00 PM 16.13 61.034 0.144 8.17 1.48 10.19
6/23/2021 12:15:00 PM 16.2 61.16 0.144 8.18 0.96 10.11
6/23/2021 12:30:00 PM 16.43 61.574 0.144 8.19 0.83 10.11
6/23/2021 12:45:00 PM 16.64 61.952 0.144 8.21 1.09 10.1
6/23/2021 1:00:00 PM 16.8 62.24 0.144 8.22 0.89 10.05
6/23/2021 1:15:00 PM 17.1 62.78 0.144 8.24 0.93 10.06
6/23/2021 1:30:00 PM 17.14 62.852 0.144 8.23 0.77 9.96
6/23/2021 1:45:00 PM 17.52 63.536 0.144 8.26 0.72 10.01
6/23/2021 2:00:00 PM 17.77 63.986 0.144 8.28 1.13 9.92
6/23/2021 2:15:00 PM 18.02 64.436 0.144 8.28 0.9 9.89
6/23/2021 2:30:00 PM 18.49 65.282 0.144 8.32 0.92 9.86
6/23/2021 2:45:00 PM 18.62 65.516 0.144 8.3 0.91 9.75
6/23/2021 3:00:00 PM 19.01 66.218 0.144 8.32 0.9 9.74
6/23/2021 3:15:00 PM 19.15 66.47 0.144 8.32 0.93 9.68
6/23/2021 3:30:00 PM 19.4 66.92 0.144 8.34 0.96 9.66
6/23/2021 3:45:00 PM 19.45 67.01 0.144 8.34 0.95 9.58
6/23/2021 4:00:00 PM 19.45 67.01 0.144 8.3 0.98 9.48
6/23/2021 4:15:00 PM 19.43 66.974 0.144 8.26 0.96 9.41
6/23/2021 4:30:00 PM 19.39 66.902 0.144 8.24 6.29 9.42
6/23/2021 4:45:00 PM 19.37 66.866 0.144 8.22 1.96 9.41
6/23/2021 5:00:00 PM 19.34 66.812 0.144 8.22 1.57 9.4
6/23/2021 5:15:00 PM 19.39 66.902 0.144 8.23 3.67 9.42
6/23/2021 5:30:00 PM 19.37 66.866 0.144 8.23 1.69 9.43
6/23/2021 5:45:00 PM 19.29 66.722 0.144 8.21 1.08 9.39
6/23/2021 6:00:00 PM 19.14 66.452 0.144 8.17 1.15 9.32
6/23/2021 6:15:00 PM 18.96 66.128 0.144 8.13 1.03 9.27
6/23/2021 6:30:00 PM 18.79 65.82201 0.144 8.09 1.3 9.21
6/23/2021 6:45:00 PM 18.62 65.516 0.144 8.04 1.16 9.12
6/23/2021 7:00:00 PM 18.47 65.246 0.144 8.01 1.19 9.08
6/23/2021 7:15:00 PM 18.36 65.048 0.144 7.98 1.25 9.05
6/23/2021 7:30:00 PM 18.21 64.778 0.144 7.96 1.24 9.01
6/23/2021 7:45:00 PM 18.07 64.526 0.144 7.94 1.11 9
6/23/2021 8:00:00 PM 17.94 64.292 0.144 7.92 1.45 8.98
6/23/2021 8:15:00 PM 17.81 64.058 0.144 7.9 1.21 8.94
6/23/2021 8:30:00 PM 17.68 63.824 0.144 7.89 52.76 8.95
6/23/2021 8:45:00 PM 17.57 63.626 0.144 7.87 1.23 8.95
6/23/2021 9:00:00 PM 17.46 63.428 0.144 7.85 1.23 8.91
6/23/2021 9:15:00 PM 17.36 63.248 0.144 7.84 1.21 8.89
6/23/2021 9:30:00 PM 17.25 63.05 0.144 7.83 1.42 8.92
6/23/2021 9:45:00 PM 17.15 62.87 0.144 7.82 1.44 8.92
6/23/2021 10:00:00 PM 17.05 62.69 0.144 7.81 1.63 8.92
6/23/2021 10:15:00 PM 16.94 62.492 0.144 7.81 1.35 8.95
6/23/2021 10:30:00 PM 16.82 62.276 0.144 7.81 1.44 8.98
6/23/2021 10:45:00 PM 16.71 62.078 0.144 7.8 1.57 9
6/23/2021 11:00:00 PM 16.59 61.862 0.144 7.8 1.34 9.02
6/23/2021 11:15:00 PM 16.48 61.664 0.144 7.8 1.37 9.05
6/23/2021 11:30:00 PM 16.37 61.466 0.144 7.8 2.21 9.07
6/23/2021 11:45:00 PM 16.27 61.286 0.144 7.8 2.03 9.09
6/24/2021 12:00:00 AM 16.17 61.106 0.144 7.79 1.32 9.11
6/24/2021 12:15:00 AM 16.07 60.926 0.144 7.79 1.81 9.11
6/24/2021 12:30:00 AM 15.97 60.746 0.144 7.79 1.35 9.16
6/24/2021 12:45:00 AM 15.88 60.584 0.144 7.79 1.35 9.2
6/24/2021 1:00:00 AM 15.78 60.404 0.144 7.79 1.46 9.22
6/24/2021 1:15:00 AM 15.69 60.242 0.144 7.79 1.85 9.21
6/24/2021 1:30:00 AM 15.59 60.062 0.144 7.79 1.21 9.25
6/24/2021 1:45:00 AM 15.49 59.882 0.144 7.79 1.2 9.27
6/24/2021 2:00:00 AM 15.4 59.72 0.144 7.79 1.3 9.29
6/24/2021 2:15:00 AM 15.3 59.54 0.144 7.79 1.37 9.33
6/24/2021 2:30:00 AM 15.21 59.378 0.144 7.78 7.67 9.32
6/24/2021 2:45:00 AM 15.12 59.216 0.144 7.79 1.72 9.37
6/24/2021 3:00:00 AM 15.03 59.054 0.144 7.78 1.89 9.38
6/24/2021 3:15:00 AM 14.93 58.874 0.144 7.78 1.24 9.41
6/24/2021 3:30:00 AM 14.84 58.712 0.144 7.78 1.19 9.43
6/24/2021 3:45:00 AM 14.75 58.55 0.144 7.78 1.2 9.46
6/24/2021 4:00:00 AM 14.66 58.388 0.144 7.78 1.09 9.49
6/24/2021 4:15:00 AM 14.57 58.226 0.144 7.79 2.04 9.51
6/24/2021 4:30:00 AM 14.48 58.064 0.144 7.78 1.15 9.53
6/24/2021 4:45:00 AM 14.39 57.902 0.144 7.78 138.64 9.52
6/24/2021 5:00:00 AM 14.31 57.758 0.144 7.78 1.07 9.58
6/24/2021 5:15:00 AM 14.22 57.596 0.142 7.78 1.44 9.57
6/24/2021 5:30:00 AM 14.13 57.434 0.144 7.78 1.25 9.62
6/24/2021 5:45:00 AM 14.05 57.29 0.144 7.78 1.18 9.65
6/24/2021 6:00:00 AM 13.97 57.146 0.144 7.79 1.52 9.69
6/24/2021 6:15:00 AM 13.9 57.02 0.144 7.8 2.73 9.76
6/24/2021 6:30:00 AM 13.83 56.894 0.144 7.8 45.43 9.81
6/24/2021 6:45:00 AM 13.78 56.804 0.144 7.82 188.79 9.88
6/24/2021 7:00:00 AM 13.73 56.714 0.143 7.84 1.25 9.97
6/24/2021 7:15:00 AM 13.7 56.66 0.143 7.85 1.33 10.03
6/24/2021 7:30:00 AM 13.71 56.678 0.143 7.87 1.11 10.13
6/24/2021 7:45:00 AM 13.75 56.75 0.143 7.9 1.32 10.22
6/24/2021 8:00:00 AM 13.75 56.75 0.143 7.92 1.3 10.24
6/24/2021 8:15:00 AM 13.78 56.804 0.143 7.93 0.97 10.27
6/24/2021 8:30:00 AM 13.89 57.002 0.143 7.95 1.07 10.33
6/24/2021 8:45:00 AM 13.99 57.182 0.143 7.97 0.95 10.36
6/24/2021 9:00:00 AM 14.11 57.398 0.143 7.98 0.83 10.37
6/24/2021 9:15:00 AM 14.25 57.65 0.143 8 1.03 10.38
6/24/2021 9:30:00 AM 14.4 57.92 0.143 8.01 0.94 10.39
6/24/2021 9:45:00 AM 14.58 58.244 0.143 8.04 1.51 10.37
6/24/2021 10:00:00 AM 14.8 58.64 0.143 8.05 7.19 10.37
6/24/2021 10:15:00 AM 15.06 59.108 0.142 8.07 16.71 10.35
6/24/2021 10:30:00 AM 15.34 59.612 0.142 8.09 1.38 10.3
6/24/2021 10:45:00 AM 15.65 60.17 0.142 8.11 4.95 10.28
6/24/2021 11:00:00 AM 15.97 60.746 0.142 8.13 3057.4 10.24
6/24/2021 11:15:00 AM 16.28 61.304 0.142 8.15 7.86 10.2
6/24/2021 11:30:00 AM 16.6 61.88 0.142 8.16 10.73 10.16
6/24/2021 11:45:00 AM 16.94 62.492 0.142 8.19 18.7 10.12
6/24/2021 12:00:00 PM 17.27 63.086 0.142 8.21 0.78 10.02
6/24/2021 12:15:00 PM 17.6 63.68 0.142 8.23 30.38 9.98
6/24/2021 12:30:00 PM 17.96 64.328 0.142 8.25 41.61 9.97
6/24/2021 12:45:00 PM 18.3 64.94 0.142 8.27 1.07 9.91
6/24/2021 1:00:00 PM 18.61 65.498 0.142 8.29 0.74 9.85
6/24/2021 1:15:00 PM 18.94 66.092 0.142 8.3 0.72 9.81
6/24/2021 1:30:00 PM 19.26 66.668 0.142 8.31 0.93 9.74
6/24/2021 1:45:00 PM 19.56 67.208 0.142 8.32 0.8 9.7
6/24/2021 2:00:00 PM 19.85 67.73 0.142 8.34 0.75 9.65
6/24/2021 2:15:00 PM 20.1 68.18 0.142 8.35 0.75 9.59
6/24/2021 2:30:00 PM 20.33 68.594 0.142 8.37 0.75 9.57
6/24/2021 2:45:00 PM 20.55 68.99 0.142 8.37 0.71 9.52
6/24/2021 3:00:00 PM 20.75 69.35 0.142 8.38 0.8 9.48
6/24/2021 3:15:00 PM 20.93 69.674 0.142 8.39 0.72 9.44
6/24/2021 3:30:00 PM 21.07 69.926 0.142 8.4 0.92 9.41
6/24/2021 3:45:00 PM 21.22 70.196 0.142 8.4 0.89 9.38
6/24/2021 4:00:00 PM 21.29 70.32201 0.142 8.4 1.04 9.33
6/24/2021 4:15:00 PM 21.37 70.466 0.142 8.4 0.88 9.29
6/24/2021 4:30:00 PM 21.35 70.43 0.142 8.39 1.06 9.27
6/24/2021 4:45:00 PM 21.32 70.376 0.142 8.38 1.01 9.23
6/24/2021 5:00:00 PM 21.27 70.286 0.142 8.36 1.23 9.22
6/24/2021 5:15:00 PM 21.18 70.124 0.142 8.34 1.15 9.19
6/24/2021 5:30:00 PM 21.08 69.944 0.142 8.31 7.27 9.12
6/24/2021 5:45:00 PM 20.93 69.674 0.142 8.27 1.03 9.05
6/24/2021 6:00:00 PM 20.81 69.458 0.142 8.23 9.36 9.03
6/24/2021 6:15:00 PM 20.66 69.188 0.142 8.18 0.98 8.93
6/24/2021 6:30:00 PM 20.53 68.954 0.143 8.13 1.17 8.86
6/24/2021 6:45:00 PM 20.37 68.666 0.143 8.09 1.24 8.83
6/24/2021 7:00:00 PM 20.23 68.414 0.143 8.06 1.05 8.83
6/24/2021 7:15:00 PM 20.1 68.18 0.143 8.03 0.97 8.8
6/24/2021 7:30:00 PM 19.93 67.874 0.143 8 1.07 8.78
6/24/2021 7:45:00 PM 19.78 67.604 0.143 7.97 4.43 8.75
6/24/2021 8:00:00 PM 19.65 67.37 0.143 7.95 1.04 8.74
6/24/2021 8:15:00 PM 19.52 67.136 0.143 7.92 1.34 8.7
6/24/2021 8:30:00 PM 19.38 66.884 0.143 7.91 1.22 8.67
6/24/2021 8:45:00 PM 19.23 66.614 0.143 7.88 1.11 8.62
6/24/2021 9:00:00 PM 19.08 66.344 0.143 7.86 1.3 8.59
6/24/2021 9:15:00 PM 18.93 66.074 0.143 7.84 1.44 8.57
6/24/2021 9:30:00 PM 18.79 65.82201 0.143 7.82 1.45 8.57
6/24/2021 9:45:00 PM 18.65 65.57 0.143 7.81 1.4 8.59
6/24/2021 10:00:00 PM 18.51 65.318 0.143 7.8 1.19 8.61
6/24/2021 10:15:00 PM 18.36 65.048 0.137 7.8 1.26 8.63
6/24/2021 10:30:00 PM 18.21 64.778 0.143 7.8 1.63 8.67
6/24/2021 10:45:00 PM 18.08 64.544 0.143 7.8 1.66 8.68
6/24/2021 11:00:00 PM 17.94 64.292 0.143 7.79 1.4 8.72
6/24/2021 11:15:00 PM 17.81 64.058 0.143 7.79 1.38 8.74
6/24/2021 11:30:00 PM 17.68 63.824 0.143 7.79 1.2 8.77
6/24/2021 11:45:00 PM 17.55 63.59 0.143 7.79 1.15 8.81
6/25/2021 12:00:00 AM 17.43 63.374 0.143 7.79 1.44 8.83
6/25/2021 12:15:00 AM 17.32 63.176 0.143 7.79 1.29 8.85
6/25/2021 12:30:00 AM 17.21 62.978 0.143 7.78 1.29 8.87
6/25/2021 12:45:00 AM 17.12 62.816 0.143 7.79 1.5 8.9
6/25/2021 1:00:00 AM 17.02 62.636 0.143 7.79 1.33 8.92
6/25/2021 1:15:00 AM 16.91 62.438 0.143 7.79 1.41 8.94
6/25/2021 1:30:00 AM 16.82 62.276 0.143 7.78 1.63 8.96
6/25/2021 1:45:00 AM 16.73 62.114 0.143 7.78 1.16 8.96
6/25/2021 2:00:00 AM 16.63 61.934 0.143 7.78 1.33 8.99
6/25/2021 2:15:00 AM 16.54 61.772 0.143 7.78 1.59 9.02
6/25/2021 2:30:00 AM 16.46 61.628 0.143 7.78 1.14 9.04
6/25/2021 2:45:00 AM 16.36 61.448 0.143 7.78 1.43 9.05
6/25/2021 3:00:00 AM 16.28 61.304 0.143 7.78 1.15 9.07
6/25/2021 3:15:00 AM 16.18 61.124 0.143 7.78 1.29 9.09
6/25/2021 3:30:00 AM 16.1 60.98 0.143 7.78 1.51 9.12
6/25/2021 3:45:00 AM 16.01 60.818 0.143 7.78 1.27 9.14
6/25/2021 4:00:00 AM 15.92 60.656 0.143 7.78 1.14 9.17
6/25/2021 4:15:00 AM 15.84 60.512 0.143 7.78 1.19 9.2
6/25/2021 4:30:00 AM 15.76 60.368 0.143 7.78 1.18 9.22
6/25/2021 4:45:00 AM 15.68 60.224 0.143 7.78 1.63 9.23
6/25/2021 5:00:00 AM 15.59 60.062 0.143 7.78 1.51 9.26
6/25/2021 5:15:00 AM 15.51 59.918 0.143 7.78 4.98 9.27
6/25/2021 5:30:00 AM 15.42 59.756 0.143 7.78 1.67 9.3
6/25/2021 5:45:00 AM 15.34 59.612 0.143 7.78 62.5 9.3
6/25/2021 6:00:00 AM 15.26 59.468 0.143 7.79 27.12 9.38
6/25/2021 6:15:00 AM 15.2 59.36 0.143 7.8 1.43 9.42
6/25/2021 6:30:00 AM 15.14 59.252 0.143 7.81 2.14 9.51
6/25/2021 6:45:00 AM 15.09 59.162 0.143 7.83 2.53 9.62
6/25/2021 7:00:00 AM 15.06 59.108 0.143 7.85 50.85 9.71
6/25/2021 7:15:00 AM 15.05 59.09 0.142 7.88 84.5 9.81
6/25/2021 7:30:00 AM 15.06 59.108 0.142 7.91 82.33 9.88
6/25/2021 7:45:00 AM 15.09 59.162 0.142 7.94 128.82 10.02
6/25/2021 8:00:00 AM 15.14 59.252 0.142 7.99 0.94 10.13
6/25/2021 8:15:00 AM 15.19 59.342 0.142 8.03 2.53 10.16
6/25/2021 8:30:00 AM 15.23 59.414 0.142 8.05 114.74 10.19
6/25/2021 8:45:00 AM 15.32 59.576 0.142 8.07 1.35 10.24
6/25/2021 9:00:00 AM 15.44 59.792 0.142 8.1 1.81 10.24
6/25/2021 9:15:00 AM 15.58 60.044 0.142 8.13 16.95 10.29
6/25/2021 9:30:00 AM 15.74 60.332 0.142 8.15 0.83 10.26
6/25/2021 9:45:00 AM 15.9 60.62 0.141 8.16 150.82 10.28
6/25/2021 10:00:00 AM 16.09 60.962 0.141 8.19 85.41 10.27
6/25/2021 10:15:00 AM 16.29 61.322 0.141 8.22 12.06 10.26
6/25/2021 10:30:00 AM 16.49 61.682 0.141 8.25 1.15 10.27
6/25/2021 10:45:00 AM 16.74 62.132 0.141 8.28 1.92 10.25
6/25/2021 11:00:00 AM 17 62.6 0.141 8.31 1.14 10.23
6/25/2021 11:15:00 AM 17.3 63.14 0.141 8.33 0.88 10.18
6/25/2021 11:30:00 AM 17.62 63.716 0.141 8.37 12.52 10.17
6/25/2021 11:45:00 AM 17.94 64.292 0.141 8.39 23.98 10.11
6/25/2021 12:00:00 PM 18.24 64.832 0.141 8.41 267.41 10.06
6/25/2021 12:15:00 PM 18.55 65.39 0.141 8.44 335.77 10.03
6/25/2021 12:30:00 PM 18.85 65.93 0.141 8.47 10.64 9.98
6/25/2021 12:45:00 PM 19.14 66.452 0.141 8.51 0.73 9.96
6/25/2021 1:00:00 PM 19.37 66.866 0.141 8.55 0.95 9.95
6/25/2021 1:15:00 PM 19.64 67.352 0.141 8.59 23.77 9.92
6/25/2021 1:30:00 PM 19.9 67.82 0.141 8.62 151.57 9.89
6/25/2021 1:45:00 PM 20.11 68.198 0.141 8.64 36.27 9.85
6/25/2021 2:00:00 PM 20.18 68.324 0.14 8.66 607.84 9.79
6/25/2021 2:15:00 PM 20.32 68.576 0.141 8.67 91.83 9.78
6/25/2021 2:30:00 PM 20.62 69.116 0.141 8.69 11.55 9.78
6/25/2021 2:45:00 PM 20.72 69.296 0.141 8.7 3.62 9.69
6/25/2021 3:00:00 PM 20.88 69.584 0.141 8.7 0.7 9.7
6/25/2021 3:15:00 PM 21.18 70.124 0.141 8.71 2.61 9.64
6/25/2021 3:30:00 PM 21.33 70.394 0.141 8.67 0.95 9.52
6/25/2021 3:45:00 PM 21.52 70.736 0.141 8.63 0.67 9.42
6/25/2021 4:00:00 PM 21.7 71.06 0.141 8.6 1.8 9.38
6/25/2021 4:15:00 PM 21.83 71.294 0.141 8.58 0.72 9.31
6/25/2021 4:30:00 PM 21.93 71.474 0.141 8.56 0.77 9.26
6/25/2021 4:45:00 PM 21.93 71.474 0.141 8.55 0.83 9.24
6/25/2021 5:00:00 PM 21.88 71.384 0.141 8.51 0.98 9.19
6/25/2021 5:15:00 PM 21.78 71.204 0.141 8.5 0.62 9.19
6/25/2021 5:30:00 PM 21.62 70.916 0.141 8.49 1.07 9.19
6/25/2021 5:45:00 PM 21.44 70.592 0.141 8.46 1.06 9.18
6/25/2021 6:00:00 PM 21.29 70.32201 0.141 8.42 0.94 9.14
6/25/2021 6:15:00 PM 21.14 70.052 0.141 8.36 0.97 9.09
6/25/2021 6:30:00 PM 21.02 69.836 0.141 8.3 1.02 8.98
6/25/2021 6:45:00 PM 20.94 69.692 0.141 8.25 0.88 9
6/25/2021 7:00:00 PM 20.86 69.548 0.141 8.21 1.04 8.97
6/25/2021 7:15:00 PM 20.81 69.458 0.141 8.17 1.17 8.91
6/25/2021 7:30:00 PM 20.69 69.242 0.141 8.12 0.92 8.81
6/25/2021 7:45:00 PM 20.53 68.954 0.142 8.03 1.11 8.64
6/25/2021 8:00:00 PM 20.37 68.666 0.142 7.98 1.18 8.56
6/25/2021 8:15:00 PM 20.23 68.414 0.142 7.93 1.3 8.48
6/25/2021 8:30:00 PM 20.1 68.18 0.142 7.91 1.02 8.46
6/25/2021 8:45:00 PM 19.99 67.982 0.142 7.88 1.12 8.41
6/25/2021 9:00:00 PM 19.88 67.784 0.142 7.85 1.03 8.36
6/25/2021 9:15:00 PM 19.75 67.55 0.142 7.83 1.38 8.37
6/25/2021 9:30:00 PM 19.61 67.298 0.142 7.82 1.29 8.36
6/25/2021 9:45:00 PM 19.47 67.046 0.142 7.8 1.51 8.37
6/25/2021 10:00:00 PM 19.34 66.812 0.142 7.8 1.42 8.38
6/25/2021 10:15:00 PM 19.21 66.578 0.142 7.79 1.24 8.4
6/25/2021 10:30:00 PM 19.09 66.362 0.142 7.79 1.41 8.43
6/25/2021 10:45:00 PM 18.98 66.164 0.142 7.79 1.1 8.44
6/25/2021 11:00:00 PM 18.87 65.966 0.142 7.79 1.26 8.47
6/25/2021 11:15:00 PM 18.77 65.786 0.142 7.79 1.24 8.49
6/25/2021 11:30:00 PM 18.67 65.606 0.142 7.78 1.55 8.49
6/25/2021 11:45:00 PM 18.59 65.462 0.142 7.78 1.33 8.51
6/26/2021 12:00:00 AM 18.51 65.318 0.142 7.78 1.23 8.54
6/26/2021 12:15:00 AM 18.43 65.174 0.143 7.78 1.27 8.56
6/26/2021 12:30:00 AM 18.36 65.048 0.143 7.78 1.19 8.57
6/26/2021 12:45:00 AM 18.31 64.958 0.143 7.78 1.44 8.58
6/26/2021 1:00:00 AM 18.26 64.868 0.143 7.78 1.36 8.6
6/26/2021 1:15:00 AM 18.21 64.778 0.143 7.78 1.33 8.6
6/26/2021 1:30:00 AM 18.15 64.67 0.143 7.77 1.33 8.62
6/26/2021 1:45:00 AM 18.08 64.544 0.143 7.77 1.2 8.63
6/26/2021 2:00:00 AM 18.01 64.418 0.143 7.77 1.15 8.65
6/26/2021 2:15:00 AM 17.94 64.292 0.143 7.77 1.36 8.66
6/26/2021 2:30:00 AM 17.86 64.148 0.143 7.78 1.32 8.67
6/26/2021 2:45:00 AM 17.79 64.022 0.143 7.78 1.26 8.69
6/26/2021 3:00:00 AM 17.75 63.95 0.143 7.78 1.41 8.71
6/26/2021 3:15:00 AM 17.71 63.878 0.143 7.78 1.58 8.72
6/26/2021 3:30:00 AM 17.66 63.788 0.143 7.78 1.24 8.73
6/26/2021 3:45:00 AM 17.61 63.698 0.143 7.77 1.28 8.74
6/26/2021 4:00:00 AM 17.57 63.626 0.143 7.77 1.06 8.76
6/26/2021 4:15:00 AM 17.52 63.536 0.143 7.77 1.34 8.77
6/26/2021 4:30:00 AM 17.47 63.446 0.143 7.76 7.96 8.67
6/26/2021 4:45:00 AM 17.42 63.356 0.143 7.77 1.22 8.8
6/26/2021 5:00:00 AM 17.37 63.266 0.143 7.77 1.05 8.8
6/26/2021 5:15:00 AM 17.33 63.194 0.143 7.77 1.22 8.81
6/26/2021 5:30:00 AM 17.29 63.122 0.143 7.77 0.97 8.82
6/26/2021 5:45:00 AM 17.25 63.05 0.143 7.77 1.03 8.82
6/26/2021 6:00:00 AM 17.21 62.978 0.143 7.77 1.27 8.87
6/26/2021 6:15:00 AM 17.18 62.924 0.143 7.78 1.08 8.94
6/26/2021 6:30:00 AM 17.15 62.87 0.142 7.79 1.38 9.03
6/26/2021 6:45:00 AM 17.13 62.834 0.142 7.82 1.08 9.15
6/26/2021 7:00:00 AM 17.13 62.834 0.142 7.85 1.11 9.27
6/26/2021 7:15:00 AM 17.14 62.852 0.142 7.87 1.16 9.33
6/26/2021 7:30:00 AM 17.15 62.87 0.142 7.9 0.98 9.42
6/26/2021 7:45:00 AM 17.18 62.924 0.142 7.94 1.16 9.52
6/26/2021 8:00:00 AM 17.22 62.996 0.142 7.98 1.03 9.63
6/26/2021 8:15:00 AM 17.28 63.104 0.141 8.03 1.1 9.68
6/26/2021 8:30:00 AM 17.33 63.194 0.141 8.07 0.99 9.78
6/26/2021 8:45:00 AM 17.39 63.302 0.141 8.11 0.98 9.79
6/26/2021 9:00:00 AM 17.46 63.428 0.141 8.14 1.1 9.85
6/26/2021 9:15:00 AM 17.55 63.59 0.141 8.19 0.85 9.71
6/26/2021 9:30:00 AM 17.64 63.752 0.141 8.24 0.89 9.92
6/26/2021 9:45:00 AM 17.79 64.022 0.141 8.29 1.18 9.98
6/26/2021 10:00:00 AM 17.91 64.238 0.141 8.34 0.93 9.96
6/26/2021 10:15:00 AM 18.05 64.49 0.141 8.37 0.83 9.95
6/26/2021 10:30:00 AM 18.16 64.688 0.141 8.41 0.93 10.04
6/26/2021 10:45:00 AM 18.27 64.886 0.14 8.45 0.9 10.04
6/26/2021 11:00:00 AM 18.49 65.282 0.14 8.51 1.14 10.05
6/26/2021 11:15:00 AM 18.7 65.66 0.14 8.55 1 10.07
6/26/2021 11:30:00 AM 19.02 66.236 0.14 8.58 0.87 9.83
6/26/2021 11:45:00 AM 19.32 66.776 0.14 8.58 0.87 9.98
6/26/2021 12:00:00 PM 19.63 67.334 0.14 8.59 0.8 9.92
6/26/2021 12:15:00 PM 19.92 67.856 0.14 8.6 0.83 9.81
6/26/2021 12:30:00 PM 20.19 68.342 0.14 8.61 0.88 9.79
6/26/2021 12:45:00 PM 20.46 68.828 0.14 8.62 0.75 9.77
6/26/2021 1:00:00 PM 20.66 69.188 0.14 8.64 0.91 9.69
6/26/2021 1:15:00 PM 20.82 69.476 0.14 8.67 1.52 9.67
6/26/2021 1:30:00 PM 21.04 69.872 0.14 8.69 0.84 9.68
6/26/2021 1:45:00 PM 21.29 70.32201 0.14 8.72 0.83 9.67
6/26/2021 2:00:00 PM 21.29 70.32201 0.14 8.71 0.63 9.59
6/26/2021 2:15:00 PM 21.65 70.97 0.14 8.75 0.83 9.59
6/26/2021 2:30:00 PM 21.83 71.294 0.14 8.76 0.88 9.57
6/26/2021 2:45:00 PM 21.99 71.582 0.14 8.78 0.79 9.51
6/26/2021 3:00:00 PM 22.23 72.014 0.14 8.79 1.25 9.47
6/26/2021 3:15:00 PM 22.28 72.104 0.14 8.77 0.81 9.26
6/26/2021 3:30:00 PM 22.42 72.356 0.14 8.76 0.62 9.34
6/26/2021 3:45:00 PM 22.38 72.284 0.14 8.73 0.75 9.2
6/26/2021 4:00:00 PM 22.46 72.42799 0.14 8.7 1.19 9.23
6/26/2021 4:15:00 PM 22.51 72.518 0.14 8.71 0.91 9.19
6/26/2021 4:30:00 PM 22.47 72.446 0.14 8.68 11.39 9.17
6/26/2021 4:45:00 PM 22.48 72.464 0.14 8.65 0.79 9.14
6/26/2021 5:00:00 PM 22.5 72.5 0.14 8.66 0.93 9.14
6/26/2021 5:15:00 PM 22.51 72.518 0.14 8.66 0.77 9.09
6/26/2021 5:30:00 PM 22.52 72.536 0.14 8.64 1.15 9.02
6/26/2021 5:45:00 PM 22.55 72.59 0.14 8.59 1.02 9.02
6/26/2021 6:00:00 PM 22.53 72.554 0.14 8.53 0.82 8.94
6/26/2021 6:15:00 PM 22.49 72.482 0.14 8.49 0.87 8.89
6/26/2021 6:30:00 PM 22.36 72.248 0.14 8.39 0.92 8.68
6/26/2021 6:45:00 PM 22.21 71.978 0.141 8.28 0.84 8.63
6/26/2021 7:00:00 PM 22.11 71.798 0.141 8.2 1.04 8.57
6/26/2021 7:15:00 PM 22.01 71.618 0.141 8.14 1.09 8.53
6/26/2021 7:30:00 PM 21.91 71.438 0.141 8.09 1.01 8.44
6/26/2021 7:45:00 PM 21.77 71.186 0.141 8.03 0.98 8.32
6/26/2021 8:00:00 PM 21.62 70.916 0.141 7.98 1.12 8.29
6/26/2021 8:15:00 PM 21.48 70.664 0.141 7.94 0.94 8.25
6/26/2021 8:30:00 PM 21.34 70.412 0.142 7.9 1.08 8.18
6/26/2021 8:45:00 PM 21.21 70.17799 0.142 7.86 0.85 8.13
6/26/2021 9:00:00 PM 21.08 69.944 0.142 7.83 0.99 8.09
6/26/2021 9:15:00 PM 20.96 69.728 0.142 7.81 1.12 8.05
6/26/2021 9:30:00 PM 20.84 69.512 0.142 7.79 0.95 8.04
6/26/2021 9:45:00 PM 20.72 69.296 0.142 7.78 1.33 8.04
6/26/2021 10:00:00 PM 20.6 69.08 0.142 7.77 1.88 8.08
6/26/2021 10:15:00 PM 20.49 68.882 0.142 7.76 3.6 8.07
6/26/2021 10:30:00 PM 20.38 68.684 0.142 7.76 1.25 8.1
6/26/2021 10:45:00 PM 20.28 68.504 0.142 7.76 0.97 8.11
6/26/2021 11:00:00 PM 20.17 68.306 0.142 7.75 0.97 8.13
6/26/2021 11:15:00 PM 20.07 68.126 0.142 7.75 1.3 8.15
6/26/2021 11:30:00 PM 19.97 67.946 0.142 7.75 1.06 8.16
6/26/2021 11:45:00 PM 19.87 67.766 0.141 7.75 0.96 8.17
6/27/2021 12:00:00 AM 19.78 67.604 0.141 7.74 1.18 8.22
6/27/2021 12:15:00 AM 19.69 67.442 0.142 7.74 1.02 8.24
6/27/2021 12:30:00 AM 19.61 67.298 0.142 7.74 0.98 8.26
6/27/2021 12:45:00 AM 19.54 67.172 0.141 7.74 1.39 8.26
6/27/2021 1:00:00 AM 19.46 67.028 0.14 7.74 1.02 8.28
6/27/2021 1:15:00 AM 19.4 66.92 0.141 7.74 1.42 8.22
6/27/2021 1:30:00 AM 19.33 66.794 0.141 7.74 1.22 8.32
6/27/2021 1:45:00 AM 19.27 66.686 0.142 7.74 1.14 8.31
6/27/2021 2:00:00 AM 19.21 66.578 0.141 7.74 1.85 8.29
6/27/2021 2:15:00 AM 19.15 66.47 0.141 7.74 3.57 8.34
6/27/2021 2:30:00 AM 19.08 66.344 0.141 7.74 7.9 8.36
6/27/2021 2:45:00 AM 19.03 66.254 0.143 7.74 0.92 8.39
6/27/2021 3:00:00 AM 18.96 66.128 0.143 7.74 7.57 8.4
6/27/2021 3:15:00 AM 18.9 66.02 0.143 7.74 1.22 8.13
6/27/2021 3:30:00 AM 18.84 65.912 0.142 7.74 1.43 8.19
6/27/2021 3:45:00 AM 18.78 65.804 0.143 7.74 1.05 8.33
6/27/2021 4:00:00 AM 18.72 65.696 0.143 7.74 1.11 8.43
6/27/2021 4:15:00 AM 18.66 65.588 0.143 7.74 1.94 8.46
6/27/2021 4:30:00 AM 18.6 65.48 0.143 7.74 89.9 8.46
6/27/2021 4:45:00 AM 18.54 65.372 0.143 7.73 6.78 8.46
6/27/2021 5:00:00 AM 18.48 65.264 0.143 7.74 1.31 8.51
6/27/2021 5:15:00 AM 18.43 65.174 0.143 7.73 1 8.51
6/27/2021 5:30:00 AM 18.37 65.066 0.143 7.73 0.97 8.53
6/27/2021 5:45:00 AM 18.31 64.958 0.142 7.74 0.82 8.55
6/27/2021 6:00:00 AM 18.26 64.868 0.142 7.74 1 8.61
6/27/2021 6:15:00 AM 18.21 64.778 0.143 7.75 0.98 8.67
6/27/2021 6:30:00 AM 18.17 64.706 0.142 7.77 1.12 8.73
6/27/2021 6:45:00 AM 18.14 64.652 0.142 7.78 1.02 8.79
6/27/2021 7:00:00 AM 18.12 64.616 0.142 7.8 0.7 8.87
6/27/2021 7:15:00 AM 18.12 64.616 0.142 7.83 0.84 8.95
6/27/2021 7:30:00 AM 18.15 64.67 0.142 7.86 0.8 9.07
6/27/2021 7:45:00 AM 18.24 64.832 0.142 7.9 0.86 9.23
6/27/2021 8:00:00 AM 18.33 64.994 0.142 7.95 0.74 9.37
6/27/2021 8:15:00 AM 18.45 65.21 0.142 7.99 0.8 9.47
6/27/2021 8:30:00 AM 18.56 65.408 0.142 8.03 1.23 9.53
6/27/2021 8:45:00 AM 18.62 65.516 0.142 8.07 0.8 9.53
6/27/2021 9:00:00 AM 18.72 65.696 0.141 8.09 0.7 9.57
6/27/2021 9:15:00 AM 18.86 65.948 0.141 8.13 1.68 9.57
6/27/2021 9:30:00 AM 19.03 66.254 0.141 8.16 1.14 9.57
6/27/2021 9:45:00 AM 19.16 66.488 0.141 8.22 0.99 9.66
6/27/2021 10:00:00 AM 19.29 66.722 0.141 8.25 1.06 9.66
6/27/2021 10:15:00 AM 19.51 67.118 0.141 8.28 0.76 9.67
6/27/2021 10:30:00 AM 19.74 67.532 0.126 8.32 827.12 9.66
6/27/2021 10:45:00 AM 20 68 0.14 8.35 289.13 9.61
6/27/2021 11:00:00 AM 20.29 68.522 0.141 8.38 164.98 9.62
6/27/2021 11:15:00 AM 20.61 69.098 0.14 8.43 6533 9.48
6/27/2021 11:30:00 AM 20.9 69.62 0.141 8.44 1.32 9.54
6/27/2021 11:45:00 AM 21.23 70.214 0.14 8.49 384.39 9.5
6/27/2021 12:00:00 PM 21.57 70.826 0.14 8.54 1.66 9.53
6/27/2021 12:15:00 PM 21.94 71.492 0.14 8.58 0.58 9.49
6/27/2021 12:30:00 PM 22.28 72.104 0.14 8.62 0.83 9.46
6/27/2021 12:45:00 PM 22.65 72.77 0.14 8.66 0.53 9.45
6/27/2021 1:00:00 PM 22.9 73.22 0.14 8.67 0.55 9.35
6/27/2021 1:15:00 PM 23.05 73.49 0.14 8.67 0.62 9.27
6/27/2021 1:30:00 PM 23.15 73.67 0.14 8.66 1.04 9.21
6/27/2021 1:45:00 PM 23.37 74.066 0.14 8.66 0.55 9.18
6/27/2021 2:00:00 PM 23.53 74.354 0.14 8.68 0.55 9.18
6/27/2021 2:15:00 PM 23.77 74.786 0.14 8.72 0.83 9.22
6/27/2021 2:30:00 PM 23.87 74.966 0.14 8.74 0.82 9.08
6/27/2021 2:45:00 PM 24.11 75.398 0.14 8.77 0.83 9.16
6/27/2021 3:00:00 PM 24.17 75.506 0.14 8.76 0.77 9.05
6/27/2021 3:15:00 PM 24.34 75.812 0.14 8.77 0.89 9.06
6/27/2021 3:30:00 PM 24.38 75.884 0.14 8.75 0.66 8.97
6/27/2021 3:45:00 PM 24.52 76.136 0.14 8.76 0.81 9.02
6/27/2021 4:00:00 PM 24.7 76.46 0.14 8.77 0.67 9.02
6/27/2021 4:15:00 PM 24.81 76.658 0.14 8.78 0.71 8.99
6/27/2021 4:30:00 PM 24.83 76.694 0.14 8.78 0.86 8.92
6/27/2021 4:45:00 PM 24.79 76.622 0.14 8.76 0.69 8.89
6/27/2021 5:00:00 PM 24.7 76.46 0.14 8.73 0.81 8.89
6/27/2021 5:15:00 PM 24.54 76.172 0.14 8.7 0.73 8.87
6/27/2021 5:30:00 PM 24.44 75.992 0.14 8.68 0.72 8.81
6/27/2021 5:45:00 PM 24.34 75.812 0.14 8.63 0.6 8.73
6/27/2021 6:00:00 PM 24.25 75.65 0.141 8.56 1.09 8.64
6/27/2021 6:15:00 PM 24.14 75.452 0.141 8.48 0.97 8.57
6/27/2021 6:30:00 PM 24.05 75.29 0.141 8.38 0.97 8.55
6/27/2021 6:45:00 PM 23.94 75.092 0.141 8.33 1.17 8.49
6/27/2021 7:00:00 PM 23.8 74.84 0.141 8.25 2.97 8.35
6/27/2021 7:15:00 PM 23.68 74.624 0.141 8.17 1 8.23
6/27/2021 7:30:00 PM 23.52 74.336 0.142 8.08 0.92 8.13
6/27/2021 7:45:00 PM 23.32 73.976 0.142 8.01 0.74 8.03
6/27/2021 8:00:00 PM 23.13 73.634 0.142 7.96 0.93 7.98
6/27/2021 8:15:00 PM 22.99 73.382 0.142 7.92 0.86 7.93
6/27/2021 8:30:00 PM 22.86 73.148 0.142 7.88 0.95 7.86
6/27/2021 8:45:00 PM 22.74 72.932 0.142 7.85 2.58 7.81
6/27/2021 9:00:00 PM 22.61 72.698 0.143 7.82 1.23 7.77
6/27/2021 9:15:00 PM 22.48 72.464 0.143 7.8 0.78 7.75
6/27/2021 9:30:00 PM 22.34 72.212 0.143 7.78 1.14 7.74
6/27/2021 9:45:00 PM 22.21 71.978 0.143 7.78 0.97 7.76
6/27/2021 10:00:00 PM 22.08 71.744 0.143 7.77 1.09 7.76
6/27/2021 10:15:00 PM 21.96 71.528 0.143 7.76 1.53 7.78
6/27/2021 10:30:00 PM 21.84 71.312 0.143 7.75 3.19 7.8
6/27/2021 10:45:00 PM 21.72 71.096 0.143 7.75 1.67 7.81
6/27/2021 11:00:00 PM 21.62 70.916 0.143 7.75 1.18 7.84
6/27/2021 11:15:00 PM 21.51 70.718 0.143 7.74 2.12 7.87
6/27/2021 11:30:00 PM 21.41 70.538 0.143 7.74 1.43 7.82
6/27/2021 11:45:00 PM 21.31 70.358 0.143 7.74 8.05 7.9
6/28/2021 12:00:00 AM 21.21 70.17799 0.143 7.73 1.2 7.86
6/28/2021 12:15:00 AM 21.11 69.998 0.137 7.73 1.3 7.93
6/28/2021 12:30:00 AM 21.01 69.818 0.137 7.73 1.92 7.91
6/28/2021 12:45:00 AM 20.91 69.638 0.137 7.73 0.94 7.99
6/28/2021 1:00:00 AM 20.81 69.458 0.137 7.73 1.11 8.02
6/28/2021 1:15:00 AM 20.72 69.296 0.137 7.73 1.39 7.89
6/28/2021 1:30:00 AM 20.63 69.134 0.138 7.73 1.12 8.05
6/28/2021 1:45:00 AM 20.54 68.972 0.139 7.72 5.48 7.98
6/28/2021 2:00:00 AM 20.45 68.81 0.134 7.72 1.33 7.93
6/28/2021 2:15:00 AM 20.37 68.666 0.143 7.72 1.11 8.1
6/28/2021 2:30:00 AM 20.29 68.522 0.143 7.72 1.32 8.11
6/28/2021 2:45:00 AM 20.21 68.378 0.143 7.72 1.39 8.13
6/28/2021 3:00:00 AM 20.12 68.216 0.143 7.72 1.87 8.15
6/28/2021 3:15:00 AM 20.05 68.09 0.143 7.72 1.09 8.18
6/28/2021 3:30:00 AM 19.97 67.946 0.143 7.72 1.14 8.21
6/28/2021 3:45:00 AM 19.89 67.802 0.143 7.72 1.41 8.21
6/28/2021 4:00:00 AM 19.82 67.676 0.143 7.72 1.11 8.23
6/28/2021 4:15:00 AM 19.74 67.532 0.143 7.72 1.2 8.25
6/28/2021 4:30:00 AM 19.67 67.406 0.143 7.72 1.2 8.23
6/28/2021 4:45:00 AM 19.6 67.28 0.143 7.72 1.06 8.26
6/28/2021 5:00:00 AM 19.53 67.154 0.143 7.72 1.79 8.29
6/28/2021 5:15:00 AM 19.46 67.028 0.143 7.72 1.11 8.29
6/28/2021 5:30:00 AM 19.4 66.92 0.143 7.72 1.19 8.31
6/28/2021 5:45:00 AM 19.33 66.794 0.143 7.72 1.02 8.34
6/28/2021 6:00:00 AM 19.27 66.686 0.143 7.73 1.1 8.38
6/28/2021 6:15:00 AM 19.21 66.578 0.143 7.74 1.15 8.46
6/28/2021 6:30:00 AM 19.16 66.488 0.143 7.75 0.86 8.52
6/28/2021 6:45:00 AM 19.12 66.416 0.143 7.77 1.17 8.61
6/28/2021 7:00:00 AM 19.11 66.398 0.143 7.79 1.4 8.74
6/28/2021 7:15:00 AM 19.1 66.38 0.142 7.82 1.15 8.85
6/28/2021 7:30:00 AM 19.1 66.38 0.142 7.85 0.89 8.87
6/28/2021 7:45:00 AM 19.14 66.452 0.142 7.89 1.12 9.03
6/28/2021 8:00:00 AM 19.23 66.614 0.142 7.92 1.02 9.14
6/28/2021 8:15:00 AM 19.32 66.776 0.142 7.96 0.93 9.22
6/28/2021 8:30:00 AM 19.4 66.92 0.142 7.98 0.87 9.26
6/28/2021 8:45:00 AM 19.51 67.118 0.142 8.01 3.55 9.32
6/28/2021 9:00:00 AM 19.62 67.316 0.142 8.04 98.73 9.36
6/28/2021 9:15:00 AM 19.76 67.568 0.142 8.06 2.16 9.38
6/28/2021 9:30:00 AM 19.92 67.856 0.142 8.1 1.23 9.41
6/28/2021 9:45:00 AM 20.08 68.144 0.142 8.13 1.22 9.41
6/28/2021 10:00:00 AM 20.27 68.486 0.142 8.16 1.62 9.42
6/28/2021 10:15:00 AM 20.48 68.864 0.142 8.19 2.81 9.41
6/28/2021 10:30:00 AM 20.71 69.278 0.142 8.22 1.75 9.39
6/28/2021 10:45:00 AM 20.99 69.782 0.141 8.24 0.82 9.36
6/28/2021 11:00:00 AM 21.31 70.358 0.141 8.28 2.02 9.34
6/28/2021 11:15:00 AM 21.66 70.988 0.141 8.35 0.69 9.41
6/28/2021 11:30:00 AM 22.04 71.672 0.141 8.39 0.64 9.4
6/28/2021 11:45:00 AM 22.43 72.374 0.141 8.44 0.65 9.34
6/28/2021 12:00:00 PM 22.78 73.004 0.141 8.47 0.63 9.3
6/28/2021 12:15:00 PM 23.1 73.58 0.141 8.5 0.67 9.23
6/28/2021 12:30:00 PM 23.47 74.246 0.141 8.54 0.75 9.21
6/28/2021 12:45:00 PM 23.86 74.948 0.141 8.57 0.77 9.11
6/28/2021 1:00:00 PM 24.16 75.488 0.141 8.6 0.81 9.06
6/28/2021 1:15:00 PM 24.51 76.118 0.141 8.62 0.52 9.05
6/28/2021 1:30:00 PM 24.85 76.73 0.141 8.65 1.12 8.99
6/28/2021 1:45:00 PM 24.91 76.838 0.141 8.63 0.79 8.87
6/28/2021 2:00:00 PM 25.13 77.234 0.141 8.64 1.18 8.85
6/28/2021 2:15:00 PM 25.37 77.666 0.141 8.64 0.54 8.84
6/28/2021 2:30:00 PM 25.6 78.08 0.141 8.66 0.61 8.78
6/28/2021 2:45:00 PM 25.81 78.458 0.141 8.67 0.68 8.81
6/28/2021 3:00:00 PM 25.93 78.674 0.141 8.68 0.62 8.78
6/28/2021 3:15:00 PM 26.15 79.07 0.141 8.7 0.71 8.73
6/28/2021 3:30:00 PM 26.19 79.142 0.141 8.67 0.47 8.63
6/28/2021 3:45:00 PM 26.16 79.088 0.141 8.63 0.64 8.56
6/28/2021 4:00:00 PM 26.15 79.07 0.141 8.62 0.78 8.54
6/28/2021 4:15:00 PM 26.1 78.98 0.141 8.6 0.57 8.51
6/28/2021 4:30:00 PM 26.17 79.106 0.141 8.61 0.68 8.58
6/28/2021 4:45:00 PM 26.14 79.052 0.141 8.58 0.55 8.52
6/28/2021 5:00:00 PM 26.2 79.16 0.141 8.59 3.48 8.5
6/28/2021 5:15:00 PM 26.24 79.232 0.141 8.6 0.61 8.54
6/28/2021 5:30:00 PM 26.2 79.16 0.141 8.57 0.71 8.48
6/28/2021 5:45:00 PM 26.09 78.962 0.141 8.52 0.73 8.39
6/28/2021 6:00:00 PM 25.93 78.674 0.142 8.45 0.98 8.3
6/28/2021 6:15:00 PM 25.74 78.332 0.142 8.37 0.6 8.2
6/28/2021 6:30:00 PM 25.55 77.99 0.142 8.28 0.59 8.12
6/28/2021 6:45:00 PM 25.38 77.684 0.142 8.19 0.89 8.03
6/28/2021 7:00:00 PM 25.2 77.36 0.142 8.12 0.56 7.96
6/28/2021 7:15:00 PM 25.06 77.108 0.142 8.07 0.96 7.88
6/28/2021 7:30:00 PM 24.9 76.82 0.142 8.02 0.84 7.84
6/28/2021 7:45:00 PM 24.68 76.424 0.143 7.97 0.8 7.77
6/28/2021 8:00:00 PM 24.47 76.046 0.143 7.93 0.69 7.72
6/28/2021 8:15:00 PM 24.29 75.722 0.143 7.89 0.9 7.68
6/28/2021 8:30:00 PM 24.14 75.452 0.143 7.86 0.96 7.65
6/28/2021 8:45:00 PM 23.99 75.182 0.143 7.83 0.74 7.6
6/28/2021 9:00:00 PM 23.84 74.912 0.143 7.8 1 7.56
6/28/2021 9:15:00 PM 23.7 74.66 0.143 7.78 0.94 7.53
6/28/2021 9:30:00 PM 23.56 74.408 0.143 7.76 1.01 7.53
6/28/2021 9:45:00 PM 23.42 74.156 0.143 7.75 0.97 7.53
6/28/2021 10:00:00 PM 23.28 73.904 0.143 7.74 1.04 7.54
6/28/2021 10:15:00 PM 23.16 73.688 0.143 7.73 1.16 7.57
6/28/2021 10:30:00 PM 23.03 73.454 0.143 7.73 1.17 7.59
6/28/2021 10:45:00 PM 22.92 73.256 0.143 7.73 0.96 7.61
6/28/2021 11:00:00 PM 22.81 73.058 0.143 7.72 1.75 7.64
6/28/2021 11:15:00 PM 22.71 72.878 0.143 7.72 1.12 7.64
6/28/2021 11:30:00 PM 22.62 72.716 0.143 7.72 1.21 7.67
6/28/2021 11:45:00 PM 22.52 72.536 0.143 7.72 1.01 7.69
6/29/2021 12:00:00 AM 22.43 72.374 0.143 7.72 1.24 7.71
6/29/2021 12:15:00 AM 22.32 72.176 0.143 7.71 1.38 7.69
6/29/2021 12:30:00 AM 22.23 72.014 0.143 7.71 1.21 7.62
6/29/2021 12:45:00 AM 22.14 71.852 0.143 7.7 1.02 7.77
6/29/2021 1:00:00 AM 22.04 71.672 0.144 7.71 1.1 7.8
6/29/2021 1:15:00 AM 21.95 71.51 0.144 7.71 1.09 7.8
6/29/2021 1:30:00 AM 21.86 71.348 0.144 7.71 1.11 7.83
6/29/2021 1:45:00 AM 21.77 71.186 0.144 7.71 1.02 7.84
6/29/2021 2:00:00 AM 21.68 71.024 0.144 7.71 1.24 7.86
6/29/2021 2:15:00 AM 21.58 70.844 0.144 7.71 1.15 7.88
6/29/2021 2:30:00 AM 21.49 70.682 0.144 7.71 1.48 7.89
6/29/2021 2:45:00 AM 21.41 70.538 0.144 7.71 1.14 7.91
6/29/2021 3:00:00 AM 21.32 70.376 0.144 7.71 1.15 7.93
6/29/2021 3:15:00 AM 21.23 70.214 0.144 7.7 1.75 7.95
6/29/2021 3:30:00 AM 21.14 70.052 0.144 7.7 1.51 7.95
6/29/2021 3:45:00 AM 21.06 69.908 0.144 7.7 1.28 7.97
6/29/2021 4:00:00 AM 20.98 69.764 0.144 7.7 1.28 7.99
6/29/2021 4:15:00 AM 20.89 69.602 0.144 7.71 1.11 8.02
6/29/2021 4:30:00 AM 20.81 69.458 0.144 7.7 2.18 8.03
6/29/2021 4:45:00 AM 20.74 69.332 0.144 7.7 1.1 8.05
6/29/2021 5:00:00 AM 20.66 69.188 0.144 7.7 1.57 8.06
6/29/2021 5:15:00 AM 20.59 69.062 0.144 7.7 4.3 8.08
6/29/2021 5:30:00 AM 20.53 68.954 0.144 7.71 0.86 8.1
6/29/2021 5:45:00 AM 20.49 68.882 0.144 7.71 1.06 8.12
6/29/2021 6:00:00 AM 20.45 68.81 0.144 7.72 1.31 8.16
6/29/2021 6:15:00 AM 20.42 68.756 0.143 7.73 1.06 8.22
6/29/2021 6:30:00 AM 20.4 68.72 0.143 7.74 0.85 8.28
6/29/2021 6:45:00 AM 20.38 68.684 0.143 7.76 0.98 8.36
6/29/2021 7:00:00 AM 20.38 68.684 0.143 7.79 1.04 8.47
6/29/2021 7:15:00 AM 20.36 68.648 0.143 7.81 1.07 8.56
6/29/2021 7:30:00 AM 20.36 68.648 0.143 7.84 1.36 8.69
6/29/2021 7:45:00 AM 20.4 68.72 0.142 7.88 1346.87 8.82
6/29/2021 8:00:00 AM 20.47 68.846 0.143 7.92 1.33 8.91
6/29/2021 8:15:00 AM 20.56 69.008 0.142 7.95 25.24 9.01
6/29/2021 8:30:00 AM 20.66 69.188 0.142 7.98 1.09 9.05
6/29/2021 8:45:00 AM 20.75 69.35 0.142 8 49.41 9.1
6/29/2021 9:00:00 AM 20.87 69.566 0.142 8.03 151.71 9.14
6/29/2021 9:15:00 AM 20.99 69.782 0.142 8.07 110.15 9.12
6/29/2021 9:30:00 AM 21.12 70.016 0.142 8.1 101.52 9.16
6/29/2021 9:45:00 AM 21.28 70.304 0.142 8.13 46.18 9.19
6/29/2021 10:00:00 AM 21.47 70.646 0.142 8.18 1397.6 9.21
6/29/2021 10:15:00 AM 21.65 70.97 0.142 8.2 461.37 9.21
6/29/2021 10:30:00 AM 21.87 71.366 0.142 8.23 8107.92 9.16
6/29/2021 10:45:00 AM 22.12 71.816 0.142 8.26 3031.04 9.17
6/29/2021 11:00:00 AM 22.41 72.338 0.142 8.29 7.94 9.11
6/29/2021 11:15:00 AM 22.69 72.842 0.142 8.32 1.41 9.11
6/29/2021 11:30:00 AM 23.02 73.436 0.142 8.35 2.64 9.07
6/29/2021 11:45:00 AM 23.38 74.084 0.142 8.38 73.79 9.07
6/29/2021 12:00:00 PM 23.7 74.66 0.142 8.43 0.51 9.07
6/29/2021 12:15:00 PM 23.88 74.984 0.142 8.43 0.84 9
6/29/2021 12:30:00 PM 24.29 75.722 0.142 8.5 0.6 9.02
6/29/2021 12:45:00 PM 24.68 76.424 0.142 8.54 0.68 8.95
6/29/2021 1:00:00 PM 25.06 77.108 0.142 8.58 0.66 8.92
6/29/2021 1:15:00 PM 25.39 77.702 0.142 8.61 0.82 8.87
6/29/2021 1:30:00 PM 25.57 78.026 0.142 8.59 0.68 8.74
6/29/2021 1:45:00 PM 25.66 78.188 0.142 8.56 0.97 8.61
6/29/2021 2:00:00 PM 26 78.8 0.142 8.6 1.13 8.65
6/29/2021 2:15:00 PM 26.32 79.376 0.142 8.62 1.16 8.66
6/29/2021 2:30:00 PM 26.59 79.862 0.142 8.65 0.85 8.65
6/29/2021 2:45:00 PM 26.82 80.276 0.142 8.65 0.8 8.61
6/29/2021 3:00:00 PM 27.07 80.726 0.142 8.67 1.15 8.55
6/29/2021 3:15:00 PM 27.31 81.158 0.142 8.68 1.41 8.47
6/29/2021 3:30:00 PM 27.51 81.518 0.142 8.68 0.89 8.45
6/29/2021 3:45:00 PM 27.67 81.806 0.142 8.7 0.98 8.38
6/29/2021 4:00:00 PM 27.81 82.058 0.142 8.7 8.93 8.32
6/29/2021 4:15:00 PM 27.91 82.238 0.142 8.71 1.23 8.34
6/29/2021 4:30:00 PM 28 82.4 0.142 8.73 1.12 8.39
6/29/2021 4:45:00 PM 28.04 82.472 0.142 8.73 1.1 8.35
6/29/2021 5:00:00 PM 27.96 82.328 0.142 8.68 1.05 8.24
6/29/2021 5:15:00 PM 27.92 82.256 0.142 8.66 1.24 8.21
6/29/2021 5:30:00 PM 27.83 82.094 0.142 8.61 1.2 8.09
6/29/2021 5:45:00 PM 27.68 81.824 0.142 8.54 1.24 8
6/29/2021 6:00:00 PM 27.53 81.554 0.142 8.46 1.2 7.96
6/29/2021 6:15:00 PM 27.35 81.23 0.143 8.37 1.44 7.83
6/29/2021 6:30:00 PM 27.14 80.852 0.143 8.28 1.35 7.8
6/29/2021 6:45:00 PM 26.94 80.492 0.143 8.2 1.63 7.7
6/29/2021 7:00:00 PM 26.75 80.15 0.143 8.12 1.31 7.61
6/29/2021 7:15:00 PM 26.57 79.826 0.143 8.07 1.26 7.58
6/29/2021 7:30:00 PM 26.39 79.502 0.143 8.01 1.36 7.49
6/29/2021 7:45:00 PM 26.15 79.07 0.144 7.97 1.42 7.42
6/29/2021 8:00:00 PM 25.93 78.674 0.144 7.93 1.41 7.43
6/29/2021 8:15:00 PM 25.75 78.35 0.143 7.91 1.48 7.45
6/29/2021 8:30:00 PM 25.59 78.062 0.144 7.88 4.29 7.38
6/29/2021 8:45:00 PM 25.44 77.792 0.143 7.85 1.56 7.32
6/29/2021 9:00:00 PM 25.29 77.522 0.144 7.8 51.74 7.22
6/29/2021 9:15:00 PM 25.12 77.216 0.144 7.79 1.42 7.2
6/29/2021 9:30:00 PM 24.97 76.946 0.144 7.78 1.64 7.19
6/29/2021 9:45:00 PM 24.81 76.658 0.144 7.78 1.59 7.2
6/29/2021 10:00:00 PM 24.66 76.388 0.144 7.76 1.57 7.21
6/29/2021 10:15:00 PM 24.53 76.154 0.144 7.76 2.03 7.23
6/29/2021 10:30:00 PM 24.4 75.92 0.144 7.76 2.42 7.24
6/29/2021 10:45:00 PM 24.28 75.704 0.144 7.76 1.73 7.28
6/29/2021 11:00:00 PM 24.16 75.488 0.144 7.75 1.82 7.33
6/29/2021 11:15:00 PM 24.05 75.29 0.144 7.75 1.72 7.34
6/29/2021 11:30:00 PM 23.94 75.092 0.144 7.75 1.7 7.36
6/29/2021 11:45:00 PM 23.83 74.894 0.144 7.75 1.69 7.39
6/30/2021 12:00:00 AM 23.72 74.696 0.14 7.74 1.82 7.4
6/30/2021 12:15:00 AM 23.61 74.498 0.141 7.74 1.79 7.4
6/30/2021 12:30:00 AM 23.5 74.3 0.14 7.74 1.7 7.45
6/30/2021 12:45:00 AM 23.39 74.102 0.144 7.73 6.35 7.44
6/30/2021 1:00:00 AM 23.27 73.886 0.144 7.74 1.86 7.48
6/30/2021 1:15:00 AM 23.15 73.67 0.144 7.74 1.91 7.52
6/30/2021 1:30:00 AM 23.04 73.472 0.144 7.74 1.8 7.54
6/30/2021 1:45:00 AM 22.91 73.238 0.144 7.74 1.93 7.55
6/30/2021 2:00:00 AM 22.79 73.022 0.144 7.74 2.11 7.58
6/30/2021 2:15:00 AM 22.68 72.824 0.144 7.73 2.03 7.59
6/30/2021 2:30:00 AM 22.56 72.608 0.144 7.74 1.96 7.63
6/30/2021 2:45:00 AM 22.44 72.392 0.144 7.74 1.82 7.65
6/30/2021 3:00:00 AM 22.33 72.194 0.144 7.74 1.86 7.67
6/30/2021 3:15:00 AM 22.23 72.014 0.144 7.74 2.05 7.69
6/30/2021 3:30:00 AM 22.12 71.816 0.144 7.74 2.01 7.72
6/30/2021 3:45:00 AM 22.03 71.654 0.144 7.74 3.64 7.74
6/30/2021 4:00:00 AM 21.93 71.474 0.144 7.74 2.09 7.75
6/30/2021 4:15:00 AM 21.83 71.294 0.144 7.74 2.28 7.77
6/30/2021 4:30:00 AM 21.74 71.132 0.144 7.74 2.03 7.8
6/30/2021 4:45:00 AM 21.69 71.042 0.144 7.75 6.83 7.9
6/30/2021 5:00:00 AM 21.6 70.88 0.144 7.76 8.49 7.96
6/30/2021 5:15:00 AM 21.57 70.826 0.145 7.76 5.55 8
6/30/2021 5:30:00 AM 21.56 70.808 0.147 7.76 11.43 8
6/30/2021 5:45:00 AM 21.52 70.736 0.148 7.77 4.68 8.02
6/30/2021 6:00:00 AM 21.46 70.628 0.149 7.78 4.3 8.02
6/30/2021 6:15:00 AM 21.4 70.52 0.149 7.78 4.37 8.08
6/30/2021 6:30:00 AM 21.34 70.412 0.15 7.8 4.21 8.12
6/30/2021 6:45:00 AM 21.28 70.304 0.151 7.81 3.72 8.1
6/30/2021 7:00:00 AM 21.24 70.232 0.151 7.83 3.92 8.25
6/30/2021 7:15:00 AM 21.2 70.16 0.151 7.86 4.11 8.39
6/30/2021 7:30:00 AM 21.16 70.088 0.152 7.89 3.69 8.47
6/30/2021 7:45:00 AM 21.13 70.034 0.152 7.92 3.39 8.57
6/30/2021 8:00:00 AM 21.11 69.998 0.153 7.94 3.63 8.62
6/30/2021 8:15:00 AM 21.14 70.052 0.153 7.97 3.26 8.75
6/30/2021 8:30:00 AM 21.18 70.124 0.154 8 3.35 8.79
6/30/2021 8:45:00 AM 21.23 70.214 0.155 8.03 3.98 8.84
6/30/2021 9:00:00 AM 21.22 70.196 0.156 8.05 1800.85 8.82
6/30/2021 9:15:00 AM 21.29 70.32201 0.157 8.07 3.28 8.87
6/30/2021 9:30:00 AM 21.43 70.574 0.157 8.1 2.83 8.89
6/30/2021 9:45:00 AM 21.56 70.808 0.157 8.12 36.36 8.86
6/30/2021 10:00:00 AM 21.72 71.096 0.157 8.15 170.54 8.91
6/30/2021 10:15:00 AM 21.92 71.456 0.157 8.17 2.93 8.95
6/30/2021 10:30:00 AM 22.13 71.834 0.157 8.19 3.27 8.95
6/30/2021 10:45:00 AM 22.37 72.266 0.157 8.22 2.87 8.94
6/30/2021 11:00:00 AM 22.64 72.752 0.156 8.24 10.1 8.9
6/30/2021 11:15:00 AM 22.92 73.256 0.155 8.28 4.9 8.91
6/30/2021 11:30:00 AM 23.21 73.778 0.155 8.3 2.42 8.89
6/30/2021 11:45:00 AM 23.5 74.3 0.154 8.32 2.62 8.84
6/30/2021 12:00:00 PM 23.8 74.84 0.154 8.34 2.39 8.84
6/30/2021 12:15:00 PM 24.1 75.38 0.153 8.38 3.52 8.79
6/30/2021 12:30:00 PM 24.41 75.938 0.152 8.4 54.58 8.78
6/30/2021 12:45:00 PM 24.69 76.442 0.152 8.44 2 8.77
6/30/2021 1:00:00 PM 25.01 77.018 0.151 8.48 2.33 8.78
6/30/2021 1:15:00 PM 25.33 77.594 0.151 8.52 2.12 8.76
6/30/2021 1:30:00 PM 25.36 77.648 0.15 8.51 2.65 8.65
6/30/2021 1:45:00 PM 25.69 78.242 0.15 8.57 2.32 8.7
6/30/2021 2:00:00 PM 25.83 78.494 0.149 8.2 2.27 8.72
6/30/2021 2:15:00 PM 25.68 78.224 0.149 8.02 2.64 8.33
6/30/2021 2:30:00 PM 25.61 78.098 0.148 7.92 2.44 8.22
6/30/2021 2:45:00 PM 25.74 78.332 0.148 7.95 2.38 8.44
6/30/2021 3:00:00 PM 25.81 78.458 0.148 8.05 2.36 8.63
6/30/2021 3:15:00 PM 25.69 78.242 0.147 8.03 2.78 8.48
6/30/2021 3:30:00 PM 25.55 77.99 0.143 7.84 2.76 8.14
6/30/2021 3:45:00 PM 25.24 77.432 0.14 7.73 3.79 8.04
6/30/2021 4:00:00 PM 25.05 77.09 0.138 7.74 3.44 8.25
6/30/2021 4:15:00 PM 24.94 76.892 0.137 7.82 4.32 8.45
6/30/2021 4:30:00 PM 24.94 76.892 0.137 7.85 3.89 8.44
6/30/2021 4:45:00 PM 24.9 76.82 0.138 7.78 3.67 8.26
6/30/2021 5:00:00 PM 24.78 76.604 0.138 7.76 3.19 8.26
6/30/2021 5:15:00 PM 24.61 76.298 0.139 7.74 3.65 8.21
6/30/2021 5:30:00 PM 24.46 76.028 0.14 7.64 2.95 7.94
6/30/2021 5:45:00 PM 24.35 75.83 0.14 7.57 3.16 7.81
6/30/2021 6:00:00 PM 24.21 75.578 0.141 7.52 3.21 7.7
6/30/2021 6:15:00 PM 24.06 75.308 0.14 7.48 3.16 7.67
6/30/2021 6:30:00 PM 23.9 75.02 0.14 7.47 2.96 7.7
6/30/2021 6:45:00 PM 23.74 74.732 0.139 7.46 2.89 7.74
6/30/2021 7:00:00 PM 23.58 74.444 0.138 7.45 3.33 7.78
6/30/2021 7:15:00 PM 23.44 74.192 0.138 7.45 3 7.82
6/30/2021 7:30:00 PM 23.32 73.976 0.138 7.45 3.23 7.85
6/30/2021 7:45:00 PM 23.2 73.76 0.138 7.45 3.31 7.88
6/30/2021 8:00:00 PM 23.09 73.562 0.137 7.45 3.55 7.92
6/30/2021 8:15:00 PM 22.98 73.364 0.137 7.45 3.15 7.95
6/30/2021 8:30:00 PM 22.61 72.698 0.144 7.21 339.85 7.87
6/30/2021 8:45:00 PM 21.63 70.934 0.121 6.95 564.18 8.05
6/30/2021 9:00:00 PM 21.18 70.124 0.101 6.83 592.6 8.13
6/30/2021 9:15:00 PM 21.06 69.908 0.092 6.89 555.55 8.21
6/30/2021 9:30:00 PM 20.98 69.764 0.089 6.89 464.11 8.26
6/30/2021 9:45:00 PM 20.93 69.674 0.088 6.96 388.39 8.3
6/30/2021 10:00:00 PM 20.88 69.584 0.089 6.99 330.29 8.32
6/30/2021 10:15:00 PM 20.83 69.494 0.09 7.01 283.24 8.33
6/30/2021 10:30:00 PM 20.78 69.404 0.091 7.01 247.53 8.32
6/30/2021 10:45:00 PM 20.73 69.314 0.093 7.02 215.38 8.33
6/30/2021 11:00:00 PM 20.68 69.224 0.095 7.02 193.2 8.33
6/30/2021 11:15:00 PM 20.63 69.134 0.097 7.03 171.42 8.33
6/30/2021 11:30:00 PM 20.58 69.044 0.098 7.06 150.56 8.34
6/30/2021 11:45:00 PM 20.52 68.936 0.1 7.07 137.56 8.35
7/1/2021 12:00:00 AM 20.47 68.846 0.102 7.08 123.45 8.35
7/1/2021 12:15:00 AM 20.42 68.756 0.104 7.09 111.32 8.36
7/1/2021 12:30:00 AM 20.37 68.666 0.106 7.11 101.21 8.38
7/1/2021 12:45:00 AM 20.32 68.576 0.108 7.11 91.68 8.39
7/1/2021 1:00:00 AM 20.27 68.486 0.109 7.13 83.16 8.41
7/1/2021 1:15:00 AM 20.21 68.378 0.111 7.15 75.99 8.42
7/1/2021 1:30:00 AM 20.16 68.288 0.112 7.16 68.73 8.43
7/1/2021 1:45:00 AM 20.12 68.216 0.114 7.16 62.79 8.44
7/1/2021 2:00:00 AM 20.07 68.126 0.115 7.17 57.7 8.45
7/1/2021 2:15:00 AM 20.02 68.036 0.117 7.18 52.68 8.46
7/1/2021 2:30:00 AM 19.98 67.964 0.118 7.2 48.84 8.46
7/1/2021 2:45:00 AM 19.94 67.892 0.119 7.2 45.43 8.48
7/1/2021 3:00:00 AM 19.89 67.802 0.121 7.21 43.75 8.48
7/1/2021 3:15:00 AM 19.85 67.73 0.122 7.22 40.77 8.48
7/1/2021 3:30:00 AM 19.81 67.658 0.123 7.23 37.34 8.48
7/1/2021 3:45:00 AM 19.77 67.586 0.124 7.22 33.24 8.49
7/1/2021 4:00:00 AM 19.73 67.514 0.125 7.24 32.75 8.5
7/1/2021 4:15:00 AM 19.69 67.442 0.126 7.24 31.56 8.51
7/1/2021 4:30:00 AM 19.65 67.37 0.126 7.25 29.28 8.52
7/1/2021 4:45:00 AM 19.61 67.298 0.127 7.26 27.68 8.53
7/1/2021 5:00:00 AM 19.58 67.244 0.127 7.26 25.79 8.54
7/1/2021 5:15:00 AM 19.54 67.172 0.128 7.26 24.94 8.55
7/1/2021 5:30:00 AM 19.5 67.1 0.128 7.27 23.49 8.57
7/1/2021 5:45:00 AM 19.47 67.046 0.129 7.27 21.94 8.57
7/1/2021 6:00:00 AM 19.43 66.974 0.129 7.27 21.39 8.58
7/1/2021 6:15:00 AM 19.4 66.92 0.13 7.28 20.23 8.59
7/1/2021 6:30:00 AM 19.36 66.848 0.13 7.29 19.59 8.6
7/1/2021 6:45:00 AM 19.33 66.794 0.131 7.29 18.65 8.62
7/1/2021 7:00:00 AM 19.3 66.74 0.131 7.29 17.83 8.63
7/1/2021 7:15:00 AM 19.28 66.704 0.132 7.3 17.15 8.65
7/1/2021 7:30:00 AM 19.25 66.65 0.132 7.31 15.92 8.66
7/1/2021 7:45:00 AM 19.24 66.632 0.133 7.32 15.15 8.69
7/1/2021 8:00:00 AM 19.21 66.578 0.133 7.33 14.33 8.7
7/1/2021 8:15:00 AM 19.19 66.542 0.134 7.33 13.66 8.7
7/1/2021 8:30:00 AM 19.18 66.524 0.134 7.35 12.87 8.74
7/1/2021 8:45:00 AM 19.15 66.47 0.135 7.35 12.43 8.75
7/1/2021 9:00:00 AM 19.14 66.452 0.135 7.36 11.85 8.76
7/1/2021 9:15:00 AM 19.11 66.398 0.136 7.36 11.26 8.76
7/1/2021 9:30:00 AM 19.09 66.362 0.136 7.37 10.99 8.78
7/1/2021 9:45:00 AM 19.06 66.308 0.137 7.37 10.99 8.8
7/1/2021 10:00:00 AM 19.04 66.272 0.138 7.38 10.91 8.83
7/1/2021 10:15:00 AM 19.02 66.236 0.139 7.39 10.9 8.87
7/1/2021 10:30:00 AM 19.01 66.218 0.14 7.41 10.46 8.9
7/1/2021 10:45:00 AM 19.01 66.218 0.14 7.42 10.72 8.93
7/1/2021 11:00:00 AM 19.01 66.218 0.141 7.43 10.12 8.95
7/1/2021 11:15:00 AM 19.03 66.254 0.141 7.44 10.09 8.98
7/1/2021 11:30:00 AM 19.06 66.308 0.141 7.45 9.42 9
7/1/2021 11:45:00 AM 19.07 66.326 0.14 7.46 9.07 9
7/1/2021 12:00:00 PM 19.08 66.344 0.14 7.46 8.67 8.97
7/1/2021 12:15:00 PM 19.09 66.362 0.139 7.46 8.75 8.97
7/1/2021 12:30:00 PM 19.12 66.416 0.138 7.47 8.73 9.01
7/1/2021 12:45:00 PM 19.12 66.416 0.138 7.47 8.22 8.97
7/1/2021 1:00:00 PM 19.13 66.434 0.137 7.46 8.21 8.96
7/1/2021 1:15:00 PM 19.16 66.488 0.137 7.47 8.24 8.98
7/1/2021 1:30:00 PM 19.18 66.524 0.136 7.48 8.3 9
7/1/2021 1:45:00 PM 19.21 66.578 0.136 7.48 8.17 8.99
7/1/2021 2:00:00 PM 19.26 66.668 0.136 7.49 8.01 9.02
7/1/2021 2:15:00 PM 19.32 66.776 0.136 7.51 8.12 9.05
7/1/2021 2:30:00 PM 19.36 66.848 0.136 7.51 7.63 9.04
7/1/2021 2:45:00 PM 19.4 66.92 0.137 7.52 7.94 9.04
7/1/2021 3:00:00 PM 19.45 67.01 0.137 7.53 7.58 9.04
7/1/2021 3:15:00 PM 19.51 67.118 0.137 7.54 8.05 9.04
7/1/2021 3:30:00 PM 19.55 67.19 0.137 7.54 7.78 9.03
7/1/2021 3:45:00 PM 19.58 67.244 0.137 7.54 7.86 8.99
7/1/2021 4:00:00 PM 19.64 67.352 0.137 7.54 7.95 9
7/1/2021 4:15:00 PM 19.65 67.37 0.137 7.55 7.82 8.98
7/1/2021 4:30:00 PM 19.67 67.406 0.138 7.54 7.73 8.96
7/1/2021 4:45:00 PM 19.68 67.424 0.138 7.54 7.71 8.93
7/1/2021 5:00:00 PM 19.67 67.406 0.138 7.52 7.61 8.89
7/1/2021 5:15:00 PM 19.66 67.388 0.139 7.51 7.63 8.86
7/1/2021 5:30:00 PM 19.64 67.352 0.139 7.5 8 8.83
7/1/2021 5:45:00 PM 19.62 67.316 0.139 7.49 7.95 8.81
7/1/2021 6:00:00 PM 19.58 67.244 0.14 7.48 7.77 8.78
7/1/2021 6:15:00 PM 19.54 67.172 0.14 7.46 8.11 8.74
7/1/2021 6:30:00 PM 19.5 67.1 0.14 7.46 7.89 8.73
7/1/2021 6:45:00 PM 19.46 67.028 0.14 7.45 7.46 8.73
7/1/2021 7:00:00 PM 19.42 66.956 0.141 7.45 7.42 8.73
7/1/2021 7:15:00 PM 19.39 66.902 0.141 7.44 7.17 8.73
7/1/2021 7:30:00 PM 19.34 66.812 0.141 7.44 7.33 8.72
7/1/2021 7:45:00 PM 19.31 66.758 0.14 7.43 7.48 8.72
7/1/2021 8:00:00 PM 19.26 66.668 0.14 7.42 7.34 8.69
7/1/2021 8:15:00 PM 19.22 66.596 0.14 7.42 7.65 8.69
7/1/2021 8:30:00 PM 19.18 66.524 0.14 7.42 7.32 8.67
7/1/2021 8:45:00 PM 19.14 66.452 0.14 7.41 7.36 8.67
7/1/2021 9:00:00 PM 19.09 66.362 0.14 7.41 7.26 8.67
7/1/2021 9:15:00 PM 19.05 66.29 0.14 7.41 7.33 8.66
7/1/2021 9:30:00 PM 19.01 66.218 0.14 7.4 7.55 8.67
7/1/2021 9:45:00 PM 18.97 66.146 0.14 7.4 7.47 8.68
7/1/2021 10:00:00 PM 18.94 66.092 0.14 7.4 7.26 8.69
7/1/2021 10:15:00 PM 18.9 66.02 0.14 7.4 7.47 8.7
7/1/2021 10:30:00 PM 18.87 65.966 0.141 7.4 7.28 8.71
7/1/2021 10:45:00 PM 18.83 65.894 0.141 7.4 7.11 8.72
7/1/2021 11:00:00 PM 18.79 65.82201 0.141 7.4 7.21 8.73
7/1/2021 11:15:00 PM 18.74 65.732 0.142 7.4 7.2 8.74
7/1/2021 11:30:00 PM 18.7 65.66 0.142 7.4 7.24 8.75
7/1/2021 11:45:00 PM 18.65 65.57 0.142 7.4 7.3 8.75
7/2/2021 12:00:00 AM 18.61 65.498 0.142 7.4 7.3 8.76
7/2/2021 12:15:00 AM 18.57 65.426 0.143 7.41 7.12 8.77
7/2/2021 12:30:00 AM 18.52 65.336 0.143 7.41 6.96 8.77
7/2/2021 12:45:00 AM 18.46 65.228 0.143 7.41 7.31 8.78
7/2/2021 1:00:00 AM 18.41 65.138 0.143 7.42 7.95 8.79
7/2/2021 1:15:00 AM 18.33 64.994 0.143 7.42 7.26 8.79
7/2/2021 1:30:00 AM 18.26 64.868 0.143 7.42 7.24 8.81
7/2/2021 1:45:00 AM 18.2 64.76 0.143 7.43 6.87 8.83
7/2/2021 2:00:00 AM 18.13 64.634 0.142 7.42 7.22 8.84
7/2/2021 2:15:00 AM 18.06 64.508 0.142 7.43 6.46 8.86
7/2/2021 2:30:00 AM 18 64.4 0.141 7.43 6.47 8.88
7/2/2021 2:45:00 AM 17.93 64.274 0.141 7.42 7.08 8.88
7/2/2021 3:00:00 AM 17.86 64.148 0.14 7.42 6.5 8.88
7/2/2021 3:15:00 AM 17.79 64.022 0.14 7.42 6.63 8.89
7/2/2021 3:30:00 AM 17.72 63.896 0.14 7.42 6.78 8.9
7/2/2021 3:45:00 AM 17.66 63.788 0.139 7.42 6.46 8.91
7/2/2021 4:00:00 AM 17.61 63.698 0.139 7.42 6.65 8.94
7/2/2021 4:15:00 AM 17.55 63.59 0.139 7.42 6.57 8.95
7/2/2021 4:30:00 AM 17.5 63.5 0.139 7.42 7.11 8.97
7/2/2021 4:45:00 AM 17.45 63.41 0.14 7.42 6.95 8.97
7/2/2021 5:00:00 AM 17.4 63.32 0.14 7.42 6.97 8.99
7/2/2021 5:15:00 AM 17.35 63.23 0.14 7.43 6.78 9
7/2/2021 5:30:00 AM 17.32 63.176 0.14 7.43 7 9.01
7/2/2021 5:45:00 AM 17.28 63.104 0.14 7.43 6.61 9.02
7/2/2021 6:00:00 AM 17.25 63.05 0.141 7.43 6.32 9.03
7/2/2021 6:15:00 AM 17.22 62.996 0.141 7.43 6.19 9.05
7/2/2021 6:30:00 AM 17.19 62.942 0.141 7.44 5.85 9.07
7/2/2021 6:45:00 AM 17.17 62.906 0.141 7.44 6.01 9.09
7/2/2021 7:00:00 AM 17.15 62.87 0.141 7.45 5.58 9.13
7/2/2021 7:15:00 AM 17.14 62.852 0.141 7.46 5.65 9.16
7/2/2021 7:30:00 AM 17.15 62.87 0.141 7.48 5.26 9.21
7/2/2021 7:45:00 AM 17.15 62.87 0.141 7.49 5.29 9.24
7/2/2021 8:00:00 AM 17.16 62.888 0.141 7.5 4.85 9.28
7/2/2021 8:15:00 AM 17.18 62.924 0.141 7.51 4.73 9.3
7/2/2021 8:30:00 AM 17.18 62.924 0.141 7.51 4.64 9.29
7/2/2021 8:45:00 AM 17.2 62.96 0.141 7.52 4.53 9.33
7/2/2021 9:00:00 AM 17.2 62.96 0.141 7.53 4.26 9.32
7/2/2021 9:15:00 AM 17.23 63.014 0.141 7.54 4.12 9.38
7/2/2021 9:30:00 AM 17.32 63.176 0.141 7.57 3.95 9.47
7/2/2021 9:45:00 AM 17.37 63.266 0.141 7.59 3.92 9.49
7/2/2021 10:00:00 AM 17.44 63.392 0.141 7.61 3.73 9.51
7/2/2021 10:15:00 AM 17.5 63.5 0.141 7.62 3.63 9.5
7/2/2021 10:30:00 AM 17.58 63.644 0.142 7.62 3.83 9.47
7/2/2021 10:45:00 AM 17.67 63.806 0.142 7.62 3.74 9.45
7/2/2021 11:00:00 AM 17.7 63.86 0.141 7.64 3.73 9.48
7/2/2021 11:15:00 AM 17.78 64.004 0.141 7.64 3.63 9.46
7/2/2021 11:30:00 AM 17.87 64.166 0.141 7.67 3.56 9.5
7/2/2021 11:45:00 AM 17.93 64.274 0.141 7.68 3.43 9.52
7/2/2021 12:00:00 PM 18.08 64.544 0.141 7.69 3.41 9.55
7/2/2021 12:15:00 PM 18.28 64.904 0.141 7.7 3.36 9.52
7/2/2021 12:30:00 PM 18.56 65.408 0.141 7.72 3.23 9.5
7/2/2021 12:45:00 PM 18.78 65.804 0.141 7.73 3.29 9.47
7/2/2021 1:00:00 PM 19.1 66.38 0.141 7.74 3.28 9.41
7/2/2021 1:15:00 PM 19.26 66.668 0.141 7.75 3.17 9.39
7/2/2021 1:30:00 PM 19.45 67.01 0.141 7.76 3.39 9.4
7/2/2021 1:45:00 PM 19.5 67.1 0.141 7.77 3.27 9.37
7/2/2021 2:00:00 PM 19.64 67.352 0.141 7.78 3.43 9.34
7/2/2021 2:15:00 PM 19.81 67.658 0.14 7.78 3.12 9.31
7/2/2021 2:30:00 PM 19.82 67.676 0.14 7.78 3.26 9.26
7/2/2021 2:45:00 PM 19.77 67.586 0.14 7.76 3.19 9.23
7/2/2021 3:00:00 PM 19.7 67.46 0.14 7.71 3.27 9.11
7/2/2021 3:15:00 PM 19.62 67.316 0.14 7.68 3.28 9.04
7/2/2021 3:30:00 PM 19.48 67.064 0.138 7.65 3.81 9.01
7/2/2021 3:45:00 PM 19.59 67.262 0.136 7.67 3.71 9.09
7/2/2021 4:00:00 PM 19.62 67.316 0.136 7.68 4.99 9.11
7/2/2021 4:15:00 PM 19.58 67.244 0.137 7.66 4.79 9.02
7/2/2021 4:30:00 PM 19.42 66.956 0.137 7.61 4.03 8.92
7/2/2021 4:45:00 PM 19.39 66.902 0.138 7.59 3.67 8.84
7/2/2021 5:00:00 PM 19.31 66.758 0.138 7.57 3.6 8.81
7/2/2021 5:15:00 PM 19.17 66.506 0.138 7.55 3.9 8.81
7/2/2021 5:30:00 PM 19.07 66.326 0.138 7.56 3.56 8.88
7/2/2021 5:45:00 PM 19.02 66.236 0.138 7.58 3.63 8.96
7/2/2021 6:00:00 PM 19.06 66.308 0.138 7.6 3.53 9.03
7/2/2021 6:15:00 PM 19.1 66.38 0.138 7.62 3.37 9.07
7/2/2021 6:30:00 PM 19.08 66.344 0.138 7.62 3.43 9.08
7/2/2021 6:45:00 PM 19.05 66.29 0.138 7.62 3.56 9.07
7/2/2021 7:00:00 PM 19.01 66.218 0.138 7.61 3.52 9.03
7/2/2021 7:15:00 PM 18.9 66.02 0.138 7.59 3.72 8.99
7/2/2021 7:30:00 PM 18.81 65.858 0.14 7.51 30.93 8.92
7/2/2021 7:45:00 PM 18.64 65.552 0.142 7.48 39.17 8.9
7/2/2021 8:00:00 PM 18.49 65.282 0.142 7.47 46.96 8.9
7/2/2021 8:15:00 PM 18.27 64.886 0.128 7.42 162.24 8.9
7/2/2021 8:30:00 PM 17.92 64.256 0.109 7.34 262.04 8.95
7/2/2021 8:45:00 PM 17.59 63.662 0.096 7.29 293.49 8.99
7/2/2021 9:00:00 PM 17.34 63.212 0.089 7.25 286.29 9.04
7/2/2021 9:15:00 PM 17.17 62.906 0.085 7.23 268.69 9.06
7/2/2021 9:30:00 PM 17.03 62.654 0.083 7.21 254.69 9.07
7/2/2021 9:45:00 PM 16.92 62.456 0.082 7.2 216.36 9.1
7/2/2021 10:00:00 PM 16.82 62.276 0.082 7.2 194.41 9.13
7/2/2021 10:15:00 PM 16.73 62.114 0.083 7.2 165.23 9.16
7/2/2021 10:30:00 PM 16.64 61.952 0.084 7.21 140.97 9.18
7/2/2021 10:45:00 PM 16.56 61.808 0.086 7.21 122.03 9.19
7/2/2021 11:00:00 PM 16.48 61.664 0.088 7.23 104.5 9.21
7/2/2021 11:15:00 PM 16.41 61.538 0.09 7.24 89.48 9.22
7/2/2021 11:30:00 PM 16.34 61.412 0.092 7.26 76.04 9.24
7/2/2021 11:45:00 PM 16.29 61.322 0.094 7.27 62.92 9.24
7/3/2021 12:00:00 AM 16.24 61.232 0.097 7.28 57.88 9.25
7/3/2021 12:15:00 AM 16.21 61.178 0.099 7.29 51.01 9.26
7/3/2021 12:30:00 AM 16.17 61.106 0.102 7.3 42.23 9.27
7/3/2021 12:45:00 AM 16.13 61.034 0.106 7.32 38.15 9.28
7/3/2021 1:00:00 AM 16.09 60.962 0.109 7.33 32.98 9.29
7/3/2021 1:15:00 AM 16.06 60.908 0.113 7.34 29.54 9.3
7/3/2021 1:30:00 AM 16.03 60.854 0.115 7.35 25.21 9.31
7/3/2021 1:45:00 AM 16 60.8 0.117 7.36 24.18 9.32
7/3/2021 2:00:00 AM 15.96 60.728 0.117 7.35 22.11 9.33
7/3/2021 2:15:00 AM 15.93 60.674 0.117 7.35 20.66 9.35
7/3/2021 2:30:00 AM 15.89 60.602 0.116 7.35 19.66 9.35
7/3/2021 2:45:00 AM 15.85 60.53 0.114 7.35 18.4 9.36
7/3/2021 3:00:00 AM 15.8 60.44 0.113 7.35 17.62 9.38
7/3/2021 3:15:00 AM 15.75 60.35 0.111 7.34 18.47 9.39
7/3/2021 3:30:00 AM 15.69 60.242 0.11 7.34 18.1 9.39
7/3/2021 3:45:00 AM 15.63 60.134 0.11 7.33 16.83 9.41
7/3/2021 4:00:00 AM 15.59 60.062 0.109 7.33 19.02 9.42
7/3/2021 4:15:00 AM 15.55 59.99 0.109 7.33 19.16 9.42
7/3/2021 4:30:00 AM 15.51 59.918 0.109 7.33 18.57 9.42
7/3/2021 4:45:00 AM 15.48 59.864 0.109 7.33 17.67 9.43
7/3/2021 5:00:00 AM 15.45 59.81 0.109 7.33 17.48 9.44
7/3/2021 5:15:00 AM 15.41 59.738 0.11 7.33 16.17 9.46
7/3/2021 5:30:00 AM 15.37 59.666 0.109 7.33 15.44 9.47
7/3/2021 5:45:00 AM 15.35 59.63 0.11 7.33 14.06 9.47
7/3/2021 6:00:00 AM 15.32 59.576 0.111 7.33 13.93 9.48
7/3/2021 6:15:00 AM 15.3 59.54 0.111 7.34 12.9 9.5
7/3/2021 6:30:00 AM 15.29 59.522 0.111 7.34 12.03 9.51
7/3/2021 6:45:00 AM 15.28 59.504 0.112 7.35 11.85 9.54
7/3/2021 7:00:00 AM 15.27 59.486 0.112 7.36 10.8 9.57
7/3/2021 7:15:00 AM 15.28 59.504 0.112 7.37 10.77 9.61
7/3/2021 7:30:00 AM 15.28 59.504 0.113 7.38 10.44 9.62
7/3/2021 7:45:00 AM 15.3 59.54 0.113 7.39 9.64 9.68
7/3/2021 8:00:00 AM 15.36 59.648 0.113 7.41 8.98 9.71
7/3/2021 8:15:00 AM 15.41 59.738 0.113 7.42 9.03 9.75
7/3/2021 8:30:00 AM 15.46 59.828 0.114 7.44 8.73 9.75
7/3/2021 8:45:00 AM 15.5 59.9 0.114 7.44 8.06 9.74
7/3/2021 9:00:00 AM 15.55 59.99 0.114 7.44 7.89 9.73
7/3/2021 9:15:00 AM 15.6 60.08 0.114 7.46 7.9 9.76
7/3/2021 9:30:00 AM 15.64 60.152 0.114 7.47 7.23 9.78
7/3/2021 9:45:00 AM 15.68 60.224 0.115 7.48 7.26 9.77
7/3/2021 10:00:00 AM 15.73 60.314 0.115 7.49 6.48 9.78
7/3/2021 10:15:00 AM 15.79 60.422 0.115 7.5 6.48 9.8
7/3/2021 10:30:00 AM 15.86 60.548 0.115 7.52 6.49 9.83
7/3/2021 10:45:00 AM 15.89 60.602 0.115 7.52 6.18 9.78
7/3/2021 11:00:00 AM 15.95 60.71 0.115 7.52 5.99 9.78
7/3/2021 11:15:00 AM 16.03 60.854 0.116 7.54 5.8 9.79
7/3/2021 11:30:00 AM 16.25 61.25 0.116 7.57 5.76 9.84
7/3/2021 11:45:00 AM 16.33 61.394 0.116 7.59 5.37 9.84
7/3/2021 12:00:00 PM 16.53 61.754 0.116 7.62 5.17 9.86
7/3/2021 12:15:00 PM 16.65 61.97 0.116 7.62 4.99 9.81
7/3/2021 12:30:00 PM 16.94 62.492 0.116 7.64 5.08 9.79
7/3/2021 12:45:00 PM 17.08 62.744 0.117 7.65 5.37 9.79
7/3/2021 1:00:00 PM 17.34 63.212 0.117 7.67 4.8 9.79
7/3/2021 1:15:00 PM 17.5 63.5 0.117 7.68 4.68 9.76
7/3/2021 1:30:00 PM 17.62 63.716 0.117 7.7 4.8 9.74
7/3/2021 1:45:00 PM 17.9 64.22 0.117 7.71 4.81 9.71
7/3/2021 2:00:00 PM 18.12 64.616 0.118 7.72 4.77 9.67
7/3/2021 2:15:00 PM 18.29 64.922 0.118 7.73 4.69 9.63
7/3/2021 2:30:00 PM 18.41 65.138 0.118 7.74 4.52 9.58
7/3/2021 2:45:00 PM 18.44 65.192 0.118 7.72 4.41 9.5
7/3/2021 3:00:00 PM 18.45 65.21 0.118 7.7 4.48 9.45
7/3/2021 3:15:00 PM 18.56 65.408 0.118 7.72 4.6 9.49
7/3/2021 3:30:00 PM 18.68 65.624 0.119 7.73 4.62 9.49
7/3/2021 3:45:00 PM 18.67 65.606 0.119 7.72 4.65 9.44
7/3/2021 4:00:00 PM 18.67 65.606 0.119 7.73 4.8 9.44
7/3/2021 4:15:00 PM 18.68 65.624 0.119 7.7 4.85 9.36
7/3/2021 4:30:00 PM 18.83 65.894 0.12 7.71 4.65 9.4
7/3/2021 4:45:00 PM 18.93 66.074 0.12 7.72 4.48 9.4
7/3/2021 5:00:00 PM 18.97 66.146 0.12 7.72 4.54 9.39
7/3/2021 5:15:00 PM 18.9 66.02 0.12 7.69 4.63 9.3
7/3/2021 5:30:00 PM 18.91 66.038 0.12 7.68 4.72 9.28
7/3/2021 5:45:00 PM 18.81 65.858 0.121 7.64 4.79 9.18
7/3/2021 6:00:00 PM 18.67 65.606 0.121 7.6 4.89 9.14
7/3/2021 6:15:00 PM 18.64 65.552 0.121 7.6 4.65 9.17
7/3/2021 6:30:00 PM 18.63 65.534 0.121 7.59 4.58 9.13
7/3/2021 6:45:00 PM 18.53 65.354 0.121 7.54 4.69 9.01
7/3/2021 7:00:00 PM 18.4 65.12 0.121 7.52 4.79 8.96
7/3/2021 7:15:00 PM 18.28 64.904 0.12 7.49 5.16 8.95
7/3/2021 7:30:00 PM 18.19 64.742 0.121 7.49 5.29 8.96
7/3/2021 7:45:00 PM 18.14 64.652 0.121 7.49 4.98 9
7/3/2021 8:00:00 PM 18.08 64.544 0.122 7.49 4.93 9
7/3/2021 8:15:00 PM 18.03 64.454 0.122 7.48 5.13 8.98
7/3/2021 8:30:00 PM 17.97 64.346 0.122 7.47 4.83 8.97
7/3/2021 8:45:00 PM 17.92 64.256 0.122 7.46 4.76 8.96
7/3/2021 9:00:00 PM 17.87 64.166 0.122 7.44 4.92 8.94
7/3/2021 9:15:00 PM 17.8 64.04 0.122 7.44 4.9 8.93
7/3/2021 9:30:00 PM 17.74 63.932 0.123 7.43 5 8.93
7/3/2021 9:45:00 PM 17.68 63.824 0.123 7.43 5.01 8.94
7/3/2021 10:00:00 PM 17.61 63.698 0.123 7.43 4.93 8.96
7/3/2021 10:15:00 PM 17.54 63.572 0.123 7.43 5.08 8.98
7/3/2021 10:30:00 PM 17.48 63.464 0.123 7.43 5.07 8.99
7/3/2021 10:45:00 PM 17.41 63.338 0.124 7.43 4.93 9.01
7/3/2021 11:00:00 PM 17.35 63.23 0.124 7.42 4.97 9.03
7/3/2021 11:15:00 PM 17.28 63.104 0.124 7.42 5.2 9.04
7/3/2021 11:30:00 PM 17.22 62.996 0.124 7.42 5.21 9.05
7/3/2021 11:45:00 PM 17.15 62.87 0.124 7.42 4.83 9.06
7/4/2021 12:00:00 AM 17.09 62.762 0.124 7.42 4.98 9.07
7/4/2021 12:15:00 AM 17.03 62.654 0.125 7.42 4.91 9.07
7/4/2021 12:30:00 AM 16.97 62.546 0.125 7.42 4.76 9.08
7/4/2021 12:45:00 AM 16.92 62.456 0.125 7.41 4.83 9.1
7/4/2021 1:00:00 AM 16.87 62.366 0.125 7.41 4.73 9.12
7/4/2021 1:15:00 AM 16.82 62.276 0.125 7.42 4.85 9.13
7/4/2021 1:30:00 AM 16.77 62.186 0.126 7.42 4.95 9.15
7/4/2021 1:45:00 AM 16.72 62.096 0.126 7.41 4.89 9.16
7/4/2021 2:00:00 AM 16.67 62.006 0.126 7.41 5.18 9.17
7/4/2021 2:15:00 AM 16.63 61.934 0.126 7.41 7.8 9.18
7/4/2021 2:30:00 AM 16.58 61.844 0.126 7.41 7.58 9.18
7/4/2021 2:45:00 AM 16.53 61.754 0.126 7.41 4.55 9.2
7/4/2021 3:00:00 AM 16.48 61.664 0.126 7.41 4.73 9.21
7/4/2021 3:15:00 AM 16.42 61.556 0.127 7.41 11.62 9.22
7/4/2021 3:30:00 AM 16.37 61.466 0.127 7.41 10.55 9.23
7/4/2021 3:45:00 AM 16.32 61.376 0.127 7.41 4.63 9.24
7/4/2021 4:00:00 AM 16.27 61.286 0.127 7.41 12.1 9.25
7/4/2021 4:15:00 AM 16.22 61.196 0.127 7.41 9.33 9.26
7/4/2021 4:30:00 AM 16.17 61.106 0.127 7.4 8.51 9.27
7/4/2021 4:45:00 AM 16.13 61.034 0.127 7.41 12.84 9.28
7/4/2021 5:00:00 AM 16.09 60.962 0.128 7.4 4.36 9.29
7/4/2021 5:15:00 AM 16.05 60.89 0.128 7.4 4.51 9.3
7/4/2021 5:30:00 AM 16.02 60.836 0.128 7.4 4.32 9.31
7/4/2021 5:45:00 AM 15.98 60.764 0.128 7.4 4.62 9.33
7/4/2021 6:00:00 AM 15.95 60.71 0.128 7.4 7.05 9.34
7/4/2021 6:15:00 AM 15.91 60.638 0.128 7.41 7.51 9.37
7/4/2021 6:30:00 AM 15.88 60.584 0.128 7.42 6.99 9.4
7/4/2021 6:45:00 AM 15.85 60.53 0.128 7.43 5.96 9.44
7/4/2021 7:00:00 AM 15.83 60.494 0.128 7.44 7.72 9.51
7/4/2021 7:15:00 AM 15.83 60.494 0.128 7.46 7.92 9.59
7/4/2021 7:30:00 AM 15.81 60.458 0.128 7.47 8.03 9.62
7/4/2021 7:45:00 AM 15.78 60.404 0.128 7.47 9.07 9.63
7/4/2021 8:00:00 AM 15.8 60.44 0.128 7.49 7.07 9.72
7/4/2021 8:15:00 AM 15.87 60.566 0.127 7.53 5.33 9.83
7/4/2021 8:30:00 AM 15.9 60.62 0.127 7.54 8.76 9.83
7/4/2021 8:45:00 AM 15.97 60.746 0.127 7.55 7.53 9.84
7/4/2021 9:00:00 AM 16.05 60.89 0.127 7.56 7.51 9.83
7/4/2021 9:15:00 AM 16.15 61.07 0.127 7.57 7.74 9.82
7/4/2021 9:30:00 AM 16.28 61.304 0.127 7.58 6.78 9.83
7/4/2021 9:45:00 AM 16.44 61.592 0.127 7.6 6.91 9.85
7/4/2021 10:00:00 AM 16.63 61.934 0.127 7.62 7.21 9.85
7/4/2021 10:15:00 AM 16.85 62.33 0.127 7.64 6.98 9.83
7/4/2021 10:30:00 AM 17.07 62.726 0.126 7.65 6.85 9.81
7/4/2021 10:45:00 AM 17.3 63.14 0.126 7.67 6.76 9.8
7/4/2021 11:00:00 AM 17.55 63.59 0.126 7.69 6.91 9.76
7/4/2021 11:15:00 AM 17.81 64.058 0.126 7.71 7.98 9.73
7/4/2021 11:30:00 AM 18.09 64.562 0.126 7.72 3.16 9.71
7/4/2021 11:45:00 AM 18.3 64.94 0.126 7.74 7.22 9.66
7/4/2021 12:00:00 PM 18.64 65.552 0.126 7.77 7.77 9.68
7/4/2021 12:15:00 PM 18.87 65.966 0.126 7.79 7.67 9.65
7/4/2021 12:30:00 PM 19.1 66.38 0.126 7.81 7 9.59
7/4/2021 12:45:00 PM 19.21 66.578 0.126 7.81 7.06 9.56
7/4/2021 1:00:00 PM 19.44 66.992 0.126 7.84 3.04 9.59
7/4/2021 1:15:00 PM 19.52 67.136 0.126 7.84 2.94 9.53
7/4/2021 1:30:00 PM 19.55 67.19 0.126 7.83 2.97 9.52
7/4/2021 1:45:00 PM 19.79 67.622 0.126 7.85 2.97 9.49
7/4/2021 2:00:00 PM 20.03 68.054 0.126 7.86 2.87 9.48
7/4/2021 2:15:00 PM 20.25 68.45 0.126 7.88 2.84 9.49
7/4/2021 2:30:00 PM 20.32 68.576 0.126 7.87 2.81 9.41
7/4/2021 2:45:00 PM 20.25 68.45 0.126 7.83 2.89 9.29
7/4/2021 3:00:00 PM 20.35 68.63 0.126 7.83 2.85 9.32
7/4/2021 3:15:00 PM 20.44 68.792 0.126 7.84 3.06 9.32
7/4/2021 3:30:00 PM 20.59 69.062 0.126 7.85 2.87 9.31
7/4/2021 3:45:00 PM 20.69 69.242 0.126 7.85 2.93 9.29
7/4/2021 4:00:00 PM 20.94 69.692 0.126 7.88 2.87 9.3
7/4/2021 4:15:00 PM 20.93 69.674 0.126 7.86 2.95 9.21
7/4/2021 4:30:00 PM 20.8 69.44 0.126 7.82 3 9.18
7/4/2021 4:45:00 PM 20.8 69.44 0.126 7.81 3.01 9.17
7/4/2021 5:00:00 PM 20.75 69.35 0.126 7.79 3.12 9.11
7/4/2021 5:15:00 PM 20.49 68.882 0.127 7.73 3 9.01
7/4/2021 5:30:00 PM 20.43 68.774 0.126 7.72 3.16 9.03
7/4/2021 5:45:00 PM 20.39 68.702 0.127 7.7 3.01 8.99
7/4/2021 6:00:00 PM 20.26 68.468 0.127 7.68 3.08 8.98
7/4/2021 6:15:00 PM 20.13 68.234 0.127 7.67 3.12 8.99
7/4/2021 6:30:00 PM 20.1 68.18 0.127 7.66 3.29 8.96
7/4/2021 6:45:00 PM 20 68 0.127 7.63 3.22 8.92
7/4/2021 7:00:00 PM 19.92 67.856 0.127 7.62 3.17 8.94
7/4/2021 7:15:00 PM 19.84 67.712 0.127 7.6 3.17 8.86
7/4/2021 7:30:00 PM 19.73 67.514 0.127 7.57 3.5 8.81
7/4/2021 7:45:00 PM 19.64 67.352 0.127 7.55 3.51 8.78
7/4/2021 8:00:00 PM 19.57 67.226 0.127 7.54 3.67 8.78
7/4/2021 8:15:00 PM 19.53 67.154 0.127 7.52 3.35 8.75
7/4/2021 8:30:00 PM 19.49 67.082 0.127 7.49 3.4 8.7
7/4/2021 8:45:00 PM 19.45 67.01 0.127 7.48 3.48 8.67
7/4/2021 9:00:00 PM 19.41 66.938 0.127 7.47 3.53 8.64
7/4/2021 9:15:00 PM 19.36 66.848 0.127 7.45 3.41 8.62
7/4/2021 9:30:00 PM 19.3 66.74 0.128 7.44 3.52 8.62
7/4/2021 9:45:00 PM 19.24 66.632 0.128 7.44 3.52 8.62
7/4/2021 10:00:00 PM 19.18 66.524 0.128 7.43 3.73 8.61
7/4/2021 10:15:00 PM 19.11 66.398 0.128 7.43 3.78 8.62
7/4/2021 10:30:00 PM 19.03 66.254 0.128 7.43 3.83 8.64
7/4/2021 10:45:00 PM 18.95 66.11 0.128 7.42 3.44 8.66
7/4/2021 11:00:00 PM 18.86 65.948 0.128 7.42 3.78 8.69
7/4/2021 11:15:00 PM 18.76 65.768 0.128 7.42 3.65 8.7
7/4/2021 11:30:00 PM 18.66 65.588 0.128 7.42 3.83 8.73
7/4/2021 11:45:00 PM 18.56 65.408 0.129 7.41 3.59 8.74
7/5/2021 12:00:00 AM 18.45 65.21 0.129 7.41 4.86 8.75
7/5/2021 12:15:00 AM 18.34 65.012 0.129 7.41 3.85 8.78
7/5/2021 12:30:00 AM 18.24 64.832 0.129 7.41 10.03 8.8
7/5/2021 12:45:00 AM 18.13 64.634 0.129 7.41 3.89 8.84
7/5/2021 1:00:00 AM 18.02 64.436 0.129 7.41 9.61 8.87
7/5/2021 1:15:00 AM 17.91 64.238 0.129 7.41 5.74 8.89
7/5/2021 1:30:00 AM 17.81 64.058 0.129 7.41 8.7 8.9
7/5/2021 1:45:00 AM 17.7 63.86 0.129 7.41 6.8 8.92
7/5/2021 2:00:00 AM 17.59 63.662 0.13 7.41 4.78 8.95
7/5/2021 2:15:00 AM 17.49 63.482 0.13 7.4 7.39 8.97
7/5/2021 2:30:00 AM 17.38 63.284 0.13 7.41 7.14 9
7/5/2021 2:45:00 AM 17.28 63.104 0.13 7.4 5.69 9.02
7/5/2021 3:00:00 AM 17.19 62.942 0.13 7.4 5.57 9.04
7/5/2021 3:15:00 AM 17.1 62.78 0.13 7.4 3.57 9.06
7/5/2021 3:30:00 AM 17.01 62.618 0.13 7.4 3.61 9.07
7/5/2021 3:45:00 AM 16.93 62.474 0.13 7.4 3.39 9.08
7/5/2021 4:00:00 AM 16.85 62.33 0.13 7.4 5.76 9.12
7/5/2021 4:15:00 AM 16.79 62.222 0.13 7.4 4.09 9.13
7/5/2021 4:30:00 AM 16.73 62.114 0.13 7.4 8.62 9.14
7/5/2021 4:45:00 AM 16.66 61.988 0.131 7.4 9.1 9.17
7/5/2021 5:00:00 AM 16.6 61.88 0.131 7.4 8.63 9.19
7/5/2021 5:15:00 AM 16.53 61.754 0.131 7.4 6.27 9.2
7/5/2021 5:30:00 AM 16.45 61.61 0.131 7.4 7.59 9.22
7/5/2021 5:45:00 AM 16.38 61.484 0.131 7.4 4.74 9.25
7/5/2021 6:00:00 AM 16.31 61.358 0.131 7.41 5.76 9.27
7/5/2021 6:15:00 AM 16.24 61.232 0.131 7.41 6.93 9.32
7/5/2021 6:30:00 AM 16.18 61.124 0.131 7.43 6.31 9.39
7/5/2021 6:45:00 AM 16.13 61.034 0.131 7.44 6.85 9.46
7/5/2021 7:00:00 AM 16.09 60.962 0.131 7.45 7.13 9.54
7/5/2021 7:15:00 AM 16.05 60.89 0.131 7.47 7.01 9.62
7/5/2021 7:30:00 AM 16.02 60.836 0.131 7.49 7.07 9.7
7/5/2021 7:45:00 AM 16.01 60.818 0.131 7.52 7.26 9.78
7/5/2021 8:00:00 AM 16.03 60.854 0.131 7.55 7.6 9.86
7/5/2021 8:15:00 AM 16.07 60.926 0.131 7.57 6.93 9.92
7/5/2021 8:30:00 AM 16.1 60.98 0.131 7.59 6.82 9.96
7/5/2021 8:45:00 AM 16.15 61.07 0.13 7.62 7.96 10.01
7/5/2021 9:00:00 AM 16.23 61.214 0.13 7.64 6.43 10.04
7/5/2021 9:15:00 AM 16.34 61.412 0.13 7.66 9.4 10.07
7/5/2021 9:30:00 AM 16.47 61.646 0.13 7.69 10.1 10.1
7/5/2021 9:45:00 AM 16.61 61.898 0.13 7.71 6.23 10.1
7/5/2021 10:00:00 AM 16.81 62.258 0.13 7.74 6.84 10.1
7/5/2021 10:15:00 AM 17.03 62.654 0.13 7.77 6.78 10.08
7/5/2021 10:30:00 AM 17.27 63.086 0.129 7.81 6.64 10.1
7/5/2021 10:45:00 AM 17.52 63.536 0.129 7.83 6.79 10.07
7/5/2021 11:00:00 AM 17.8 64.04 0.129 7.86 6.03 10.03
7/5/2021 11:15:00 AM 18.06 64.508 0.129 7.89 7.86 10.01
7/5/2021 11:30:00 AM 18.35 65.03 0.129 7.92 6.7 9.98
7/5/2021 11:45:00 AM 18.64 65.552 0.129 7.94 7.08 9.96
7/5/2021 12:00:00 PM 18.94 66.092 0.129 7.96 7.06 9.91
7/5/2021 12:15:00 PM 19.23 66.614 0.129 7.99 6.83 9.88
7/5/2021 12:30:00 PM 19.52 67.136 0.129 8.02 5.27 9.86
7/5/2021 12:45:00 PM 19.81 67.658 0.129 8.04 6.92 9.79
7/5/2021 1:00:00 PM 20.09 68.162 0.129 8.05 6.66 9.77
7/5/2021 1:15:00 PM 20.37 68.666 0.129 8.09 2.62 9.74
7/5/2021 1:30:00 PM 20.64 69.152 0.129 8.1 2.51 9.7
7/5/2021 1:45:00 PM 20.9 69.62 0.129 8.12 2.58 9.66
7/5/2021 2:00:00 PM 21.14 70.052 0.129 8.13 2.75 9.61
7/5/2021 2:15:00 PM 21.37 70.466 0.129 8.15 2.78 9.59
7/5/2021 2:30:00 PM 21.59 70.862 0.13 8.16 2.88 9.54
7/5/2021 2:45:00 PM 21.78 71.204 0.13 8.17 2.82 9.49
7/5/2021 3:00:00 PM 21.97 71.546 0.13 8.18 3 9.46
7/5/2021 3:15:00 PM 22.14 71.852 0.13 8.18 2.47 9.44
7/5/2021 3:30:00 PM 22.31 72.158 0.13 8.19 2.54 9.4
7/5/2021 3:45:00 PM 22.43 72.374 0.13 8.19 2.52 9.35
7/5/2021 4:00:00 PM 22.53 72.554 0.13 8.18 2.62 9.3
7/5/2021 4:15:00 PM 22.6 72.68 0.13 8.17 2.76 9.27
7/5/2021 4:30:00 PM 22.65 72.77 0.13 8.15 2.67 9.23
7/5/2021 4:45:00 PM 22.68 72.824 0.13 8.13 2.72 9.19
7/5/2021 5:00:00 PM 22.7 72.86 0.13 8.12 2.81 9.17
7/5/2021 5:15:00 PM 22.7 72.86 0.13 8.1 2.54 9.14
7/5/2021 5:30:00 PM 22.67 72.806 0.13 8.08 2.85 9.1
7/5/2021 5:45:00 PM 22.6 72.68 0.13 8.02 2.74 9.01
7/5/2021 6:00:00 PM 22.52 72.536 0.131 7.98 2.93 8.95
7/5/2021 6:15:00 PM 22.43 72.374 0.131 7.93 7.49 8.87
7/5/2021 6:30:00 PM 22.34 72.212 0.131 7.88 3.01 8.82
7/5/2021 6:45:00 PM 22.24 72.032 0.131 7.83 2.72 8.76
7/5/2021 7:00:00 PM 22.15 71.87 0.131 7.78 2.79 8.71
7/5/2021 7:15:00 PM 22.04 71.672 0.131 7.73 2.84 8.66
7/5/2021 7:30:00 PM 21.92 71.456 0.131 7.68 2.76 8.58
7/5/2021 7:45:00 PM 21.81 71.258 0.131 7.64 2.71 8.51
7/5/2021 8:00:00 PM 21.7 71.06 0.131 7.6 2.99 8.45
7/5/2021 8:15:00 PM 21.59 70.862 0.132 7.57 2.82 8.41
7/5/2021 8:30:00 PM 21.48 70.664 0.132 7.53 2.88 8.35
7/5/2021 8:45:00 PM 21.37 70.466 0.132 7.5 2.97 8.3
7/5/2021 9:00:00 PM 21.26 70.268 0.132 7.47 3.07 8.27
7/5/2021 9:15:00 PM 21.16 70.088 0.132 7.45 3.22 8.24
7/5/2021 9:30:00 PM 21.06 69.908 0.132 7.43 2.98 8.22
7/5/2021 9:45:00 PM 20.96 69.728 0.132 7.42 3.75 8.24
7/5/2021 10:00:00 PM 20.86 69.548 0.132 7.41 6.87 8.25
7/5/2021 10:15:00 PM 20.76 69.368 0.132 7.4 10.87 8.27
7/5/2021 10:30:00 PM 20.67 69.206 0.132 7.4 6.06 8.28
7/5/2021 10:45:00 PM 20.57 69.026 0.133 7.39 5.59 8.29
7/5/2021 11:00:00 PM 20.48 68.864 0.133 7.39 6.11 8.3
7/5/2021 11:15:00 PM 20.39 68.702 0.133 7.39 8.13 8.31
7/5/2021 11:30:00 PM 20.31 68.558 0.133 7.39 2.94 8.33
7/5/2021 11:45:00 PM 20.22 68.396 0.133 7.39 3.8 8.35
7/6/2021 12:00:00 AM 20.13 68.234 0.133 7.39 9.29 8.37
7/6/2021 12:15:00 AM 20.04 68.07201 0.133 7.39 6.63 8.39
7/6/2021 12:30:00 AM 19.96 67.92799 0.133 7.39 6.26 8.41
7/6/2021 12:45:00 AM 19.87 67.766 0.133 7.38 6.85 8.41
7/6/2021 1:00:00 AM 19.79 67.622 0.133 7.38 6.77 8.41
7/6/2021 1:15:00 AM 19.71 67.478 0.133 7.38 5.67 8.44
7/6/2021 1:30:00 AM 19.63 67.334 0.134 7.38 7.07 8.45
7/6/2021 1:45:00 AM 19.55 67.19 0.134 7.38 7.66 8.48
7/6/2021 2:00:00 AM 19.48 67.064 0.134 7.38 5.76 8.49
7/6/2021 2:15:00 AM 19.4 66.92 0.134 7.38 5.94 8.51
7/6/2021 2:30:00 AM 19.33 66.794 0.134 7.38 7.76 8.52
7/6/2021 2:45:00 AM 19.26 66.668 0.134 7.38 4.54 8.54
7/6/2021 3:00:00 AM 19.19 66.542 0.134 7.38 4.61 8.54
7/6/2021 3:15:00 AM 19.12 66.416 0.134 7.38 3.91 8.55
7/6/2021 3:30:00 AM 19.05 66.29 0.134 7.38 7.65 8.57
7/6/2021 3:45:00 AM 18.99 66.182 0.134 7.38 3.73 8.59
7/6/2021 4:00:00 AM 18.92 66.056 0.134 7.38 6.01 8.62
7/6/2021 4:15:00 AM 18.86 65.948 0.135 7.38 4.6 8.63
7/6/2021 4:30:00 AM 18.79 65.82201 0.135 7.38 6.45 8.65
7/6/2021 4:45:00 AM 18.72 65.696 0.135 7.38 5.96 8.66
7/6/2021 5:00:00 AM 18.65 65.57 0.135 7.38 6.63 8.67
7/6/2021 5:15:00 AM 18.59 65.462 0.135 7.38 5.42 8.68
7/6/2021 5:30:00 AM 18.52 65.336 0.135 7.37 10.04 8.69
7/6/2021 5:45:00 AM 18.46 65.228 0.135 7.38 6.16 8.7
7/6/2021 6:00:00 AM 18.4 65.12 0.135 7.38 6.87 8.73
7/6/2021 6:15:00 AM 18.35 65.03 0.135 7.39 6.33 8.78
7/6/2021 6:30:00 AM 18.3 64.94 0.135 7.39 3.01 8.85
7/6/2021 6:45:00 AM 18.27 64.886 0.135 7.41 3.17 8.92
7/6/2021 7:00:00 AM 18.25 64.85 0.135 7.43 3.01 9.02
7/6/2021 7:15:00 AM 18.22 64.796 0.135 7.45 3 9.11
7/6/2021 7:30:00 AM 18.22 64.796 0.135 7.48 2.83 9.21
7/6/2021 7:45:00 AM 18.22 64.796 0.135 7.51 2.8 9.32
7/6/2021 8:00:00 AM 18.26 64.868 0.134 7.55 2.82 9.44
7/6/2021 8:15:00 AM 18.31 64.958 0.134 7.58 2.93 9.52
7/6/2021 8:30:00 AM 18.36 65.048 0.134 7.61 2.73 9.57
7/6/2021 8:45:00 AM 18.43 65.174 0.134 7.64 2.62 9.62
7/6/2021 9:00:00 AM 18.5 65.3 0.134 7.68 2.59 9.69
7/6/2021 9:15:00 AM 18.6 65.48 0.134 7.72 2.67 9.75
7/6/2021 9:30:00 AM 18.75 65.75 0.134 7.78 2.67 9.79
7/6/2021 9:45:00 AM 18.92 66.056 0.134 7.84 2.56 9.81
7/6/2021 10:00:00 AM 19.11 66.398 0.134 7.88 2.41 9.8
7/6/2021 10:15:00 AM 19.31 66.758 0.134 7.92 3.5 9.82
7/6/2021 10:30:00 AM 19.49 67.082 0.134 7.96 2.53 9.81
7/6/2021 10:45:00 AM 19.71 67.478 0.134 7.99 2.54 9.79
7/6/2021 11:00:00 AM 19.92 67.856 0.133 8.04 2.38 9.8
7/6/2021 11:15:00 AM 20.18 68.324 0.133 8.09 2.27 9.81
7/6/2021 11:30:00 AM 20.4 68.72 0.133 8.13 2.38 9.76
7/6/2021 11:45:00 AM 20.7 69.26 0.133 8.16 48.63 9.74
7/6/2021 12:00:00 PM 21.02 69.836 0.131 8.21 2.3 9.74
7/6/2021 12:15:00 PM 21.32 70.376 0.133 8.23 2.54 9.71
7/6/2021 12:30:00 PM 21.61 70.898 0.133 8.26 2.23 9.68
7/6/2021 12:45:00 PM 21.83 71.294 0.133 8.27 2.43 9.6
7/6/2021 1:00:00 PM 22.08 71.744 0.133 8.3 2.28 9.59
7/6/2021 1:15:00 PM 22.23 72.014 0.133 8.29 2.41 9.51
7/6/2021 1:30:00 PM 22.49 72.482 0.133 8.32 2.24 9.48
7/6/2021 1:45:00 PM 22.72 72.896 0.133 8.34 2.28 9.48
7/6/2021 2:00:00 PM 22.93 73.274 0.133 8.35 2.34 9.42
7/6/2021 2:15:00 PM 23.19 73.742 0.133 8.37 2.71 9.39
7/6/2021 2:30:00 PM 23.29 73.922 0.133 8.36 2.25 9.32
7/6/2021 2:45:00 PM 23.31 73.958 0.133 8.29 2.29 9.17
7/6/2021 3:00:00 PM 23.23 73.814 0.133 8.24 2.18 9.08
7/6/2021 3:15:00 PM 23.19 73.742 0.133 8.26 2.35 9.15
7/6/2021 3:30:00 PM 23.25 73.85 0.133 8.3 2.47 9.22
7/6/2021 3:45:00 PM 23.35 74.03 0.133 8.35 2.32 9.31
7/6/2021 4:00:00 PM 23.47 74.246 0.133 8.37 2.39 9.31
7/6/2021 4:15:00 PM 23.59 74.462 0.133 8.38 2.4 9.26
7/6/2021 4:30:00 PM 23.66 74.588 0.133 8.37 2.36 9.21
7/6/2021 4:45:00 PM 23.66 74.588 0.133 8.35 2.46 9.14
7/6/2021 5:00:00 PM 23.54 74.372 0.133 8.24 2.31 8.96
7/6/2021 5:15:00 PM 23.53 74.354 0.133 8.21 2.36 8.97
7/6/2021 5:30:00 PM 23.41 74.138 0.134 8.11 2.51 8.86
7/6/2021 5:45:00 PM 23.37 74.066 0.134 8.1 2.48 8.87
7/6/2021 6:00:00 PM 23.26 73.868 0.134 8.04 2.43 8.79
7/6/2021 6:15:00 PM 23.17 73.706 0.134 8 2.47 8.76
7/6/2021 6:30:00 PM 23.09 73.562 0.134 7.98 2.45 8.77
7/6/2021 6:45:00 PM 23.04 73.472 0.134 7.93 2.48 8.72
7/6/2021 7:00:00 PM 22.99 73.382 0.134 7.88 2.52 8.62
7/6/2021 7:15:00 PM 22.91 73.238 0.134 7.8 2.76 8.53
7/6/2021 7:30:00 PM 22.81 73.058 0.135 7.74 2.59 8.45
7/6/2021 7:45:00 PM 22.72 72.896 0.135 7.69 2.6 8.38
7/6/2021 8:00:00 PM 22.63 72.734 0.135 7.63 2.59 8.28
7/6/2021 8:15:00 PM 22.52 72.536 0.135 7.58 2.71 8.17
7/6/2021 8:30:00 PM 22.41 72.338 0.136 7.54 2.79 8.11
7/6/2021 8:45:00 PM 22.3 72.14 0.136 7.51 6.3 8.07
7/6/2021 9:00:00 PM 22.21 71.978 0.136 7.49 3.36 8.05
7/6/2021 9:15:00 PM 22.12 71.816 0.136 7.47 2.73 8.04
7/6/2021 9:30:00 PM 22.03 71.654 0.136 7.46 2.66 8.02
7/6/2021 9:45:00 PM 21.94 71.492 0.136 7.44 2.58 8.02
7/6/2021 10:00:00 PM 21.84 71.312 0.136 7.43 2.64 8.03
7/6/2021 10:15:00 PM 21.74 71.132 0.136 7.42 2.8 8.04
7/6/2021 10:30:00 PM 21.64 70.952 0.136 7.42 2.56 8.06
7/6/2021 10:45:00 PM 21.54 70.772 0.136 7.42 2.53 8.07
7/6/2021 11:00:00 PM 21.43 70.574 0.136 7.42 2.6 8.09
7/6/2021 11:15:00 PM 21.33 70.394 0.137 7.42 2.9 8.12
7/6/2021 11:30:00 PM 21.24 70.232 0.137 7.41 2.56 8.13
7/6/2021 11:45:00 PM 21.15 70.07 0.137 7.41 2.63 8.14
7/7/2021 12:00:00 AM 21.06 69.908 0.137 7.4 2.92 8.15
7/7/2021 12:15:00 AM 20.97 69.746 0.137 7.4 2.7 8.18
7/7/2021 12:30:00 AM 20.88 69.584 0.137 7.4 2.68 8.19
7/7/2021 12:45:00 AM 20.79 69.422 0.137 7.4 2.78 8.22
7/7/2021 1:00:00 AM 20.7 69.26 0.137 7.4 2.83 8.23
7/7/2021 1:15:00 AM 20.62 69.116 0.137 7.4 2.66 8.26
7/7/2021 1:30:00 AM 20.53 68.954 0.137 7.4 2.69 8.27
7/7/2021 1:45:00 AM 20.45 68.81 0.137 7.4 2.66 8.26
7/7/2021 2:00:00 AM 20.39 68.702 0.137 7.4 2.55 8.28
7/7/2021 2:15:00 AM 20.31 68.558 0.137 7.4 2.56 8.3
7/7/2021 2:30:00 AM 20.24 68.432 0.137 7.41 2.79 8.33
7/7/2021 2:45:00 AM 20.17 68.306 0.137 7.41 2.73 8.34
7/7/2021 3:00:00 AM 20.1 68.18 0.137 7.41 2.56 8.36
7/7/2021 3:15:00 AM 20.03 68.054 0.137 7.41 2.6 8.37
7/7/2021 3:30:00 AM 19.97 67.946 0.138 7.41 2.77 8.38
7/7/2021 3:45:00 AM 19.91 67.838 0.138 7.41 2.63 8.39
7/7/2021 4:00:00 AM 19.86 67.748 0.138 7.41 2.56 8.41
7/7/2021 4:15:00 AM 19.81 67.658 0.138 7.42 2.86 8.41
7/7/2021 4:30:00 AM 19.76 67.568 0.138 7.41 2.86 8.41
7/7/2021 4:45:00 AM 19.71 67.478 0.138 7.42 2.84 8.43
7/7/2021 5:00:00 AM 19.66 67.388 0.138 7.42 2.74 8.43
7/7/2021 5:15:00 AM 19.62 67.316 0.138 7.42 2.79 8.45
7/7/2021 5:30:00 AM 19.57 67.226 0.138 7.42 2.71 8.46
7/7/2021 5:45:00 AM 19.53 67.154 0.138 7.42 2.72 8.48
7/7/2021 6:00:00 AM 19.48 67.064 0.138 7.43 2.75 8.51
7/7/2021 6:15:00 AM 19.44 66.992 0.138 7.43 2.64 8.56
7/7/2021 6:30:00 AM 19.39 66.902 0.138 7.44 2.8 8.61
7/7/2021 6:45:00 AM 19.36 66.848 0.137 7.46 2.71 8.68
7/7/2021 7:00:00 AM 19.33 66.794 0.137 7.48 2.57 8.76
7/7/2021 7:15:00 AM 19.31 66.758 0.137 7.5 2.75 8.85
7/7/2021 7:30:00 AM 19.31 66.758 0.137 7.52 2.53 8.97
7/7/2021 7:45:00 AM 19.3 66.74 0.137 7.56 2.52 9.09
7/7/2021 8:00:00 AM 19.32 66.776 0.137 7.61 2.67 9.25
7/7/2021 8:15:00 AM 19.32 66.776 0.137 7.65 2.63 9.35
7/7/2021 8:30:00 AM 19.39 66.902 0.136 7.7 2.54 9.46
7/7/2021 8:45:00 AM 19.45 67.01 0.136 7.76 3 9.55
7/7/2021 9:00:00 AM 19.48 67.064 0.136 7.78 3.66 9.56
7/7/2021 9:15:00 AM 19.58 67.244 0.136 7.81 2.53 9.62
7/7/2021 9:30:00 AM 19.69 67.442 0.136 7.85 2.36 9.63
7/7/2021 9:45:00 AM 19.82 67.676 0.136 7.89 2.72 9.67
7/7/2021 10:00:00 AM 19.98 67.964 0.136 7.95 2.32 9.72
7/7/2021 10:15:00 AM 20.15 68.27 0.136 8 2.29 9.75
7/7/2021 10:30:00 AM 20.36 68.648 0.136 8.05 2.31 9.75
7/7/2021 10:45:00 AM 20.58 69.044 0.135 8.11 2.38 9.76
7/7/2021 11:00:00 AM 20.82 69.476 0.135 8.17 2.31 9.76
7/7/2021 11:15:00 AM 21.1 69.98 0.135 8.22 2.4 9.74
7/7/2021 11:30:00 AM 21.39 70.502 0.135 8.28 2.29 9.77
7/7/2021 11:45:00 AM 21.65 70.97 0.135 8.31 2.39 9.74
7/7/2021 12:00:00 PM 21.89 71.402 0.135 8.35 2.2 9.71
7/7/2021 12:15:00 PM 22.02 71.636 0.135 8.35 2.28 9.65
7/7/2021 12:30:00 PM 22.21 71.978 0.135 8.37 2.23 9.61
7/7/2021 12:45:00 PM 22.45 72.41 0.135 8.4 2.16 9.59
7/7/2021 1:00:00 PM 22.63 72.734 0.135 8.41 1.99 9.55
7/7/2021 1:15:00 PM 22.87 73.166 0.135 8.45 2.09 9.54
7/7/2021 1:30:00 PM 23.14 73.652 0.135 8.48 2.11 9.51
7/7/2021 1:45:00 PM 23.32 73.976 0.135 8.49 1.98 9.45
7/7/2021 2:00:00 PM 23.61 74.498 0.135 8.52 2.26 9.48
7/7/2021 2:15:00 PM 23.7 74.66 0.135 8.5 2.24 9.33
7/7/2021 2:30:00 PM 24 75.2 0.135 8.53 2.26 9.36
7/7/2021 2:45:00 PM 24.14 75.452 0.135 8.53 2.09 9.32
7/7/2021 3:00:00 PM 24.35 75.83 0.135 8.55 2.14 9.32
7/7/2021 3:15:00 PM 24.47 76.046 0.135 8.56 1.99 9.24
7/7/2021 3:30:00 PM 24.55 76.19 0.135 8.53 2.22 9.17
7/7/2021 3:45:00 PM 24.71 76.478 0.135 8.54 2.12 9.17
7/7/2021 4:00:00 PM 24.8 76.64 0.135 8.54 85.91 9.14
7/7/2021 4:15:00 PM 24.94 76.892 0.135 8.53 2.01 9.1
7/7/2021 4:30:00 PM 25.01 77.018 0.135 8.52 2.85 9.05
7/7/2021 4:45:00 PM 25.03 77.054 0.135 8.5 2.08 8.99
7/7/2021 5:00:00 PM 25.02 77.036 0.135 8.47 2.07 8.96
7/7/2021 5:15:00 PM 24.98 76.964 0.135 8.42 2.02 8.88
7/7/2021 5:30:00 PM 24.94 76.892 0.135 8.36 2.21 8.81
7/7/2021 5:45:00 PM 24.83 76.694 0.135 8.31 2.25 8.75
7/7/2021 6:00:00 PM 24.73 76.514 0.135 8.24 2.05 8.66
7/7/2021 6:15:00 PM 24.62 76.316 0.136 8.15 2.14 8.57
7/7/2021 6:30:00 PM 24.52 76.136 0.136 8.08 2.17 8.49
7/7/2021 6:45:00 PM 24.42 75.956 0.136 8 2.15 8.41
7/7/2021 7:00:00 PM 24.32 75.776 0.136 7.94 2.19 8.35
7/7/2021 7:15:00 PM 24.2 75.56 0.136 7.87 2.18 8.28
7/7/2021 7:30:00 PM 24.05 75.29 0.136 7.78 2.42 8.13
7/7/2021 7:45:00 PM 23.91 75.038 0.137 7.71 2.3 8.05
7/7/2021 8:00:00 PM 23.79 74.82201 0.137 7.65 2.66 7.95
7/7/2021 8:15:00 PM 23.63 74.534 0.137 7.6 2.5 7.85
7/7/2021 8:30:00 PM 23.42 74.156 0.137 7.57 2.4 7.81
7/7/2021 8:45:00 PM 23.24 73.832 0.137 7.53 2.61 7.73
7/7/2021 9:00:00 PM 23.09 73.562 0.137 7.52 2.28 7.76
7/7/2021 9:15:00 PM 22.96 73.328 0.137 7.5 2.58 7.78
7/7/2021 9:30:00 PM 22.84 73.112 0.137 7.49 2.39 7.78
7/7/2021 9:45:00 PM 22.71 72.878 0.137 7.48 2.67 7.8
7/7/2021 10:00:00 PM 22.58 72.644 0.137 7.47 2.52 7.82
7/7/2021 10:15:00 PM 22.46 72.42799 0.137 7.46 2.3 7.83
7/7/2021 10:30:00 PM 22.36 72.248 0.137 7.45 2.22 7.83
7/7/2021 10:45:00 PM 22.24 72.032 0.137 7.46 2.38 7.88
7/7/2021 11:00:00 PM 22.13 71.834 0.137 7.45 2.41 7.89
7/7/2021 11:15:00 PM 22.03 71.654 0.137 7.45 2.38 7.91
7/7/2021 11:30:00 PM 21.93 71.474 0.138 7.45 2.51 7.93
7/7/2021 11:45:00 PM 21.83 71.294 0.138 7.44 6.34 7.92
7/8/2021 12:00:00 AM 21.74 71.132 0.138 7.44 3.07 7.95
7/8/2021 12:15:00 AM 21.64 70.952 0.138 7.44 3.68 7.97
7/8/2021 12:30:00 AM 21.56 70.808 0.138 7.44 2.88 7.99
7/8/2021 12:45:00 AM 21.49 70.682 0.137 7.42 3.6 7.99
7/8/2021 1:00:00 AM 21.41 70.538 0.138 7.44 3.73 8.02
7/8/2021 1:15:00 AM 21.33 70.394 0.138 7.43 6.81 8.04
7/8/2021 1:30:00 AM 21.25 70.25 0.138 7.43 3.2 8.04
7/8/2021 1:45:00 AM 21.18 70.124 0.138 7.43 3.15 8.05
7/8/2021 2:00:00 AM 21.1 69.98 0.138 7.43 2.79 8.07
7/8/2021 2:15:00 AM 21.03 69.854 0.138 7.43 2.95 8.09
7/8/2021 2:30:00 AM 20.95 69.71 0.138 7.43 2.89 8.1
7/8/2021 2:45:00 AM 20.87 69.566 0.138 7.44 4.25 8.15
7/8/2021 3:00:00 AM 20.8 69.44 0.138 7.43 3.35 8.16
7/8/2021 3:15:00 AM 20.72 69.296 0.139 7.43 4.28 8.17
7/8/2021 3:30:00 AM 20.65 69.17 0.139 7.43 3.11 8.19
7/8/2021 3:45:00 AM 20.57 69.026 0.139 7.43 4.4 8.21
7/8/2021 4:00:00 AM 20.51 68.918 0.139 7.44 2.82 8.25
7/8/2021 4:15:00 AM 20.44 68.792 0.14 7.44 2.68 8.26
7/8/2021 4:30:00 AM 20.38 68.684 0.14 7.44 3.1 8.28
7/8/2021 4:45:00 AM 20.32 68.576 0.141 7.44 2.7 8.3
7/8/2021 5:00:00 AM 20.26 68.468 0.141 7.44 2.93 8.31
7/8/2021 5:15:00 AM 20.2 68.36 0.141 7.45 2.8 8.33
7/8/2021 5:30:00 AM 20.14 68.252 0.139 7.45 2.92 8.34
7/8/2021 5:45:00 AM 20.08 68.144 0.141 7.45 3.22 8.36
7/8/2021 6:00:00 AM 20.02 68.036 0.141 7.46 2.81 8.39
7/8/2021 6:15:00 AM 19.97 67.946 0.142 7.46 2.98 8.41
7/8/2021 6:30:00 AM 19.92 67.856 0.139 7.46 2.86 8.46
7/8/2021 6:45:00 AM 19.88 67.784 0.139 7.47 2.85 8.5
7/8/2021 7:00:00 AM 19.84 67.712 0.142 7.49 2.84 8.55
7/8/2021 7:15:00 AM 19.82 67.676 0.142 7.5 2.76 8.64
7/8/2021 7:30:00 AM 19.79 67.622 0.142 7.52 2.71 8.69
7/8/2021 7:45:00 AM 19.78 67.604 0.142 7.55 2.72 8.83
7/8/2021 8:00:00 AM 19.77 67.586 0.142 7.57 2.84 8.91
7/8/2021 8:15:00 AM 19.76 67.568 0.142 7.6 2.66 8.96
7/8/2021 8:30:00 AM 19.74 67.532 0.142 7.6 2.55 8.96
7/8/2021 8:45:00 AM 19.72 67.496 0.142 7.61 2.35 8.98
7/8/2021 9:00:00 AM 19.72 67.496 0.141 7.63 2.5 9.04
7/8/2021 9:15:00 AM 19.72 67.496 0.141 7.65 2.5 9.11
7/8/2021 9:30:00 AM 19.71 67.478 0.14 7.68 2.36 9.16
7/8/2021 9:45:00 AM 19.72 67.496 0.14 7.7 2.31 9.24
7/8/2021 10:00:00 AM 19.77 67.586 0.139 7.78 2.42 9.44
7/8/2021 10:15:00 AM 19.81 67.658 0.138 7.85 2.47 9.54
7/8/2021 10:30:00 AM 19.87 67.766 0.137 7.93 2.96 9.66
7/8/2021 10:45:00 AM 19.9 67.82 0.137 7.98 2.25 9.67
7/8/2021 11:00:00 AM 19.93 67.874 0.136 8 2.3 9.64
7/8/2021 11:15:00 AM 20 68 0.136 8.04 2.25 9.7
7/8/2021 11:30:00 AM 20.07 68.126 0.136 8.1 2.19 9.77
7/8/2021 11:45:00 AM 20.11 68.198 0.134 8.11 2.26 9.71
7/8/2021 12:00:00 PM 20.17 68.306 0.135 8.14 2.32 9.73
7/8/2021 12:15:00 PM 20.17 68.306 0.135 8.13 2.18 9.69
7/8/2021 12:30:00 PM 20.34 68.612 0.135 8.21 2.15 9.81
7/8/2021 12:45:00 PM 20.4 68.72 0.135 8.28 2.16 9.83
7/8/2021 1:00:00 PM 20.48 68.864 0.135 8.3 2.36 9.8
7/8/2021 1:15:00 PM 20.53 68.954 0.135 8.31 2.33 9.81
7/8/2021 1:30:00 PM 20.56 69.008 0.135 8.34 2.02 9.81
7/8/2021 1:45:00 PM 20.55 68.99 0.136 8.28 2.22 9.62
7/8/2021 2:00:00 PM 20.54 68.972 0.136 8.18 2.09 9.48
7/8/2021 2:15:00 PM 20.58 69.044 0.136 8.17 2.11 9.55
7/8/2021 2:30:00 PM 20.64 69.152 0.136 8.26 2.08 9.71
7/8/2021 2:45:00 PM 20.72 69.296 0.136 8.33 2.14 9.78
7/8/2021 3:00:00 PM 20.78 69.404 0.136 8.36 2.14 9.76
7/8/2021 3:15:00 PM 20.79 69.422 0.137 8.35 2.07 9.69
7/8/2021 3:30:00 PM 20.78 69.404 0.137 8.3 2.32 9.59
7/8/2021 3:45:00 PM 20.77 69.386 0.137 8.23 2.16 9.44
7/8/2021 4:00:00 PM 20.77 69.386 0.137 8.14 2.04 9.32
7/8/2021 4:15:00 PM 20.77 69.386 0.137 8.12 2.18 9.33
7/8/2021 4:30:00 PM 20.8 69.44 0.137 8.15 2.24 9.43
7/8/2021 4:45:00 PM 20.82 69.476 0.137 8.19 2.18 9.49
7/8/2021 5:00:00 PM 20.84 69.512 0.137 8.2 2 9.48
7/8/2021 5:15:00 PM 20.88 69.584 0.137 8.22 2.12 9.51
7/8/2021 5:30:00 PM 20.87 69.566 0.137 8.22 2.02 9.47
7/8/2021 5:45:00 PM 20.87 69.566 0.137 8.15 2.11 9.33
7/8/2021 6:00:00 PM 20.87 69.566 0.137 8.1 2.07 9.29
7/8/2021 6:15:00 PM 20.87 69.566 0.137 8.07 3.45 9.26
7/8/2021 6:30:00 PM 20.85 69.53 0.137 8.02 3.91 9.18
7/8/2021 6:45:00 PM 20.83 69.494 0.137 7.95 2.15 9.05
7/8/2021 7:00:00 PM 20.79 69.422 0.137 7.86 2.07 8.95
7/8/2021 7:15:00 PM 20.75 69.35 0.137 7.79 2.16 8.86
7/8/2021 7:30:00 PM 20.74 69.332 0.137 7.79 2.17 8.93
7/8/2021 7:45:00 PM 20.71 69.278 0.137 7.76 2.19 8.81
7/8/2021 8:00:00 PM 20.67 69.206 0.137 7.7 2.14 8.68
7/8/2021 8:15:00 PM 20.62 69.116 0.138 7.64 2.13 8.54
7/8/2021 8:30:00 PM 20.57 69.026 0.138 7.6 2.15 8.45
7/8/2021 8:45:00 PM 20.53 68.954 0.138 7.57 2.29 8.39
7/8/2021 9:00:00 PM 20.48 68.864 0.138 7.55 2.31 8.34
7/8/2021 9:15:00 PM 20.43 68.774 0.138 7.53 2.27 8.31
7/8/2021 9:30:00 PM 20.38 68.684 0.139 7.51 2.38 8.3
7/8/2021 9:45:00 PM 20.32 68.576 0.139 7.49 2.42 8.3
7/8/2021 10:00:00 PM 20.27 68.486 0.139 7.48 2.46 8.31
7/8/2021 10:15:00 PM 20.22 68.396 0.139 7.47 2.35 8.31
7/8/2021 10:30:00 PM 20.16 68.288 0.139 7.47 2.53 8.32
7/8/2021 10:45:00 PM 20.12 68.216 0.139 7.46 2.37 8.32
7/8/2021 11:00:00 PM 20.07 68.126 0.14 7.46 4.54 8.33
7/8/2021 11:15:00 PM 20.03 68.054 0.14 7.45 3.47 8.34
7/8/2021 11:30:00 PM 19.98 67.964 0.14 7.45 2.88 8.36
7/8/2021 11:45:00 PM 19.92 67.856 0.14 7.45 2.63 8.36
7/9/2021 12:00:00 AM 19.88 67.784 0.14 7.45 4.28 8.35
7/9/2021 12:15:00 AM 19.83 67.694 0.14 7.44 3.8 8.35
7/9/2021 12:30:00 AM 19.77 67.586 0.14 7.44 4.07 8.37
7/9/2021 12:45:00 AM 19.72 67.496 0.14 7.44 7.14 8.38
7/9/2021 1:00:00 AM 19.67 67.406 0.14 7.44 5.87 8.39
7/9/2021 1:15:00 AM 19.61 67.298 0.14 7.45 8.14 8.41
7/9/2021 1:30:00 AM 19.55 67.19 0.14 7.45 6.24 8.42
7/9/2021 1:45:00 AM 19.49 67.082 0.141 7.44 2.56 8.44
7/9/2021 2:00:00 AM 19.43 66.974 0.141 7.44 4.82 8.44
7/9/2021 2:15:00 AM 19.36 66.848 0.141 7.45 4.74 8.46
7/9/2021 2:30:00 AM 19.3 66.74 0.141 7.44 3.58 8.47
7/9/2021 2:45:00 AM 19.25 66.65 0.141 7.44 5.69 8.47
7/9/2021 3:00:00 AM 19.19 66.542 0.141 7.44 3.49 8.48
7/9/2021 3:15:00 AM 19.13 66.434 0.141 7.44 3.53 8.49
7/9/2021 3:30:00 AM 19.07 66.326 0.141 7.44 4.27 8.49
7/9/2021 3:45:00 AM 19.03 66.254 0.141 7.44 2.65 8.51
7/9/2021 4:00:00 AM 18.99 66.182 0.141 7.44 2.27 8.53
7/9/2021 4:15:00 AM 18.95 66.11 0.141 7.44 2.55 8.54
7/9/2021 4:30:00 AM 18.92 66.056 0.141 7.44 2.37 8.55
7/9/2021 4:45:00 AM 18.9 66.02 0.141 7.44 2.43 8.55
7/9/2021 5:00:00 AM 18.88 65.984 0.141 7.44 2.49 8.56
7/9/2021 5:15:00 AM 18.85 65.93 0.141 7.45 2.38 8.57
7/9/2021 5:30:00 AM 18.83 65.894 0.141 7.45 2.42 8.57
7/9/2021 5:45:00 AM 18.8 65.84 0.141 7.45 2.53 8.58
7/9/2021 6:00:00 AM 18.78 65.804 0.141 7.45 2.51 8.59
7/9/2021 6:15:00 AM 18.75 65.75 0.141 7.45 2.59 8.6
7/9/2021 6:30:00 AM 18.73 65.714 0.141 7.45 2.55 8.63
7/9/2021 6:45:00 AM 18.71 65.67799 0.141 7.46 2.73 8.68
7/9/2021 7:00:00 AM 18.7 65.66 0.141 7.48 2.77 8.77
7/9/2021 7:15:00 AM 18.69 65.642 0.141 7.5 2.64 8.87
7/9/2021 7:30:00 AM 18.68 65.624 0.141 7.51 2.55 8.88
7/9/2021 7:45:00 AM 18.68 65.624 0.14 7.53 2.69 8.97
7/9/2021 8:00:00 AM 18.69 65.642 0.14 7.57 2.51 9.13
7/9/2021 8:15:00 AM 18.72 65.696 0.14 7.61 2.42 9.29
7/9/2021 8:30:00 AM 18.77 65.786 0.14 7.67 2.38 9.44
7/9/2021 8:45:00 AM 18.83 65.894 0.139 7.74 2.46 9.58
7/9/2021 9:00:00 AM 18.95 66.11 0.139 7.83 2.47 9.74
7/9/2021 9:15:00 AM 19.06 66.308 0.139 7.91 2.35 9.84
7/9/2021 9:30:00 AM 19.24 66.632 0.139 8 2.35 9.92
7/9/2021 9:45:00 AM 19.35 66.83 0.139 8.07 2.32 9.97
7/9/2021 10:00:00 AM 19.42 66.956 0.139 8.13 2.37 9.98
7/9/2021 10:15:00 AM 19.47 67.046 0.138 8.16 2.31 9.97
7/9/2021 10:30:00 AM 19.56 67.208 0.138 8.21 2.31 9.97
7/9/2021 10:45:00 AM 19.66 67.388 0.138 8.24 2.33 9.93
7/9/2021 11:00:00 AM 19.91 67.838 0.138 8.29 2.17 9.95
7/9/2021 11:15:00 AM 20.03 68.054 0.138 8.33 2.09 9.95
7/9/2021 11:30:00 AM 20.12 68.216 0.138 8.36 2.19 9.95
7/9/2021 11:45:00 AM 20.22 68.396 0.138 8.39 2.33 9.96
7/9/2021 12:00:00 PM 20.39 68.702 0.138 8.45 2.19 9.99
7/9/2021 12:15:00 PM 20.43 68.774 0.138 8.41 2.2 9.8
7/9/2021 12:30:00 PM 20.58 69.044 0.137 8.43 2.14 9.86
7/9/2021 12:45:00 PM 20.7 69.26 0.137 8.47 2.13 9.88
7/9/2021 1:00:00 PM 20.76 69.368 0.137 8.45 2.09 9.8
7/9/2021 1:15:00 PM 20.95 69.71 0.137 8.48 2.09 9.82
7/9/2021 1:30:00 PM 21.22 70.196 0.137 8.54 2.13 9.89
7/9/2021 1:45:00 PM 21.4 70.52 0.137 8.57 2.26 9.89
7/9/2021 2:00:00 PM 21.6 70.88 0.137 8.55 2.34 9.75
7/9/2021 2:15:00 PM 21.79 71.222 0.137 8.55 2.25 9.67
7/9/2021 2:30:00 PM 22.08 71.744 0.137 8.56 2.27 9.68
7/9/2021 2:45:00 PM 22.22 71.996 0.137 8.55 2.29 9.55
7/9/2021 3:00:00 PM 22.47 72.446 0.137 8.54 2.15 9.43
7/9/2021 3:15:00 PM 22.49 72.482 0.137 8.47 12.57 9.25
7/9/2021 3:30:00 PM 22.51 72.518 0.138 8.38 2.24 9.1
7/9/2021 3:45:00 PM 22.49 72.482 0.137 8.35 2.54 9.14
7/9/2021 4:00:00 PM 22.46 72.42799 0.137 8.32 1.95 9.17
7/9/2021 4:15:00 PM 22.63 72.734 0.137 8.4 2.16 9.37
7/9/2021 4:30:00 PM 22.79 73.022 0.137 8.46 9.98 9.37
7/9/2021 4:45:00 PM 22.94 73.292 0.137 8.47 13.17 9.32
7/9/2021 5:00:00 PM 23.01 73.418 0.137 8.46 3.31 9.27
7/9/2021 5:15:00 PM 23.02 73.436 0.137 8.45 2.51 9.24
7/9/2021 5:30:00 PM 22.93 73.274 0.137 8.39 2.03 9.13
7/9/2021 5:45:00 PM 22.77 72.986 0.137 8.29 2.05 8.94
7/9/2021 6:00:00 PM 22.7 72.86 0.138 8.15 2.56 8.85
7/9/2021 6:15:00 PM 22.66 72.788 0.138 8.12 2 8.85
7/9/2021 6:30:00 PM 22.64 72.752 0.137 8.11 2.45 8.89
7/9/2021 6:45:00 PM 22.58 72.644 0.137 8.04 2.13 8.78
7/9/2021 7:00:00 PM 22.47 72.446 0.138 7.96 1.97 8.65
7/9/2021 7:15:00 PM 22.34 72.212 0.138 7.92 2.26 8.67
7/9/2021 7:30:00 PM 22.2 71.96 0.138 7.86 8.49 8.63
7/9/2021 7:45:00 PM 22.09 71.762 0.137 7.78 2.18 8.5
7/9/2021 8:00:00 PM 21.87 71.366 0.13 7.69 5.91 8.43
7/9/2021 8:15:00 PM 21.68 71.024 0.131 7.59 24.9 8.39
7/9/2021 8:30:00 PM 21.63 70.934 0.138 7.58 20.75 8.37
7/9/2021 8:45:00 PM 21.56 70.808 0.141 7.55 17.36 8.31
7/9/2021 9:00:00 PM 21.43 70.574 0.143 7.54 17.27 8.29
7/9/2021 9:15:00 PM 21.22 70.196 0.144 7.53 15.09 8.29
7/9/2021 9:30:00 PM 21.01 69.818 0.144 7.51 13.7 8.31
7/9/2021 9:45:00 PM 20.82 69.476 0.141 7.5 13.49 8.34
7/9/2021 10:00:00 PM 20.65 69.17 0.136 7.48 15 8.36
7/9/2021 10:15:00 PM 20.49 68.882 0.128 7.45 16.92 8.36
7/9/2021 10:30:00 PM 20.36 68.648 0.121 7.43 20.05 8.38
7/9/2021 10:45:00 PM 20.23 68.414 0.116 7.41 21.36 8.4
7/9/2021 11:00:00 PM 20.13 68.234 0.111 7.39 24.54 8.42
7/9/2021 11:15:00 PM 20.03 68.054 0.108 7.37 24.9 8.43
7/9/2021 11:30:00 PM 19.92 67.856 0.105 7.36 26.17 8.43
7/9/2021 11:45:00 PM 19.82 67.676 0.104 7.36 26.81 8.44
7/10/2021 12:00:00 AM 19.73 67.514 0.103 7.35 29.43 8.48
7/10/2021 12:15:00 AM 19.6 67.28 0.103 7.34 56.22 8.55
7/10/2021 12:30:00 AM 19.45 67.01 0.107 7.34 75.45 8.6
7/10/2021 12:45:00 AM 19.31 66.758 0.113 7.35 79.53 8.66
7/10/2021 1:00:00 AM 19.16 66.488 0.114 7.37 80.04 8.69
7/10/2021 1:15:00 AM 19.02 66.236 0.108 7.36 86.7 8.72
7/10/2021 1:30:00 AM 18.93 66.074 0.101 7.34 96.86 8.72
7/10/2021 1:45:00 AM 18.87 65.966 0.097 7.33 100.96 8.72
7/10/2021 2:00:00 AM 18.82 65.876 0.096 7.32 103.64 8.72
7/10/2021 2:15:00 AM 18.77 65.786 0.096 7.32 104.37 8.73
7/10/2021 2:30:00 AM 18.72 65.696 0.096 7.32 101.19 8.74
7/10/2021 2:45:00 AM 18.67 65.606 0.096 7.32 94.76 8.73
7/10/2021 3:00:00 AM 18.62 65.516 0.096 7.32 89.77 8.74
7/10/2021 3:15:00 AM 18.57 65.426 0.097 7.32 80.32 8.74
7/10/2021 3:30:00 AM 18.53 65.354 0.097 7.33 73.58 8.74
7/10/2021 3:45:00 AM 18.5 65.3 0.098 7.33 67.69 8.74
7/10/2021 4:00:00 AM 18.45 65.21 0.099 7.34 59.7 8.75
7/10/2021 4:15:00 AM 18.41 65.138 0.1 7.34 55.05 8.76
7/10/2021 4:30:00 AM 18.36 65.048 0.101 7.34 50.06 8.77
7/10/2021 4:45:00 AM 18.31 64.958 0.101 7.35 45.32 8.78
7/10/2021 5:00:00 AM 18.27 64.886 0.102 7.35 43.65 8.79
7/10/2021 5:15:00 AM 18.23 64.814 0.103 7.35 38.75 8.8
7/10/2021 5:30:00 AM 18.19 64.742 0.104 7.36 35.55 8.81
7/10/2021 5:45:00 AM 18.15 64.67 0.105 7.36 33.32 8.82
7/10/2021 6:00:00 AM 18.1 64.58 0.106 7.37 30.41 8.83
7/10/2021 6:15:00 AM 18.06 64.508 0.107 7.37 29.2 8.84
7/10/2021 6:30:00 AM 18.03 64.454 0.108 7.38 25.82 8.88
7/10/2021 6:45:00 AM 17.98 64.364 0.108 7.39 23.61 8.9
7/10/2021 7:00:00 AM 17.95 64.31 0.109 7.4 21.82 8.94
7/10/2021 7:15:00 AM 17.92 64.256 0.11 7.41 20.48 8.98
7/10/2021 7:30:00 AM 17.88 64.184 0.111 7.42 18.4 9
7/10/2021 7:45:00 AM 17.88 64.184 0.111 7.44 16.93 9.07
7/10/2021 8:00:00 AM 17.87 64.166 0.112 7.46 15.78 9.12
7/10/2021 8:15:00 AM 17.89 64.202 0.113 7.48 13.79 9.2
7/10/2021 8:30:00 AM 17.94 64.292 0.113 7.51 12.69 9.29
7/10/2021 8:45:00 AM 18 64.4 0.114 7.55 12.58 9.4
7/10/2021 9:00:00 AM 18.09 64.562 0.114 7.59 11.82 9.48
7/10/2021 9:15:00 AM 18.13 64.634 0.115 7.61 10.62 9.5
7/10/2021 9:30:00 AM 18.14 64.652 0.115 7.62 9.91 9.47
7/10/2021 9:45:00 AM 18.23 64.814 0.116 7.65 9.42 9.55
7/10/2021 10:00:00 AM 18.29 64.922 0.116 7.65 8.49 9.47
7/10/2021 10:15:00 AM 18.36 65.048 0.117 7.66 8.23 9.5
7/10/2021 10:30:00 AM 18.38 65.084 0.117 7.67 7.74 9.48
7/10/2021 10:45:00 AM 18.42 65.156 0.118 7.68 7.08 9.47
7/10/2021 11:00:00 AM 18.56 65.408 0.118 7.72 6.68 9.6
7/10/2021 11:15:00 AM 18.85 65.93 0.118 7.8 6.03 9.72
7/10/2021 11:30:00 AM 18.84 65.912 0.119 7.8 5.58 9.63
7/10/2021 11:45:00 AM 18.93 66.074 0.119 7.83 5.46 9.66
7/10/2021 12:00:00 PM 19.21 66.578 0.12 7.9 5.2 9.75
7/10/2021 12:15:00 PM 19.37 66.866 0.12 7.93 4.98 9.78
7/10/2021 12:30:00 PM 19.55 67.19 0.12 7.96 4.86 9.78
7/10/2021 12:45:00 PM 19.68 67.424 0.121 8.01 4.85 9.8
7/10/2021 1:00:00 PM 19.81 67.658 0.121 8.06 4.58 9.78
7/10/2021 1:15:00 PM 19.99 67.982 0.121 8.09 4.65 9.8
7/10/2021 1:30:00 PM 20.16 68.288 0.121 8.1 4.41 9.74
7/10/2021 1:45:00 PM 20.31 68.558 0.122 8.11 4.28 9.71
7/10/2021 2:00:00 PM 20.39 68.702 0.122 8.11 4.4 9.66
7/10/2021 2:15:00 PM 20.7 69.26 0.122 8.14 4.26 9.67
7/10/2021 2:30:00 PM 20.81 69.458 0.123 8.12 4.32 9.6
7/10/2021 2:45:00 PM 20.86 69.548 0.123 8.13 4.07 9.57
7/10/2021 3:00:00 PM 20.87 69.566 0.123 8.13 4.15 9.56
7/10/2021 3:15:00 PM 21.07 69.926 0.124 8.14 4.39 9.52
7/10/2021 3:30:00 PM 21.23 70.214 0.124 8.16 3.96 9.55
7/10/2021 3:45:00 PM 21.38 70.484 0.124 8.18 3.72 9.48
7/10/2021 4:00:00 PM 21.22 70.196 0.124 8.02 3.83 9.16
7/10/2021 4:15:00 PM 21.18 70.124 0.125 7.98 4.08 9.18
7/10/2021 4:30:00 PM 21.16 70.088 0.125 7.96 3.81 9.17
7/10/2021 4:45:00 PM 21.1 69.98 0.125 7.91 3.78 9.11
7/10/2021 5:00:00 PM 21.02 69.836 0.125 7.9 3.8 9.12
7/10/2021 5:15:00 PM 21.04 69.872 0.125 7.95 3.64 9.26
7/10/2021 5:30:00 PM 21.02 69.836 0.126 7.95 3.54 9.2
7/10/2021 5:45:00 PM 20.84 69.512 0.126 7.86 3.63 9.04
7/10/2021 6:00:00 PM 20.73 69.314 0.126 7.78 3.65 8.91
7/10/2021 6:15:00 PM 20.69 69.242 0.126 7.72 3.62 8.83
7/10/2021 6:30:00 PM 20.6 69.08 0.127 7.69 3.59 8.78
7/10/2021 6:45:00 PM 20.52 68.936 0.127 7.66 3.63 8.74
7/10/2021 7:00:00 PM 20.47 68.846 0.127 7.64 3.61 8.74
7/10/2021 7:15:00 PM 20.45 68.81 0.127 7.64 6.06 8.78
7/10/2021 7:30:00 PM 20.41 68.738 0.127 7.63 3.47 8.79
7/10/2021 7:45:00 PM 20.36 68.648 0.127 7.62 3.49 8.77
7/10/2021 8:00:00 PM 20.3 68.54 0.127 7.61 3.32 8.72
7/10/2021 8:15:00 PM 20.23 68.414 0.128 7.58 3.35 8.67
7/10/2021 8:30:00 PM 20.17 68.306 0.128 7.56 3.37 8.62
7/10/2021 8:45:00 PM 20.09 68.162 0.128 7.54 3.39 8.56
7/10/2021 9:00:00 PM 20.01 68.018 0.128 7.52 3.5 8.52
7/10/2021 9:15:00 PM 19.92 67.856 0.128 7.51 3.56 8.49
7/10/2021 9:30:00 PM 19.83 67.694 0.129 7.49 3.58 8.48
7/10/2021 9:45:00 PM 19.75 67.55 0.129 7.49 3.49 8.48
7/10/2021 10:00:00 PM 19.66 67.388 0.129 7.48 3.65 8.48
7/10/2021 10:15:00 PM 19.58 67.244 0.129 7.48 3.64 8.51
7/10/2021 10:30:00 PM 19.5 67.1 0.129 7.47 3.43 8.52
7/10/2021 10:45:00 PM 19.41 66.938 0.129 7.47 3.56 8.54
7/10/2021 11:00:00 PM 19.33 66.794 0.129 7.47 3.58 8.55
7/10/2021 11:15:00 PM 19.24 66.632 0.13 7.46 3.63 8.56
7/10/2021 11:30:00 PM 19.16 66.488 0.13 7.46 3.49 8.57
7/10/2021 11:45:00 PM 19.07 66.326 0.13 7.46 6.58 8.59
7/11/2021 12:00:00 AM 18.99 66.182 0.13 7.46 3.36 8.61
7/11/2021 12:15:00 AM 18.92 66.056 0.13 7.46 8.13 8.63
7/11/2021 12:30:00 AM 18.85 65.93 0.13 7.45 3.36 8.65
7/11/2021 12:45:00 AM 18.77 65.786 0.13 7.46 3.58 8.67
7/11/2021 1:00:00 AM 18.68 65.624 0.13 7.46 4.79 8.68
7/11/2021 1:15:00 AM 18.61 65.498 0.131 7.45 3.68 8.69
7/11/2021 1:30:00 AM 18.52 65.336 0.131 7.45 3.54 8.71
7/11/2021 1:45:00 AM 18.44 65.192 0.131 7.45 3.48 8.72
7/11/2021 2:00:00 AM 18.35 65.03 0.131 7.45 3.53 8.74
7/11/2021 2:15:00 AM 18.28 64.904 0.131 7.45 3.51 8.76
7/11/2021 2:30:00 AM 18.19 64.742 0.131 7.45 3.51 8.78
7/11/2021 2:45:00 AM 18.09 64.562 0.131 7.45 3.45 8.8
7/11/2021 3:00:00 AM 18.02 64.436 0.132 7.45 3.57 8.82
7/11/2021 3:15:00 AM 17.94 64.292 0.132 7.45 3.4 8.85
7/11/2021 3:30:00 AM 17.86 64.148 0.132 7.45 3.43 8.85
7/11/2021 3:45:00 AM 17.78 64.004 0.132 7.45 3.46 8.87
7/11/2021 4:00:00 AM 17.71 63.878 0.132 7.45 3.28 8.88
7/11/2021 4:15:00 AM 17.65 63.77 0.132 7.45 3.38 8.9
7/11/2021 4:30:00 AM 17.58 63.644 0.132 7.45 3.37 8.92
7/11/2021 4:45:00 AM 17.52 63.536 0.132 7.45 3.32 8.94
7/11/2021 5:00:00 AM 17.46 63.428 0.132 7.45 3.33 8.95
7/11/2021 5:15:00 AM 17.39 63.302 0.132 7.45 3.85 8.97
7/11/2021 5:30:00 AM 17.33 63.194 0.132 7.45 3.09 8.98
7/11/2021 5:45:00 AM 17.27 63.086 0.132 7.45 3.35 9
7/11/2021 6:00:00 AM 17.22 62.996 0.132 7.45 3.65 9.02
7/11/2021 6:15:00 AM 17.17 62.906 0.132 7.45 3.34 9.05
7/11/2021 6:30:00 AM 17.13 62.834 0.132 7.45 3.41 9.08
7/11/2021 6:45:00 AM 17.1 62.78 0.132 7.47 3.32 9.14
7/11/2021 7:00:00 AM 17.07 62.726 0.132 7.48 3.26 9.17
7/11/2021 7:15:00 AM 17.04 62.672 0.132 7.48 3.22 9.2
7/11/2021 7:30:00 AM 17.03 62.654 0.132 7.49 3.18 9.23
7/11/2021 7:45:00 AM 17.01 62.618 0.132 7.5 4.51 9.26
7/11/2021 8:00:00 AM 17.01 62.618 0.132 7.51 4.21 9.35
7/11/2021 8:15:00 AM 17.01 62.618 0.132 7.53 4.49 9.42
7/11/2021 8:30:00 AM 17 62.6 0.132 7.54 3.08 9.4
7/11/2021 8:45:00 AM 17 62.6 0.132 7.54 2.92 9.41
7/11/2021 9:00:00 AM 16.99 62.582 0.132 7.54 2.8 9.41
7/11/2021 9:15:00 AM 17 62.6 0.132 7.55 2.76 9.48
7/11/2021 9:30:00 AM 17.01 62.618 0.132 7.56 2.73 9.5
7/11/2021 9:45:00 AM 17.04 62.672 0.132 7.58 8.47 9.58
7/11/2021 10:00:00 AM 17.06 62.708 0.131 7.6 2.8 9.65
7/11/2021 10:15:00 AM 17.11 62.798 0.131 7.64 2.77 9.78
7/11/2021 10:30:00 AM 17.14 62.852 0.131 7.65 2.7 9.76
7/11/2021 10:45:00 AM 17.22 62.996 0.131 7.71 2.63 9.91
7/11/2021 11:00:00 AM 17.27 63.086 0.131 7.75 2.66 9.93
7/11/2021 11:15:00 AM 17.34 63.212 0.131 7.79 2.44 9.96
7/11/2021 11:30:00 AM 17.41 63.338 0.131 7.84 2.51 10.03
7/11/2021 11:45:00 AM 17.48 63.464 0.13 7.88 2.41 10.06
7/11/2021 12:00:00 PM 17.57 63.626 0.13 7.94 2.55 10.11
7/11/2021 12:15:00 PM 17.66 63.788 0.13 7.99 2.43 10.16
7/11/2021 12:30:00 PM 17.72 63.896 0.13 8 2.42 10.11
7/11/2021 12:45:00 PM 17.79 64.022 0.13 8.03 2.48 10.12
7/11/2021 1:00:00 PM 17.83 64.094 0.13 8 2.56 10.02
7/11/2021 1:15:00 PM 17.86 64.148 0.13 7.96 3.44 9.93
7/11/2021 1:30:00 PM 17.89 64.202 0.13 7.93 2.87 9.86
7/11/2021 1:45:00 PM 17.9 64.22 0.13 7.89 2.53 9.76
7/11/2021 2:00:00 PM 17.91 64.238 0.13 7.84 2.56 9.67
7/11/2021 2:15:00 PM 17.92 64.256 0.13 7.81 2.5 9.65
7/11/2021 2:30:00 PM 17.95 64.31 0.13 7.83 2.59 9.69
7/11/2021 2:45:00 PM 17.96 64.328 0.13 7.81 2.6 9.63
7/11/2021 3:00:00 PM 17.98 64.364 0.13 7.8 2.54 9.6
7/11/2021 3:15:00 PM 17.98 64.364 0.13 7.77 2.59 9.55
7/11/2021 3:30:00 PM 18.02 64.436 0.13 7.79 2.53 9.63
7/11/2021 3:45:00 PM 18.07 64.526 0.13 7.84 2.47 9.71
7/11/2021 4:00:00 PM 18.12 64.616 0.13 7.87 2.55 9.75
7/11/2021 4:15:00 PM 18.15 64.67 0.13 7.9 2.57 9.78
7/11/2021 4:30:00 PM 18.17 64.706 0.13 7.89 2.52 9.73
7/11/2021 4:45:00 PM 18.18 64.724 0.13 7.86 2.52 9.65
7/11/2021 5:00:00 PM 18.2 64.76 0.13 7.85 2.53 9.63
7/11/2021 5:15:00 PM 18.21 64.778 0.13 7.81 2.41 9.53
7/11/2021 5:30:00 PM 18.23 64.814 0.13 7.81 2.64 9.56
7/11/2021 5:45:00 PM 18.24 64.832 0.13 7.82 2.63 9.59
7/11/2021 6:00:00 PM 18.25 64.85 0.13 7.79 2.66 9.49
7/11/2021 6:15:00 PM 18.24 64.832 0.13 7.73 2.57 9.35
7/11/2021 6:30:00 PM 18.22 64.796 0.13 7.66 2.65 9.19
7/11/2021 6:45:00 PM 18.22 64.796 0.129 7.61 2.68 9.09
7/11/2021 7:00:00 PM 18.2 64.76 0.129 7.57 2.74 9.02
7/11/2021 7:15:00 PM 18.17 64.706 0.129 7.55 2.74 8.96
7/11/2021 7:30:00 PM 18.15 64.67 0.129 7.53 2.93 8.93
7/11/2021 7:45:00 PM 18.15 64.67 0.128 7.51 3.1 8.9
7/11/2021 8:00:00 PM 18.15 64.67 0.127 7.5 3.72 8.88
7/11/2021 8:15:00 PM 18.16 64.688 0.124 7.49 5.24 8.89
7/11/2021 8:30:00 PM 18.2 64.76 0.118 7.46 12.03 8.89
7/11/2021 8:45:00 PM 18.19 64.742 0.114 7.42 20.13 8.85
7/11/2021 9:00:00 PM 18.15 64.67 0.113 7.39 19.07 8.83
7/11/2021 9:15:00 PM 18.09 64.562 0.115 7.38 13.48 8.84
7/11/2021 9:30:00 PM 18.06 64.508 0.116 7.37 12.44 8.83
7/11/2021 9:45:00 PM 18.05 64.49 0.116 7.36 15.72 8.82
7/11/2021 10:00:00 PM 18.04 64.472 0.114 7.34 14.12 8.82
7/11/2021 10:15:00 PM 18.01 64.418 0.113 7.31 13.73 8.83
7/11/2021 10:30:00 PM 17.98 64.364 0.111 7.3 15.89 8.86
7/11/2021 10:45:00 PM 17.92 64.256 0.102 7.24 23.4 8.85
7/11/2021 11:00:00 PM 17.85 64.13 0.095 7.2 27.28 8.87
7/11/2021 11:15:00 PM 17.78 64.004 0.092 7.19 27.69 8.88
7/11/2021 11:30:00 PM 17.71 63.878 0.091 7.18 34.29 8.9
7/11/2021 11:45:00 PM 17.65 63.77 0.092 7.18 41.54 8.94
7/12/2021 12:00:00 AM 17.59 63.662 0.098 7.19 49.29 9
7/12/2021 12:15:00 AM 17.52 63.536 0.109 7.25 50.38 9.03
7/12/2021 12:30:00 AM 17.42 63.356 0.114 7.15 58.21 9.09
7/12/2021 12:45:00 AM 17.34 63.212 0.115 7.17 73.12 9.13
7/12/2021 1:00:00 AM 17.27 63.086 0.114 7.22 70.96 9.14
7/12/2021 1:15:00 AM 17.24 63.032 0.11 7.31 67.96 9.15
7/12/2021 1:30:00 AM 17.23 63.014 0.108 7.32 67.66 9.14
7/12/2021 1:45:00 AM 17.24 63.032 0.107 7.31 63.01 9.14
7/12/2021 2:00:00 AM 17.25 63.05 0.106 7.3 55.66 9.13
7/12/2021 2:15:00 AM 17.25 63.05 0.105 7.29 50.05 9.11
7/12/2021 2:30:00 AM 17.26 63.068 0.104 7.29 47.56 9.11
7/12/2021 2:45:00 AM 17.26 63.068 0.104 7.28 41.78 9.1
7/12/2021 3:00:00 AM 17.26 63.068 0.104 7.28 39.14 9.11
7/12/2021 3:15:00 AM 17.25 63.05 0.104 7.28 36.05 9.1
7/12/2021 3:30:00 AM 17.25 63.05 0.105 7.28 33.02 9.1
7/12/2021 3:45:00 AM 17.24 63.032 0.106 7.28 29.15 9.09
7/12/2021 4:00:00 AM 17.23 63.014 0.106 7.27 27.36 9.09
7/12/2021 4:15:00 AM 17.22 62.996 0.107 7.27 25.44 9.1
7/12/2021 4:30:00 AM 17.2 62.96 0.108 7.27 23.72 9.1
7/12/2021 4:45:00 AM 17.2 62.96 0.109 7.27 22.73 9.1
7/12/2021 5:00:00 AM 17.19 62.942 0.109 7.28 18.53 9.1
7/12/2021 5:15:00 AM 17.17 62.906 0.11 7.29 20.05 9.1
7/12/2021 5:30:00 AM 17.15 62.87 0.111 7.29 18.74 9.1
7/12/2021 5:45:00 AM 17.13 62.834 0.112 7.29 18.05 9.1
7/12/2021 6:00:00 AM 17.11 62.798 0.113 7.29 16.9 9.11
7/12/2021 6:15:00 AM 17.1 62.78 0.114 7.29 16.06 9.11
7/12/2021 6:30:00 AM 17.09 62.762 0.114 7.29 15.11 9.13
7/12/2021 6:45:00 AM 17.07 62.726 0.115 7.3 14.13 9.14
7/12/2021 7:00:00 AM 17.06 62.708 0.116 7.3 13.5 9.15
7/12/2021 7:15:00 AM 17.06 62.708 0.117 7.31 12.34 9.2
7/12/2021 7:30:00 AM 17.06 62.708 0.118 7.32 11.94 9.24
7/12/2021 7:45:00 AM 17.07 62.726 0.118 7.33 11.23 9.26
7/12/2021 8:00:00 AM 17.08 62.744 0.119 7.33 10.93 9.27
7/12/2021 8:15:00 AM 17.08 62.744 0.12 7.34 10.18 9.28
7/12/2021 8:30:00 AM 17.1 62.78 0.121 7.34 9.29 9.34
7/12/2021 8:45:00 AM 17.15 62.87 0.122 7.37 9.35 9.46
7/12/2021 9:00:00 AM 17.19 62.942 0.122 7.4 9.03 9.52
7/12/2021 9:15:00 AM 17.24 63.032 0.123 7.43 8.34 9.55
7/12/2021 9:30:00 AM 17.28 63.104 0.124 7.44 7.94 9.56
7/12/2021 9:45:00 AM 17.29 63.122 0.125 7.44 7.48 9.51
7/12/2021 10:00:00 AM 17.34 63.212 0.125 7.45 7.01 9.54
7/12/2021 10:15:00 AM 17.42 63.356 0.126 7.49 6.84 9.65
7/12/2021 10:30:00 AM 17.5 63.5 0.126 7.53 6.74 9.7
7/12/2021 10:45:00 AM 17.57 63.626 0.126 7.54 6.24 9.68
7/12/2021 11:00:00 AM 17.71 63.878 0.126 7.56 6.4 9.7
7/12/2021 11:15:00 AM 17.81 64.058 0.127 7.59 5.97 9.72
7/12/2021 11:30:00 AM 17.91 64.238 0.127 7.6 7.52 9.73
7/12/2021 11:45:00 AM 18.14 64.652 0.126 7.64 8.84 9.79
7/12/2021 12:00:00 PM 18.27 64.886 0.126 7.66 8.04 9.78
7/12/2021 12:15:00 PM 18.45 65.21 0.126 7.7 6.96 9.79
7/12/2021 12:30:00 PM 18.64 65.552 0.126 7.73 6.56 9.82
7/12/2021 12:45:00 PM 18.83 65.894 0.126 7.76 5.24 9.82
7/12/2021 1:00:00 PM 19 66.2 0.126 7.77 4.86 9.77
7/12/2021 1:15:00 PM 19.22 66.596 0.126 7.79 4.74 9.73
7/12/2021 1:30:00 PM 19.38 66.884 0.126 7.8 4.73 9.7
7/12/2021 1:45:00 PM 19.57 67.226 0.125 7.83 4.55 9.71
7/12/2021 2:00:00 PM 19.67 67.406 0.125 7.84 4.52 9.7
7/12/2021 2:15:00 PM 19.79 67.622 0.125 7.84 4.4 9.66
7/12/2021 2:30:00 PM 19.87 67.766 0.125 7.84 4.38 9.59
7/12/2021 2:45:00 PM 19.99 67.982 0.125 7.84 4.06 9.6
7/12/2021 3:00:00 PM 20.16 68.288 0.125 7.85 4.39 9.58
7/12/2021 3:15:00 PM 20.24 68.432 0.125 7.84 4.12 9.52
7/12/2021 3:30:00 PM 20.49 68.882 0.125 7.89 4.04 9.55
7/12/2021 3:45:00 PM 20.71 69.278 0.125 7.9 4.07 9.51
7/12/2021 4:00:00 PM 20.87 69.566 0.123 7.9 4.02 9.48
7/12/2021 4:15:00 PM 20.97 69.746 0.124 7.88 3.88 9.42
7/12/2021 4:30:00 PM 21.11 69.998 0.124 7.88 3.72 9.39
7/12/2021 4:45:00 PM 21.13 70.034 0.124 7.86 3.8 9.34
7/12/2021 5:00:00 PM 21.17 70.106 0.124 7.86 3.8 9.32
7/12/2021 5:15:00 PM 21.15 70.07 0.124 7.8 3.89 9.17
7/12/2021 5:30:00 PM 21.06 69.908 0.124 7.7 3.81 8.96
7/12/2021 5:45:00 PM 21.04 69.872 0.124 7.69 3.86 9.01
7/12/2021 6:00:00 PM 20.97 69.746 0.124 7.69 3.83 9.02
7/12/2021 6:15:00 PM 20.87 69.566 0.124 7.65 3.75 8.97
7/12/2021 6:30:00 PM 20.81 69.458 0.124 7.63 3.85 8.97
7/12/2021 6:45:00 PM 20.77 69.386 0.124 7.62 4.01 8.94
7/12/2021 7:00:00 PM 20.69 69.242 0.124 7.59 4 8.91
7/12/2021 7:15:00 PM 20.62 69.116 0.124 7.56 4.01 8.83
7/12/2021 7:30:00 PM 20.57 69.026 0.125 7.51 3.98 8.69
7/12/2021 7:45:00 PM 20.54 68.972 0.125 7.48 3.9 8.65
7/12/2021 8:00:00 PM 20.51 68.918 0.125 7.47 3.9 8.62
7/12/2021 8:15:00 PM 20.46 68.828 0.125 7.46 4.03 8.59
7/12/2021 8:30:00 PM 20.4 68.72 0.125 7.44 3.91 8.56
7/12/2021 8:45:00 PM 20.33 68.594 0.125 7.42 4.05 8.53
7/12/2021 9:00:00 PM 20.25 68.45 0.125 7.4 3.91 8.5
7/12/2021 9:15:00 PM 20.19 68.342 0.125 7.38 4.39 8.49
7/12/2021 9:30:00 PM 20.13 68.234 0.125 7.36 4.24 8.48
7/12/2021 9:45:00 PM 20.06 68.108 0.125 7.35 4.15 8.48
7/12/2021 10:00:00 PM 20 68 0.125 7.34 4.17 8.49
7/12/2021 10:15:00 PM 19.93 67.874 0.126 7.34 4.18 8.49
7/12/2021 10:30:00 PM 19.85 67.73 0.126 7.33 4.06 8.49
7/12/2021 10:45:00 PM 19.78 67.604 0.126 7.32 3.92 8.5
7/12/2021 11:00:00 PM 19.7 67.46 0.126 7.31 4 8.52
7/12/2021 11:15:00 PM 19.62 67.316 0.126 7.3 4.05 8.53
7/12/2021 11:30:00 PM 19.55 67.19 0.126 7.3 3.94 8.54
7/12/2021 11:45:00 PM 19.48 67.064 0.126 7.3 3.99 8.56
7/13/2021 12:00:00 AM 19.42 66.956 0.126 7.3 3.87 8.58
7/13/2021 12:15:00 AM 19.35 66.83 0.126 7.3 4.01 8.59
7/13/2021 12:30:00 AM 19.28 66.704 0.126 7.3 4.15 8.6
7/13/2021 12:45:00 AM 19.22 66.596 0.126 7.3 4.17 8.61
7/13/2021 1:00:00 AM 19.15 66.47 0.126 7.3 4.09 8.62
7/13/2021 1:15:00 AM 19.08 66.344 0.126 7.29 3.83 8.63
7/13/2021 1:30:00 AM 19.02 66.236 0.126 7.29 4.03 8.66
7/13/2021 1:45:00 AM 18.96 66.128 0.127 7.29 4.04 8.68
7/13/2021 2:00:00 AM 18.9 66.02 0.127 7.29 4.51 8.71
7/13/2021 2:15:00 AM 18.85 65.93 0.128 7.3 5.35 8.74
7/13/2021 2:30:00 AM 18.78 65.804 0.128 7.31 5.62 8.75
7/13/2021 2:45:00 AM 18.72 65.696 0.129 7.31 6.1 8.77
7/13/2021 3:00:00 AM 18.65 65.57 0.129 7.31 5.91 8.79
7/13/2021 3:15:00 AM 18.57 65.426 0.129 7.31 6.37 8.81
7/13/2021 3:30:00 AM 18.5 65.3 0.129 7.32 6.39 8.82
7/13/2021 3:45:00 AM 18.42 65.156 0.129 7.32 6.25 8.83
7/13/2021 4:00:00 AM 18.36 65.048 0.129 7.32 6.13 8.85
7/13/2021 4:15:00 AM 18.31 64.958 0.128 7.32 6.27 8.86
7/13/2021 4:30:00 AM 18.27 64.886 0.128 7.32 5.89 8.87
7/13/2021 4:45:00 AM 18.24 64.832 0.127 7.31 5.99 8.87
7/13/2021 5:00:00 AM 18.21 64.778 0.126 7.31 5.69 8.88
7/13/2021 5:15:00 AM 18.18 64.724 0.125 7.3 5.95 8.88
7/13/2021 5:30:00 AM 18.15 64.67 0.123 7.29 6.18 8.89
7/13/2021 5:45:00 AM 18.11 64.598 0.121 7.28 6.23 8.9
7/13/2021 6:00:00 AM 18.08 64.544 0.12 7.27 6.62 8.91
7/13/2021 6:15:00 AM 18.05 64.49 0.12 7.27 6.69 8.91
7/13/2021 6:30:00 AM 18.03 64.454 0.12 7.27 6.59 8.95
7/13/2021 6:45:00 AM 18.03 64.454 0.12 7.28 6.56 9
7/13/2021 7:00:00 AM 18.03 64.454 0.12 7.29 6.31 9.05
7/13/2021 7:15:00 AM 18.04 64.472 0.121 7.31 6.25 9.11
7/13/2021 7:30:00 AM 18.05 64.49 0.121 7.32 5.88 9.14
7/13/2021 7:45:00 AM 18.07 64.526 0.121 7.33 5.81 9.16
7/13/2021 8:00:00 AM 18.08 64.544 0.122 7.34 5.6 9.19
7/13/2021 8:15:00 AM 18.12 64.616 0.122 7.36 5.54 9.26
7/13/2021 8:30:00 AM 18.16 64.688 0.122 7.39 5.23 9.32
7/13/2021 8:45:00 AM 18.22 64.796 0.122 7.44 5.11 9.43
7/13/2021 9:00:00 AM 18.26 64.868 0.123 7.47 4.76 9.38
7/13/2021 9:15:00 AM 18.26 64.868 0.123 7.46 4.72 9.32
7/13/2021 9:30:00 AM 18.28 64.904 0.123 7.48 4.38 9.38
7/13/2021 9:45:00 AM 18.33 64.994 0.124 7.51 4.35 9.49
7/13/2021 10:00:00 AM 18.45 65.21 0.124 7.56 4.14 9.59
7/13/2021 10:15:00 AM 18.61 65.498 0.124 7.61 4.1 9.67
7/13/2021 10:30:00 AM 18.73 65.714 0.124 7.65 3.72 9.71
7/13/2021 10:45:00 AM 18.87 65.966 0.124 7.69 3.52 9.72
7/13/2021 11:00:00 AM 19.13 66.434 0.124 7.73 3.54 9.72
7/13/2021 11:15:00 AM 19.39 66.902 0.124 7.76 3.47 9.76
7/13/2021 11:30:00 AM 19.53 67.154 0.124 7.77 3.42 9.71
7/13/2021 11:45:00 AM 19.72 67.496 0.125 7.8 3.36 9.68
7/13/2021 12:00:00 PM 19.85 67.73 0.125 7.83 3.29 9.72
7/13/2021 12:15:00 PM 19.95 67.91 0.125 7.87 3.33 9.75
7/13/2021 12:30:00 PM 20.03 68.054 0.125 7.89 3.13 9.74
7/13/2021 12:45:00 PM 20.19 68.342 0.125 7.9 3.11 9.71
7/13/2021 1:00:00 PM 20.29 68.522 0.125 7.89 3.03 9.63
7/13/2021 1:15:00 PM 20.57 69.026 0.125 7.92 3.21 9.65
7/13/2021 1:30:00 PM 20.72 69.296 0.125 7.92 2.92 9.55
7/13/2021 1:45:00 PM 20.73 69.314 0.126 7.8 3.09 9.25
7/13/2021 2:00:00 PM 20.78 69.404 0.126 7.73 3.08 9.12
7/13/2021 2:15:00 PM 20.99 69.782 0.126 7.79 3.08 9.31
7/13/2021 2:30:00 PM 21.19 70.142 0.125 7.87 2.97 9.43
7/13/2021 2:45:00 PM 21.48 70.664 0.125 7.92 2.86 9.45
7/13/2021 3:00:00 PM 21.79 71.222 0.125 7.97 2.82 9.42
7/13/2021 3:15:00 PM 22.07 71.726 0.125 8 2.79 9.4
7/13/2021 3:30:00 PM 22.08 71.744 0.125 7.93 3.03 9.21
7/13/2021 3:45:00 PM -99999.99 -179968 -99999.99 -99999.99 -99999.99 -99999.99
7/13/2021 4:00:00 PM -99999.99 -179968 -99999.99 -99999.99 -99999.99 -99999.99
7/13/2021 4:15:00 PM -99999.99 -179968 -99999.99 -99999.99 -99999.99 -99999.99
7/13/2021 4:30:00 PM -99999.99 -179968 -99999.99 -99999.99 -99999.99 -99999.99
7/13/2021 4:45:00 PM -99999.99 -179968 -99999.99 -99999.99 -99999.99 -99999.99
7/13/2021 5:00:00 PM -99999.99 -179968 -99999.99 -99999.99 -99999.99 -99999.99
7/13/2021 5:15:00 PM -99999.99 -179968 -99999.99 -99999.99 -99999.99 -99999.99
7/13/2021 5:30:00 PM -99999.99 -179968 -99999.99 -99999.99 -99999.99 -99999.99
7/13/2021 5:45:00 PM -99999.99 -179968 -99999.99 -99999.99 -99999.99 -99999.99
7/13/2021 6:00:00 PM -99999.99 -179968 -99999.99 -99999.99 -99999.99 -99999.99
7/13/2021 6:15:00 PM -99999.99 -179968 -99999.99 -99999.99 -99999.99 -99999.99
7/13/2021 6:30:00 PM -99999.99 -179968 -99999.99 -99999.99 -99999.99 -99999.99
7/13/2021 6:45:00 PM -99999.99 -179968 -99999.99 -99999.99 -99999.99 -99999.99
7/13/2021 7:00:00 PM -99999.99 -179968 -99999.99 -99999.99 -99999.99 -99999.99
7/13/2021 7:15:00 PM -99999.99 -179968 -99999.99 -99999.99 -99999.99 -99999.99
7/13/2021 7:30:00 PM -99999.99 -179968 -99999.99 -99999.99 -99999.99 -99999.99
7/13/2021 7:45:00 PM -99999.99 -179968 -99999.99 -99999.99 -99999.99 -99999.99
7/13/2021 8:00:00 PM -99999.99 -179968 -99999.99 -99999.99 -99999.99 -99999.99
7/13/2021 8:15:00 PM -99999.99 -179968 -99999.99 -99999.99 -99999.99 -99999.99
7/13/2021 8:30:00 PM -99999.99 -179968 -99999.99 -99999.99 -99999.99 -99999.99
7/13/2021 8:45:00 PM -99999.99 -179968 -99999.99 -99999.99 -99999.99 -99999.99
7/13/2021 9:00:00 PM -99999.99 -179968 -99999.99 -99999.99 -99999.99 -99999.99
7/13/2021 9:15:00 PM -99999.99 -179968 -99999.99 -99999.99 -99999.99 -99999.99
7/13/2021 9:30:00 PM -99999.99 -179968 -99999.99 -99999.99 -99999.99 -99999.99
7/13/2021 9:45:00 PM -99999.99 -179968 -99999.99 -99999.99 -99999.99 -99999.99
7/13/2021 10:00:00 PM -99999.99 -179968 -99999.99 -99999.99 -99999.99 -99999.99
7/13/2021 10:15:00 PM -99999.99 -179968 -99999.99 -99999.99 -99999.99 -99999.99
7/13/2021 10:30:00 PM -99999.99 -179968 -99999.99 -99999.99 -99999.99 -99999.99
7/13/2021 10:45:00 PM -99999.99 -179968 -99999.99 -99999.99 -99999.99 -99999.99
7/13/2021 11:00:00 PM -99999.99 -179968 -99999.99 -99999.99 -99999.99 -99999.99
7/13/2021 11:15:00 PM -99999.99 -179968 -99999.99 -99999.99 -99999.99 -99999.99
7/13/2021 11:30:00 PM -99999.99 -179968 -99999.99 -99999.99 -99999.99 -99999.99
7/13/2021 11:45:00 PM -99999.99 -179968 -99999.99 -99999.99 -99999.99 -99999.99
7/14/2021 12:00:00 AM -99999.99 -179968 -99999.99 -99999.99 -99999.99 -99999.99
7/14/2021 12:15:00 AM -99999.99 -179968 -99999.99 -99999.99 -99999.99 -99999.99
7/14/2021 12:30:00 AM -99999.99 -179968 -99999.99 -99999.99 -99999.99 -99999.99
7/14/2021 12:45:00 AM -99999.99 -179968 -99999.99 -99999.99 -99999.99 -99999.99
7/14/2021 1:00:00 AM -99999.99 -179968 -99999.99 -99999.99 -99999.99 -99999.99
7/14/2021 1:15:00 AM -99999.99 -179968 -99999.99 -99999.99 -99999.99 -99999.99
7/14/2021 1:30:00 AM -99999.99 -179968 -99999.99 -99999.99 -99999.99 -99999.99
7/14/2021 1:45:00 AM -99999.99 -179968 -99999.99 -99999.99 -99999.99 -99999.99
7/14/2021 2:00:00 AM -99999.99 -179968 -99999.99 -99999.99 -99999.99 -99999.99
7/14/2021 2:15:00 AM -99999.99 -179968 -99999.99 -99999.99 -99999.99 -99999.99
7/14/2021 2:30:00 AM -99999.99 -179968 -99999.99 -99999.99 -99999.99 -99999.99
7/14/2021 2:45:00 AM -99999.99 -179968 -99999.99 -99999.99 -99999.99 -99999.99
7/14/2021 3:00:00 AM -99999.99 -179968 -99999.99 -99999.99 -99999.99 -99999.99
7/14/2021 3:15:00 AM -99999.99 -179968 -99999.99 -99999.99 -99999.99 -99999.99
7/14/2021 3:30:00 AM -99999.99 -179968 -99999.99 -99999.99 -99999.99 -99999.99
7/14/2021 3:45:00 AM -99999.99 -179968 -99999.99 -99999.99 -99999.99 -99999.99
7/14/2021 4:00:00 AM -99999.99 -179968 -99999.99 -99999.99 -99999.99 -99999.99
7/14/2021 4:15:00 AM -99999.99 -179968 -99999.99 -99999.99 -99999.99 -99999.99
7/14/2021 4:30:00 AM -99999.99 -179968 -99999.99 -99999.99 -99999.99 -99999.99
7/14/2021 4:45:00 AM -99999.99 -179968 -99999.99 -99999.99 -99999.99 -99999.99
7/14/2021 5:00:00 AM -99999.99 -179968 -99999.99 -99999.99 -99999.99 -99999.99
7/14/2021 5:15:00 AM -99999.99 -179968 -99999.99 -99999.99 -99999.99 -99999.99
7/14/2021 5:30:00 AM -99999.99 -179968 -99999.99 -99999.99 -99999.99 -99999.99
7/14/2021 5:45:00 AM -99999.99 -179968 -99999.99 -99999.99 -99999.99 -99999.99
7/14/2021 6:00:00 AM -99999.99 -179968 -99999.99 -99999.99 -99999.99 -99999.99
7/14/2021 6:15:00 AM -99999.99 -179968 -99999.99 -99999.99 -99999.99 -99999.99
7/14/2021 6:30:00 AM -99999.99 -179968 -99999.99 -99999.99 -99999.99 -99999.99
7/14/2021 6:45:00 AM -99999.99 -179968 -99999.99 -99999.99 -99999.99 -99999.99
7/14/2021 7:00:00 AM -99999.99 -179968 -99999.99 -99999.99 -99999.99 -99999.99
7/14/2021 7:15:00 AM -99999.99 -179968 -99999.99 -99999.99 -99999.99 -99999.99
7/14/2021 7:30:00 AM -99999.99 -179968 -99999.99 -99999.99 -99999.99 -99999.99
7/14/2021 7:45:00 AM -99999.99 -179968 -99999.99 -99999.99 -99999.99 -99999.99
7/14/2021 8:00:00 AM -99999.99 -179968 -99999.99 -99999.99 -99999.99 -99999.99
7/14/2021 8:15:00 AM -99999.99 -179968 -99999.99 -99999.99 -99999.99 -99999.99
7/14/2021 8:30:00 AM -99999.99 -179968 -99999.99 -99999.99 -99999.99 -99999.99
7/14/2021 8:45:00 AM -99999.99 -179968 -99999.99 -99999.99 -99999.99 -99999.99
7/14/2021 9:00:00 AM -99999.99 -179968 -99999.99 -99999.99 -99999.99 -99999.99
7/14/2021 9:15:00 AM -99999.99 -179968 -99999.99 -99999.99 -99999.99 -99999.99
7/14/2021 9:30:00 AM -99999.99 -179968 -99999.99 -99999.99 -99999.99 -99999.99
7/14/2021 9:45:00 AM -99999.99 -179968 -99999.99 -99999.99 -99999.99 -99999.99
7/14/2021 10:00:00 AM -99999.99 -179968 -99999.99 -99999.99 -99999.99 -99999.99
7/14/2021 10:15:00 AM -99999.99 -179968 -99999.99 -99999.99 -99999.99 -99999.99
7/14/2021 10:30:00 AM -99999.99 -179968 -99999.99 -99999.99 -99999.99 -99999.99
7/14/2021 10:45:00 AM -99999.99 -179968 -99999.99 -99999.99 -99999.99 -99999.99
7/14/2021 11:00:00 AM -99999.99 -179968 -99999.99 -99999.99 -99999.99 -99999.99
7/14/2021 11:15:00 AM -99999.99 -179968 -99999.99 -99999.99 -99999.99 -99999.99
7/14/2021 11:30:00 AM -99999.99 -179968 -99999.99 -99999.99 -99999.99 -99999.99
7/14/2021 11:45:00 AM -99999.99 -179968 -99999.99 -99999.99 -99999.99 -99999.99
7/14/2021 12:00:00 PM -99999.99 -179968 -99999.99 -99999.99 -99999.99 -99999.99
7/14/2021 12:15:00 PM -99999.99 -179968 -99999.99 -99999.99 -99999.99 -99999.99
7/14/2021 12:30:00 PM -99999.99 -179968 -99999.99 -99999.99 -99999.99 -99999.99
7/14/2021 12:45:00 PM -99999.99 -179968 -99999.99 -99999.99 -99999.99 -99999.99
7/14/2021 1:00:00 PM -99999.99 -179968 -99999.99 -99999.99 -99999.99 -99999.99
7/14/2021 1:15:00 PM -99999.99 -179968 -99999.99 -99999.99 -99999.99 -99999.99
7/14/2021 1:30:00 PM -99999.99 -179968 -99999.99 -99999.99 -99999.99 -99999.99
7/14/2021 1:45:00 PM -99999.99 -179968 -99999.99 -99999.99 -99999.99 -99999.99
7/14/2021 2:00:00 PM -99999.99 -179968 -99999.99 -99999.99 -99999.99 -99999.99
7/14/2021 2:15:00 PM -99999.99 -179968 -99999.99 -99999.99 -99999.99 -99999.99
7/14/2021 2:30:00 PM -99999.99 -179968 -99999.99 -99999.99 -99999.99 -99999.99
7/14/2021 2:45:00 PM -99999.99 -179968 -99999.99 -99999.99 -99999.99 -99999.99
7/14/2021 3:00:00 PM -99999.99 -179968 -99999.99 -99999.99 -99999.99 -99999.99
7/14/2021 3:15:00 PM -99999.99 -179968 -99999.99 -99999.99 -99999.99 -99999.99
7/14/2021 3:30:00 PM -99999.99 -179968 -99999.99 -99999.99 -99999.99 -99999.99
7/14/2021 3:45:00 PM -99999.99 -179968 -99999.99 -99999.99 -99999.99 -99999.99
7/14/2021 4:00:00 PM -99999.99 -179968 -99999.99 -99999.99 -99999.99 -99999.99
7/14/2021 4:15:00 PM -99999.99 -179968 -99999.99 -99999.99 -99999.99 -99999.99
7/14/2021 4:30:00 PM -99999.99 -179968 -99999.99 -99999.99 -99999.99 -99999.99
7/14/2021 4:45:00 PM -99999.99 -179968 -99999.99 -99999.99 -99999.99 -99999.99
7/14/2021 5:00:00 PM -99999.99 -179968 -99999.99 -99999.99 -99999.99 -99999.99
7/14/2021 5:15:00 PM -99999.99 -179968 -99999.99 -99999.99 -99999.99 -99999.99
7/14/2021 5:30:00 PM -99999.99 -179968 -99999.99 -99999.99 -99999.99 -99999.99
7/14/2021 5:45:00 PM -99999.99 -179968 -99999.99 -99999.99 -99999.99 -99999.99
7/14/2021 6:00:00 PM -99999.99 -179968 -99999.99 -99999.99 -99999.99 -99999.99
7/14/2021 6:15:00 PM -99999.99 -179968 -99999.99 -99999.99 -99999.99 -99999.99
7/14/2021 6:30:00 PM -99999.99 -179968 -99999.99 -99999.99 -99999.99 -99999.99
7/14/2021 6:45:00 PM -99999.99 -179968 -99999.99 -99999.99 -99999.99 -99999.99
7/14/2021 7:00:00 PM -99999.99 -179968 -99999.99 -99999.99 -99999.99 -99999.99
7/14/2021 7:15:00 PM -99999.99 -179968 -99999.99 -99999.99 -99999.99 -99999.99
7/14/2021 7:30:00 PM -99999.99 -179968 -99999.99 -99999.99 -99999.99 -99999.99
7/14/2021 7:45:00 PM -99999.99 -179968 -99999.99 -99999.99 -99999.99 -99999.99
7/14/2021 8:00:00 PM -99999.99 -179968 -99999.99 -99999.99 -99999.99 -99999.99
7/14/2021 8:15:00 PM -99999.99 -179968 -99999.99 -99999.99 -99999.99 -99999.99
7/14/2021 8:30:00 PM -99999.99 -179968 -99999.99 -99999.99 -99999.99 -99999.99
7/14/2021 8:45:00 PM -99999.99 -179968 -99999.99 -99999.99 -99999.99 -99999.99
7/14/2021 9:00:00 PM -99999.99 -179968 -99999.99 -99999.99 -99999.99 -99999.99
7/14/2021 9:15:00 PM -99999.99 -179968 -99999.99 -99999.99 -99999.99 -99999.99
7/14/2021 9:30:00 PM -99999.99 -179968 -99999.99 -99999.99 -99999.99 -99999.99
7/14/2021 9:45:00 PM -99999.99 -179968 -99999.99 -99999.99 -99999.99 -99999.99
7/14/2021 10:00:00 PM -99999.99 -179968 -99999.99 -99999.99 -99999.99 -99999.99
7/14/2021 10:15:00 PM -99999.99 -179968 -99999.99 -99999.99 -99999.99 -99999.99
7/14/2021 10:30:00 PM -99999.99 -179968 -99999.99 -99999.99 -99999.99 -99999.99
7/14/2021 10:45:00 PM -99999.99 -179968 -99999.99 -99999.99 -99999.99 -99999.99
7/14/2021 11:00:00 PM -99999.99 -179968 -99999.99 -99999.99 -99999.99 -99999.99
7/14/2021 11:15:00 PM -99999.99 -179968 -99999.99 -99999.99 -99999.99 -99999.99
7/14/2021 11:30:00 PM -99999.99 -179968 -99999.99 -99999.99 -99999.99 -99999.99
7/14/2021 11:45:00 PM -99999.99 -179968 -99999.99 -99999.99 -99999.99 -99999.99
7/15/2021 12:00:00 AM -99999.99 -179968 -99999.99 -99999.99 -99999.99 -99999.99
7/15/2021 12:15:00 AM -99999.99 -179968 -99999.99 -99999.99 -99999.99 -99999.99
7/15/2021 12:30:00 AM -99999.99 -179968 -99999.99 -99999.99 -99999.99 -99999.99
7/15/2021 12:45:00 AM -99999.99 -179968 -99999.99 -99999.99 -99999.99 -99999.99
7/15/2021 1:00:00 AM -99999.99 -179968 -99999.99 -99999.99 -99999.99 -99999.99
7/15/2021 1:15:00 AM -99999.99 -179968 -99999.99 -99999.99 -99999.99 -99999.99
7/15/2021 1:30:00 AM -99999.99 -179968 -99999.99 -99999.99 -99999.99 -99999.99
7/15/2021 1:45:00 AM -99999.99 -179968 -99999.99 -99999.99 -99999.99 -99999.99
7/15/2021 2:00:00 AM -99999.99 -179968 -99999.99 -99999.99 -99999.99 -99999.99
7/15/2021 2:15:00 AM -99999.99 -179968 -99999.99 -99999.99 -99999.99 -99999.99
7/15/2021 2:30:00 AM -99999.99 -179968 -99999.99 -99999.99 -99999.99 -99999.99
7/15/2021 2:45:00 AM -99999.99 -179968 -99999.99 -99999.99 -99999.99 -99999.99
7/15/2021 3:00:00 AM -99999.99 -179968 -99999.99 -99999.99 -99999.99 -99999.99
7/15/2021 3:15:00 AM -99999.99 -179968 -99999.99 -99999.99 -99999.99 -99999.99
7/15/2021 3:30:00 AM -99999.99 -179968 -99999.99 -99999.99 -99999.99 -99999.99
7/15/2021 3:45:00 AM -99999.99 -179968 -99999.99 -99999.99 -99999.99 -99999.99
7/15/2021 4:00:00 AM -99999.99 -179968 -99999.99 -99999.99 -99999.99 -99999.99
7/15/2021 4:15:00 AM -99999.99 -179968 -99999.99 -99999.99 -99999.99 -99999.99
7/15/2021 4:30:00 AM -99999.99 -179968 -99999.99 -99999.99 -99999.99 -99999.99
7/15/2021 4:45:00 AM -99999.99 -179968 -99999.99 -99999.99 -99999.99 -99999.99
7/15/2021 5:00:00 AM -99999.99 -179968 -99999.99 -99999.99 -99999.99 -99999.99
7/15/2021 5:15:00 AM -99999.99 -179968 -99999.99 -99999.99 -99999.99 -99999.99
7/15/2021 5:30:00 AM -99999.99 -179968 -99999.99 -99999.99 -99999.99 -99999.99
7/15/2021 5:45:00 AM -99999.99 -179968 -99999.99 -99999.99 -99999.99 -99999.99
7/15/2021 6:00:00 AM -99999.99 -179968 -99999.99 -99999.99 -99999.99 -99999.99
7/15/2021 6:15:00 AM -99999.99 -179968 -99999.99 -99999.99 -99999.99 -99999.99
7/15/2021 6:30:00 AM -99999.99 -179968 -99999.99 -99999.99 -99999.99 -99999.99
7/15/2021 6:45:00 AM -99999.99 -179968 -99999.99 -99999.99 -99999.99 -99999.99
7/15/2021 7:00:00 AM -99999.99 -179968 -99999.99 -99999.99 -99999.99 -99999.99
7/15/2021 7:15:00 AM -99999.99 -179968 -99999.99 -99999.99 -99999.99 -99999.99
7/15/2021 7:30:00 AM -99999.99 -179968 -99999.99 -99999.99 -99999.99 -99999.99
7/15/2021 7:45:00 AM -99999.99 -179968 -99999.99 -99999.99 -99999.99 -99999.99
7/15/2021 8:00:00 AM -99999.99 -179968 -99999.99 -99999.99 -99999.99 -99999.99
7/15/2021 8:15:00 AM -99999.99 -179968 -99999.99 -99999.99 -99999.99 -99999.99
7/15/2021 8:30:00 AM -99999.99 -179968 -99999.99 -99999.99 -99999.99 -99999.99
7/15/2021 8:45:00 AM -99999.99 -179968 -99999.99 -99999.99 -99999.99 -99999.99
7/15/2021 9:00:00 AM -99999.99 -179968 -99999.99 -99999.99 -99999.99 -99999.99
7/15/2021 9:15:00 AM -99999.99 -179968 -99999.99 -99999.99 -99999.99 -99999.99
7/15/2021 9:30:00 AM -99999.99 -179968 -99999.99 -99999.99 -99999.99 -99999.99
7/15/2021 9:45:00 AM -99999.99 -179968 -99999.99 -99999.99 -99999.99 -99999.99
7/15/2021 10:00:00 AM -99999.99 -179968 -99999.99 -99999.99 -99999.99 -99999.99
7/15/2021 10:15:00 AM -99999.99 -179968 -99999.99 -99999.99 -99999.99 -99999.99
7/15/2021 10:30:00 AM -99999.99 -179968 -99999.99 -99999.99 -99999.99 -99999.99
7/15/2021 10:45:00 AM -99999.99 -179968 -99999.99 -99999.99 -99999.99 -99999.99
7/15/2021 11:00:00 AM -99999.99 -179968 -99999.99 -99999.99 -99999.99 -99999.99
7/15/2021 11:15:00 AM -99999.99 -179968 -99999.99 -99999.99 -99999.99 -99999.99
7/15/2021 11:30:00 AM -99999.99 -179968 -99999.99 -99999.99 -99999.99 -99999.99
7/15/2021 11:45:00 AM -99999.99 -179968 -99999.99 -99999.99 -99999.99 -99999.99
7/15/2021 12:00:00 PM -99999.99 -179968 -99999.99 -99999.99 -99999.99 -99999.99
7/15/2021 12:15:00 PM -99999.99 -179968 -99999.99 -99999.99 -99999.99 -99999.99
7/15/2021 12:30:00 PM -99999.99 -179968 -99999.99 -99999.99 -99999.99 -99999.99
7/15/2021 12:45:00 PM -99999.99 -179968 -99999.99 -99999.99 -99999.99 -99999.99
7/15/2021 1:00:00 PM -99999.99 -179968 -99999.99 -99999.99 -99999.99 -99999.99
7/15/2021 1:15:00 PM -99999.99 -179968 -99999.99 -99999.99 -99999.99 -99999.99
7/15/2021 1:30:00 PM -99999.99 -179968 -99999.99 -99999.99 -99999.99 -99999.99
7/15/2021 1:45:00 PM -99999.99 -179968 -99999.99 -99999.99 -99999.99 -99999.99
7/15/2021 2:00:00 PM -99999.99 -179968 -99999.99 -99999.99 -99999.99 -99999.99
7/15/2021 2:15:00 PM -99999.99 -179968 -99999.99 -99999.99 -99999.99 -99999.99
7/15/2021 2:30:00 PM -99999.99 -179968 -99999.99 -99999.99 -99999.99 -99999.99
7/15/2021 2:45:00 PM -99999.99 -179968 -99999.99 -99999.99 -99999.99 -99999.99
7/15/2021 3:00:00 PM -99999.99 -179968 -99999.99 -99999.99 -99999.99 -99999.99
7/15/2021 3:15:00 PM -99999.99 -179968 -99999.99 -99999.99 -99999.99 -99999.99
7/15/2021 3:30:00 PM -99999.99 -179968 -99999.99 -99999.99 -99999.99 -99999.99
7/15/2021 3:45:00 PM -99999.99 -179968 -99999.99 -99999.99 -99999.99 -99999.99
7/15/2021 4:00:00 PM -99999.99 -179968 -99999.99 -99999.99 -99999.99 -99999.99
7/15/2021 4:15:00 PM -99999.99 -179968 -99999.99 -99999.99 -99999.99 -99999.99
7/15/2021 4:30:00 PM -99999.99 -179968 -99999.99 -99999.99 -99999.99 -99999.99
7/15/2021 4:45:00 PM -99999.99 -179968 -99999.99 -99999.99 -99999.99 -99999.99
7/15/2021 5:00:00 PM -99999.99 -179968 -99999.99 -99999.99 -99999.99 -99999.99
7/15/2021 5:15:00 PM -99999.99 -179968 -99999.99 -99999.99 -99999.99 -99999.99
7/15/2021 5:30:00 PM -99999.99 -179968 -99999.99 -99999.99 -99999.99 -99999.99
7/15/2021 5:45:00 PM -99999.99 -179968 -99999.99 -99999.99 -99999.99 -99999.99
7/15/2021 6:00:00 PM -99999.99 -179968 -99999.99 -99999.99 -99999.99 -99999.99
7/15/2021 6:15:00 PM -99999.99 -179968 -99999.99 -99999.99 -99999.99 -99999.99
7/15/2021 6:30:00 PM -99999.99 -179968 -99999.99 -99999.99 -99999.99 -99999.99
7/15/2021 6:45:00 PM -99999.99 -179968 -99999.99 -99999.99 -99999.99 -99999.99
7/15/2021 7:00:00 PM -99999.99 -179968 -99999.99 -99999.99 -99999.99 -99999.99
7/15/2021 7:15:00 PM -99999.99 -179968 -99999.99 -99999.99 -99999.99 -99999.99
7/15/2021 7:30:00 PM -99999.99 -179968 -99999.99 -99999.99 -99999.99 -99999.99
7/15/2021 7:45:00 PM -99999.99 -179968 -99999.99 -99999.99 -99999.99 -99999.99
7/15/2021 8:00:00 PM -99999.99 -179968 -99999.99 -99999.99 -99999.99 -99999.99
7/15/2021 8:15:00 PM -99999.99 -179968 -99999.99 -99999.99 -99999.99 -99999.99
7/15/2021 8:30:00 PM -99999.99 -179968 -99999.99 -99999.99 -99999.99 -99999.99
7/15/2021 8:45:00 PM -99999.99 -179968 -99999.99 -99999.99 -99999.99 -99999.99
7/15/2021 9:00:00 PM -99999.99 -179968 -99999.99 -99999.99 -99999.99 -99999.99
7/15/2021 9:15:00 PM -99999.99 -179968 -99999.99 -99999.99 -99999.99 -99999.99
7/15/2021 9:30:00 PM -99999.99 -179968 -99999.99 -99999.99 -99999.99 -99999.99
7/15/2021 9:45:00 PM -99999.99 -179968 -99999.99 -99999.99 -99999.99 -99999.99
7/15/2021 10:00:00 PM -99999.99 -179968 -99999.99 -99999.99 -99999.99 -99999.99
7/15/2021 10:15:00 PM -99999.99 -179968 -99999.99 -99999.99 -99999.99 -99999.99
7/15/2021 10:30:00 PM -99999.99 -179968 -99999.99 -99999.99 -99999.99 -99999.99
7/15/2021 10:45:00 PM -99999.99 -179968 -99999.99 -99999.99 -99999.99 -99999.99
7/15/2021 11:00:00 PM -99999.99 -179968 -99999.99 -99999.99 -99999.99 -99999.99
7/15/2021 11:15:00 PM -99999.99 -179968 -99999.99 -99999.99 -99999.99 -99999.99
7/15/2021 11:30:00 PM -99999.99 -179968 -99999.99 -99999.99 -99999.99 -99999.99
7/15/2021 11:45:00 PM -99999.99 -179968 -99999.99 -99999.99 -99999.99 -99999.99
7/16/2021 12:00:00 AM -99999.99 -179968 -99999.99 -99999.99 -99999.99 -99999.99
7/16/2021 12:15:00 AM -99999.99 -179968 -99999.99 -99999.99 -99999.99 -99999.99
7/16/2021 12:30:00 AM -99999.99 -179968 -99999.99 -99999.99 -99999.99 -99999.99
7/16/2021 12:45:00 AM -99999.99 -179968 -99999.99 -99999.99 -99999.99 -99999.99
7/16/2021 1:00:00 AM -99999.99 -179968 -99999.99 -99999.99 -99999.99 -99999.99
7/16/2021 1:15:00 AM -99999.99 -179968 -99999.99 -99999.99 -99999.99 -99999.99
7/16/2021 1:30:00 AM -99999.99 -179968 -99999.99 -99999.99 -99999.99 -99999.99
7/16/2021 1:45:00 AM -99999.99 -179968 -99999.99 -99999.99 -99999.99 -99999.99
7/16/2021 2:00:00 AM -99999.99 -179968 -99999.99 -99999.99 -99999.99 -99999.99
7/16/2021 2:15:00 AM -99999.99 -179968 -99999.99 -99999.99 -99999.99 -99999.99
7/16/2021 2:30:00 AM -99999.99 -179968 -99999.99 -99999.99 -99999.99 -99999.99
7/16/2021 2:45:00 AM -99999.99 -179968 -99999.99 -99999.99 -99999.99 -99999.99
7/16/2021 3:00:00 AM -99999.99 -179968 -99999.99 -99999.99 -99999.99 -99999.99
7/16/2021 3:15:00 AM -99999.99 -179968 -99999.99 -99999.99 -99999.99 -99999.99
7/16/2021 3:30:00 AM -99999.99 -179968 -99999.99 -99999.99 -99999.99 -99999.99
7/16/2021 3:45:00 AM -99999.99 -179968 -99999.99 -99999.99 -99999.99 -99999.99
7/16/2021 4:00:00 AM -99999.99 -179968 -99999.99 -99999.99 -99999.99 -99999.99
7/16/2021 4:15:00 AM -99999.99 -179968 -99999.99 -99999.99 -99999.99 -99999.99
7/16/2021 4:30:00 AM -99999.99 -179968 -99999.99 -99999.99 -99999.99 -99999.99
7/16/2021 4:45:00 AM -99999.99 -179968 -99999.99 -99999.99 -99999.99 -99999.99
7/16/2021 5:00:00 AM -99999.99 -179968 -99999.99 -99999.99 -99999.99 -99999.99
7/16/2021 5:15:00 AM -99999.99 -179968 -99999.99 -99999.99 -99999.99 -99999.99
7/16/2021 5:30:00 AM -99999.99 -179968 -99999.99 -99999.99 -99999.99 -99999.99
7/16/2021 5:45:00 AM -99999.99 -179968 -99999.99 -99999.99 -99999.99 -99999.99
7/16/2021 6:00:00 AM -99999.99 -179968 -99999.99 -99999.99 -99999.99 -99999.99
7/16/2021 6:15:00 AM -99999.99 -179968 -99999.99 -99999.99 -99999.99 -99999.99
7/16/2021 6:30:00 AM -99999.99 -179968 -99999.99 -99999.99 -99999.99 -99999.99
7/16/2021 6:45:00 AM -99999.99 -179968 -99999.99 -99999.99 -99999.99 -99999.99
7/16/2021 7:00:00 AM -99999.99 -179968 -99999.99 -99999.99